Darstellungsparameter: Aktuell verwendete Einstellungen:
Skalierung der Graphiken ... ?
xyx+y,   Skalierungsfaktor:      Skalierung: Modus: x, Faktor: 1
Darstellungszeitraum ... ?
Vom - - bis: - -   Zeitraum: 09.04.2020 - 08.05.2020
Min/Max/Avg-Anzeige ... ?
Zeige MMA aktuell
Zeige MMA Monat
Zeige MMA alles
Zeige --A aktuell
Zeige --A Monat
Zeige --A alles
Keine MMA-Anzeige
MMA:
Average (ber die Originaldaten)
MMA-Basis: 09.04.2020 - 08.05.2020
Quicknavigation für Darstellung... ?
Tage:      1T, 2T, 3T, 5T -1T -2T -3T -5T +1T +2T +3T +5T
Wochen: 1W, 2W, 3W -1W -2W -3W +1W +2W +3W
Monate: 1M, 3M, 6M -1M -3M -6M +1M +3M +6M
Jahre:    1J, 3J, 5J, 10J -1J -3J -5J -10J +1J +3J +5J +10J
Nutze für die Darstellung ... ?
Originaldaten oder Mittelwerte auf ...
Stundenbasis Tagesbasis Wochenbasis
Monatsbasis Jahresbasis      Datenbasis: Original-Daten
Darstellen als:
Statistik (Auto) Statistik J:M      Darstellung:
Zur Graphik,    zurück zur Übersicht aller Sensoren.
 
Tabellarische Datenbersicht: ?
 
Sensor: Nr:Datum:Temp:Feuchte:
Aussen-T/F 1 09-04-2020 00:01:18 10.7 C 29 %
2 09-04-2020 00:11:18 10.7 C 29 %
3 09-04-2020 00:21:17 10.3 C 30 %
4 09-04-2020 00:31:18 10 C 30 %
5 09-04-2020 00:41:18 10.5 C 30 %
6 09-04-2020 00:51:17 10.5 C 30 %
7 09-04-2020 01:01:17 10 C 30 %
8 09-04-2020 01:11:17 9.6 C 31 %
9 09-04-2020 01:21:17 9.2 C 32 %
10 09-04-2020 01:31:17 9.9 C 33 %
11 09-04-2020 01:41:17 9.3 C 33 %
12 09-04-2020 01:51:17 9.6 C 33 %
13 09-04-2020 02:01:17 8.8 C 35 %
14 09-04-2020 02:11:17 9.1 C 34 %
15 09-04-2020 02:21:18 9 C 34 %
16 09-04-2020 02:31:18 8.8 C 35 %
17 09-04-2020 02:41:18 8.7 C 35 %
18 09-04-2020 02:51:17 8.8 C 35 %
19 09-04-2020 03:01:17 9.2 C 34 %
20 09-04-2020 03:11:17 9.7 C 33 %
21 09-04-2020 03:21:17 9.5 C 33 %
22 09-04-2020 03:31:17 9.4 C 34 %
23 09-04-2020 03:41:17 9.5 C 34 %
24 09-04-2020 03:51:17 10.2 C 32 %
25 09-04-2020 04:01:17 9.9 C 34 %
Sensor: Nr:Datum:Temp:Feuchte:
Aussen-T/F 26 09-04-2020 04:11:17 10.1 C 33 %
27 09-04-2020 04:21:17 10 C 33 %
28 09-04-2020 04:31:18 9.4 C 34 %
29 09-04-2020 04:41:18 9.3 C 35 %
30 09-04-2020 04:51:17 8.9 C 35 %
31 09-04-2020 05:01:17 8.7 C 36 %
32 09-04-2020 05:11:17 8.6 C 35 %
33 09-04-2020 05:21:17 8.5 C 36 %
34 09-04-2020 05:31:18 8.2 C 36 %
35 09-04-2020 05:41:18 8.1 C 36 %
36 09-04-2020 05:51:17 8.1 C 37 %
37 09-04-2020 06:01:18 8.1 C 37 %
38 09-04-2020 06:11:18 7.7 C 38 %
39 09-04-2020 06:21:17 7.1 C 38 %
40 09-04-2020 06:31:17 7 C 38 %
41 09-04-2020 06:41:17 6.6 C 39 %
42 09-04-2020 06:51:17 6.8 C 40 %
43 09-04-2020 07:01:17 6.9 C 40 %
44 09-04-2020 07:11:17 7.3 C 39 %
45 09-04-2020 07:21:17 7.3 C 39 %
46 09-04-2020 07:31:17 7 C 39 %
47 09-04-2020 07:41:17 6.9 C 40 %
48 09-04-2020 07:51:17 7 C 40 %
49 09-04-2020 08:01:17 7 C 40 %
50 09-04-2020 08:11:17 7.3 C 40 %
Sensor: Nr:Datum:Temp:Feuchte:
Aussen-T/F 51 09-04-2020 08:21:18 7.4 C 40 %
52 09-04-2020 08:31:17 7.6 C 40 %
53 09-04-2020 08:41:17 8 C 39 %
54 09-04-2020 08:51:17 8.3 C 39 %
55 09-04-2020 09:01:17 8.5 C 38 %
56 09-04-2020 09:11:17 8.7 C 39 %
57 09-04-2020 09:21:17 9 C 38 %
58 09-04-2020 09:31:17 9.3 C 38 %
59 09-04-2020 09:41:17 9.8 C 37 %
60 09-04-2020 09:51:17 10.4 C 36 %
61 09-04-2020 10:01:17 10.8 C 36 %
62 09-04-2020 10:11:17 11.2 C 35 %
63 09-04-2020 10:21:17 11.8 C 35 %
64 09-04-2020 10:31:17 12.6 C 34 %
65 09-04-2020 10:41:17 13.3 C 32 %
66 09-04-2020 10:51:18 14.6 C 31 %
67 09-04-2020 11:01:17 15.4 C 30 %
68 09-04-2020 11:11:18 16.2 C 28 %
69 09-04-2020 11:21:17 17 C 25 %
70 09-04-2020 11:31:17 17.9 C 23 %
71 09-04-2020 11:41:17 18.5 C 21 %
72 09-04-2020 11:51:18 19 C 20 %
73 09-04-2020 12:01:17 19.3 C 20 %
74 09-04-2020 12:11:17 19.8 C 20 %
75 09-04-2020 12:21:17 20.7 C 20 %
Sensor: Nr:Datum:Temp:Feuchte:
Aussen-T/F 76 09-04-2020 12:31:17 22 C 20 %
77 09-04-2020 12:41:17 23 C 20 %
78 09-04-2020 12:51:18 22.3 C 20 %
79 09-04-2020 13:01:17 23.2 C 20 %
80 09-04-2020 13:11:17 23.3 C 20 %
81 09-04-2020 13:21:17 22.9 C 20 %
82 09-04-2020 13:31:17 22.4 C 20 %
83 09-04-2020 13:41:18 22.6 C 20 %
84 09-04-2020 13:51:17 22.8 C 20 %
85 09-04-2020 14:01:17 24.1 C 20 %
86 09-04-2020 14:11:17 23.8 C 20 %
87 09-04-2020 14:21:17 24.3 C 20 %
88 09-04-2020 14:31:17 26.8 C 20 %
89 09-04-2020 14:41:17 28 C 20 %
90 09-04-2020 14:51:17 29.2 C 20 %
91 09-04-2020 15:01:17 28.6 C 20 %
92 09-04-2020 15:11:17 31.7 C 20 %
93 09-04-2020 15:21:17 28.2 C 20 %
94 09-04-2020 15:31:18 28.7 C 20 %
95 09-04-2020 15:41:18 28.4 C 20 %
96 09-04-2020 15:51:17 30.1 C 20 %
97 09-04-2020 16:01:18 29.2 C 20 %
98 09-04-2020 16:11:18 29.3 C 20 %
99 09-04-2020 16:21:17 31.4 C 20 %
100 09-04-2020 16:31:17 28.8 C 20 %
Sensor: Nr:Datum:Temp:Feuchte:
Aussen-T/F 101 09-04-2020 16:41:17 28.8 C 20 %
102 09-04-2020 16:51:17 29.2 C 20 %
103 09-04-2020 17:01:17 28.7 C 20 %
104 09-04-2020 17:11:17 28.4 C 20 %
105 09-04-2020 17:21:17 29.8 C 20 %
106 09-04-2020 17:31:17 28 C 20 %
107 09-04-2020 17:41:17 27.6 C 20 %
108 09-04-2020 17:51:18 27.1 C 20 %
109 09-04-2020 18:01:18 25.2 C 20 %
110 09-04-2020 18:11:18 24 C 20 %
111 09-04-2020 18:21:17 23.7 C 20 %
112 09-04-2020 18:31:17 23.4 C 20 %
113 09-04-2020 18:41:17 23.5 C 20 %
114 09-04-2020 18:51:17 22.9 C 20 %
115 09-04-2020 19:01:18 22.7 C 20 %
116 09-04-2020 19:11:18 22.4 C 20 %
117 09-04-2020 19:21:17 21.8 C 20 %
118 09-04-2020 19:31:17 21.1 C 20 %
119 09-04-2020 19:41:17 20.6 C 20 %
120 09-04-2020 19:51:17 20.1 C 20 %
121 09-04-2020 20:01:17 19.7 C 20 %
122 09-04-2020 20:11:17 17.9 C 20 %
123 09-04-2020 20:21:17 16.6 C 20 %
124 09-04-2020 20:31:17 16.6 C 20 %
125 09-04-2020 20:41:17 16.1 C 21 %
Sensor: Nr:Datum:Temp:Feuchte:
Aussen-T/F 126 09-04-2020 20:51:17 16.4 C 20 %
127 09-04-2020 21:01:17 16.2 C 20 %
128 09-04-2020 21:11:17 16.4 C 20 %
129 09-04-2020 21:21:17 16.5 C 20 %
130 09-04-2020 21:31:17 15.9 C 21 %
131 09-04-2020 21:41:17 15.4 C 22 %
132 09-04-2020 21:51:17 15.5 C 22 %
133 09-04-2020 22:01:17 15.5 C 22 %
134 09-04-2020 22:11:17 15.2 C 22 %
135 09-04-2020 22:21:17 15.1 C 22 %
136 09-04-2020 22:31:18 14.8 C 24 %
137 09-04-2020 22:41:18 14.6 C 25 %
138 09-04-2020 22:51:17 14.3 C 25 %
139 09-04-2020 23:01:18 14.2 C 25 %
140 09-04-2020 23:11:18 14.2 C 25 %
141 09-04-2020 23:21:17 13.6 C 26 %
142 09-04-2020 23:31:17 13.8 C 26 %
143 09-04-2020 23:41:18 13.7 C 26 %
144 09-04-2020 23:51:17 12.7 C 28 %
145 10-04-2020 00:01:17 12.7 C 29 %
146 10-04-2020 00:11:17 11.7 C 31 %
147 10-04-2020 00:21:18 11.8 C 31 %
148 10-04-2020 00:31:18 11.1 C 32 %
149 10-04-2020 00:41:18 10.7 C 34 %
150 10-04-2020 00:51:17 10.5 C 34 %
Sensor: Nr:Datum:Temp:Feuchte:
Aussen-T/F 151 10-04-2020 01:01:17 10.1 C 35 %
152 10-04-2020 01:11:17 10 C 35 %
153 10-04-2020 01:21:17 9.7 C 36 %
154 10-04-2020 01:31:17 9.6 C 36 %
155 10-04-2020 01:41:17 9.5 C 36 %
156 10-04-2020 01:51:17 9 C 36 %
157 10-04-2020 02:01:17 9.2 C 36 %
158 10-04-2020 02:11:17 8.9 C 37 %
159 10-04-2020 02:21:18 8.7 C 37 %
160 10-04-2020 02:31:18 8.6 C 37 %
161 10-04-2020 02:41:18 8.3 C 38 %
162 10-04-2020 02:51:17 8.2 C 38 %
163 10-04-2020 03:01:18 8.3 C 38 %
164 10-04-2020 03:11:18 7.9 C 39 %
165 10-04-2020 03:21:17 7.6 C 39 %
166 10-04-2020 03:31:17 7.4 C 40 %
167 10-04-2020 03:41:17 7.2 C 40 %
168 10-04-2020 03:51:17 7.1 C 40 %
169 10-04-2020 04:01:18 7 C 40 %
170 10-04-2020 04:11:18 6.8 C 41 %
171 10-04-2020 04:21:17 6.9 C 41 %
172 10-04-2020 04:31:17 6.6 C 41 %
173 10-04-2020 04:41:17 6.6 C 41 %
174 10-04-2020 04:51:18 6.6 C 41 %
175 10-04-2020 05:01:17 6.3 C 41 %
Sensor: Nr:Datum:Temp:Feuchte:
Aussen-T/F 176 10-04-2020 05:11:17 6.3 C 42 %
177 10-04-2020 05:21:18 6.4 C 42 %
178 10-04-2020 05:31:17 6.2 C 42 %
179 10-04-2020 05:41:17 5.9 C 43 %
180 10-04-2020 05:51:17 5.7 C 43 %
181 10-04-2020 06:01:17 5.8 C 44 %
182 10-04-2020 06:11:17 5.8 C 44 %
183 10-04-2020 06:21:17 5.6 C 44 %
184 10-04-2020 06:31:18 5.4 C 44 %
185 10-04-2020 06:41:18 5.4 C 44 %
186 10-04-2020 06:51:17 5.4 C 44 %
187 10-04-2020 07:01:18 5.3 C 44 %
188 10-04-2020 07:11:18 5.3 C 45 %
189 10-04-2020 07:21:17 5.3 C 45 %
190 10-04-2020 07:31:18 5.3 C 45 %
191 10-04-2020 07:41:18 5.3 C 45 %
192 10-04-2020 07:51:17 5.9 C 46 %
193 10-04-2020 08:01:17 5.8 C 45 %
194 10-04-2020 08:11:17 5.8 C 45 %
195 10-04-2020 08:21:17 6 C 44 %
196 10-04-2020 08:31:17 6.1 C 45 %
197 10-04-2020 08:41:17 6.2 C 44 %
198 10-04-2020 08:51:17 6.5 C 45 %
199 10-04-2020 09:01:17 6.9 C 45 %
200 10-04-2020 09:11:17 7.8 C 42 %
Sensor: Nr:Datum:Temp:Feuchte:
Aussen-T/F 201 10-04-2020 09:21:18 8.2 C 41 %
202 10-04-2020 09:31:18 8.5 C 40 %
203 10-04-2020 09:41:18 9.1 C 39 %
204 10-04-2020 09:51:17 9.4 C 39 %
205 10-04-2020 10:01:17 9.9 C 38 %
206 10-04-2020 10:11:17 10.2 C 37 %
207 10-04-2020 10:21:17 10.8 C 37 %
208 10-04-2020 10:31:17 11.6 C 36 %
209 10-04-2020 10:41:17 12.3 C 35 %
210 10-04-2020 10:51:17 13.4 C 33 %
211 10-04-2020 11:01:17 14 C 31 %
212 10-04-2020 11:11:17 14.7 C 31 %
213 10-04-2020 11:21:17 15.9 C 28 %
214 10-04-2020 11:31:17 16.3 C 27 %
215 10-04-2020 11:41:17 16.8 C 26 %
216 10-04-2020 11:51:17 17.5 C 25 %
217 10-04-2020 12:01:17 17.9 C 24 %
218 10-04-2020 12:11:17 18.4 C 21 %
219 10-04-2020 12:21:17 19.2 C 20 %
220 10-04-2020 12:31:17 19.7 C 20 %
221 10-04-2020 12:41:17 20.6 C 20 %
222 10-04-2020 12:51:17 20.4 C 20 %
223 10-04-2020 13:01:17 20.8 C 20 %
224 10-04-2020 13:11:17 20.2 C 20 %
225 10-04-2020 13:21:17 20.4 C 20 %
Sensor: Nr:Datum:Temp:Feuchte:
Aussen-T/F 226 10-04-2020 13:31:17 20.2 C 20 %
227 10-04-2020 13:41:17 20.4 C 20 %
228 10-04-2020 13:51:17 20.7 C 20 %
229 10-04-2020 14:01:17 21.7 C 20 %
230 10-04-2020 14:11:17 21.6 C 20 %
231 10-04-2020 14:21:18 22 C 20 %
232 10-04-2020 14:31:18 25.1 C 20 %
233 10-04-2020 14:41:18 29.1 C 20 %
234 10-04-2020 14:51:17 27.6 C 20 %
235 10-04-2020 15:01:17 27.9 C 20 %
236 10-04-2020 15:11:17 31.6 C 20 %
237 10-04-2020 15:21:17 30.1 C 20 %
238 10-04-2020 15:31:17 30.5 C 20 %
239 10-04-2020 15:41:17 30.2 C 20 %
240 10-04-2020 15:51:17 29.1 C 20 %
241 10-04-2020 16:01:17 29.8 C 20 %
242 10-04-2020 16:11:17 30.3 C 20 %
243 10-04-2020 16:21:17 28.8 C 20 %
244 10-04-2020 16:31:17 29.1 C 20 %
245 10-04-2020 16:41:17 28.3 C 20 %
246 10-04-2020 16:51:17 30.8 C 20 %
247 10-04-2020 17:01:17 29.6 C 20 %
248 10-04-2020 17:11:17 28.8 C 20 %
249 10-04-2020 17:21:17 26.8 C 20 %
250 10-04-2020 17:31:17 28.5 C 20 %
Sensor: Nr:Datum:Temp:Feuchte:
Aussen-T/F 251 10-04-2020 17:41:17 27.6 C 20 %
252 10-04-2020 17:51:18 26.4 C 20 %
253 10-04-2020 18:01:17 23.6 C 20 %
254 10-04-2020 18:11:17 23 C 20 %
255 10-04-2020 18:21:18 22.5 C 20 %
256 10-04-2020 18:31:18 22.2 C 20 %
257 10-04-2020 18:41:18 22.3 C 20 %
258 10-04-2020 18:51:17 22 C 20 %
259 10-04-2020 19:01:17 21.6 C 20 %
260 10-04-2020 19:11:17 21.4 C 20 %
261 10-04-2020 19:21:17 21.1 C 20 %
262 10-04-2020 19:31:17 20.9 C 20 %
263 10-04-2020 19:41:17 20.7 C 20 %
264 10-04-2020 19:51:18 20.2 C 20 %
265 10-04-2020 20:01:17 19.6 C 20 %
266 10-04-2020 20:11:17 18.5 C 20 %
267 10-04-2020 20:21:18 16 C 20 %
268 10-04-2020 20:31:17 15.9 C 20 %
269 10-04-2020 20:41:17 15.3 C 20 %
270 10-04-2020 20:51:17 15 C 20 %
271 10-04-2020 21:01:17 15.3 C 20 %
272 10-04-2020 21:11:17 14.7 C 20 %
273 10-04-2020 21:21:17 14.3 C 21 %
274 10-04-2020 21:31:17 13.8 C 21 %
275 10-04-2020 21:41:17 14.2 C 21 %
Sensor: Nr:Datum:Temp:Feuchte:
Aussen-T/F 276 10-04-2020 21:51:17 14.3 C 21 %
277 10-04-2020 22:01:18 14.5 C 21 %
278 10-04-2020 22:11:18 14.9 C 20 %
279 10-04-2020 22:21:18 14.5 C 22 %
280 10-04-2020 22:31:17 14.5 C 22 %
281 10-04-2020 22:41:17 13.9 C 24 %
282 10-04-2020 22:51:17 13.1 C 25 %
283 10-04-2020 23:01:17 12.7 C 25 %
284 10-04-2020 23:11:17 12.8 C 25 %
285 10-04-2020 23:21:17 12 C 26 %
286 10-04-2020 23:31:17 12.2 C 26 %
287 10-04-2020 23:41:17 11.2 C 28 %
288 10-04-2020 23:51:17 11.1 C 29 %
289 11-04-2020 00:01:18 10.5 C 30 %
290 11-04-2020 00:11:18 10.8 C 30 %
291 11-04-2020 00:21:17 10.8 C 30 %
292 11-04-2020 00:31:17 10.1 C 31 %
293 11-04-2020 00:41:18 9.9 C 32 %
294 11-04-2020 00:51:18 10 C 31 %
295 11-04-2020 01:01:17 9.6 C 31 %
296 11-04-2020 01:11:17 9.6 C 32 %
297 11-04-2020 01:21:17 9.1 C 32 %
298 11-04-2020 01:31:18 9.2 C 32 %
299 11-04-2020 01:41:18 9 C 32 %
300 11-04-2020 01:51:18 8.7 C 32 %
Sensor: Nr:Datum:Temp:Feuchte:
Aussen-T/F 301 11-04-2020 02:01:17 8.4 C 32 %
302 11-04-2020 02:11:17 8.2 C 32 %
303 11-04-2020 02:21:18 8.1 C 32 %
304 11-04-2020 02:31:17 8.3 C 32 %
305 11-04-2020 02:41:17 8.1 C 32 %
306 11-04-2020 02:51:17 7.9 C 33 %
307 11-04-2020 03:01:17 8.5 C 31 %
308 11-04-2020 03:11:17 8.7 C 31 %
309 11-04-2020 03:21:17 8.8 C 30 %
310 11-04-2020 03:31:18 8.8 C 30 %
311 11-04-2020 03:41:18 8.2 C 30 %
312 11-04-2020 03:51:17 8.6 C 30 %
313 11-04-2020 04:01:17 8.3 C 30 %
314 11-04-2020 04:11:17 8.3 C 30 %
315 11-04-2020 04:21:17 7.7 C 30 %
316 11-04-2020 04:31:17 7.4 C 30 %
317 11-04-2020 04:41:17 7.5 C 30 %
318 11-04-2020 04:51:17 7.6 C 29 %
319 11-04-2020 05:01:17 7.4 C 29 %
320 11-04-2020 05:11:17 6.9 C 30 %
321 11-04-2020 05:21:17 6.8 C 30 %
322 11-04-2020 05:31:18 6.1 C 31 %
323 11-04-2020 05:41:18 5.8 C 32 %
324 11-04-2020 05:51:17 5.7 C 32 %
325 11-04-2020 06:01:17 5.6 C 32 %
Sensor: Nr:Datum:Temp:Feuchte:
Aussen-T/F 326 11-04-2020 06:11:17 5 C 33 %
327 11-04-2020 06:21:17 4.9 C 35 %
328 11-04-2020 06:31:18 5 C 33 %
329 11-04-2020 06:41:18 4.6 C 35 %
330 11-04-2020 06:51:17 4.6 C 35 %
331 11-04-2020 07:01:18 4.4 C 35 %
332 11-04-2020 07:11:18 4.5 C 35 %
333 11-04-2020 07:21:17 4.4 C 35 %
334 11-04-2020 07:31:18 4.4 C 36 %
335 11-04-2020 07:41:18 4.7 C 35 %
336 11-04-2020 07:51:17 5 C 34 %
337 11-04-2020 08:01:18 5 C 34 %
338 11-04-2020 08:11:18 5 C 35 %
339 11-04-2020 08:21:18 5.1 C 35 %
340 11-04-2020 08:31:18 5.5 C 34 %
341 11-04-2020 08:41:18 6 C 33 %
342 11-04-2020 08:51:18 6.4 C 32 %
343 11-04-2020 09:01:17 6.5 C 33 %
344 11-04-2020 09:11:18 7.1 C 31 %
345 11-04-2020 09:21:17 7.3 C 31 %
346 11-04-2020 09:31:18 7.8 C 31 %
347 11-04-2020 09:41:18 8.2 C 30 %
348 11-04-2020 09:51:17 8.6 C 30 %
349 11-04-2020 10:01:17 9.1 C 29 %
350 11-04-2020 10:11:17 9.5 C 29 %
Sensor: Nr:Datum:Temp:Feuchte:
Aussen-T/F 351 11-04-2020 10:21:17 10.2 C 26 %
352 11-04-2020 10:31:17 10.7 C 27 %
353 11-04-2020 10:41:17 11.5 C 25 %
354 11-04-2020 10:51:17 12.3 C 21 %
355 11-04-2020 11:01:18 12.9 C 20 %
356 11-04-2020 11:11:18 13.7 C 20 %
357 11-04-2020 11:21:17 14.5 C 20 %
358 11-04-2020 11:31:17 15.3 C 20 %
359 11-04-2020 11:41:18 16 C 20 %
360 11-04-2020 11:51:17 16.5 C 20 %
361 11-04-2020 12:01:17 17.2 C 20 %
362 11-04-2020 12:11:17 17.5 C 20 %
363 11-04-2020 12:21:18 18.1 C 20 %
364 11-04-2020 12:31:17 19.1 C 20 %
365 11-04-2020 12:41:17 19.4 C 20 %
366 11-04-2020 12:51:17 19.5 C 20 %
367 11-04-2020 13:01:17 19.6 C 20 %
368 11-04-2020 13:11:17 19.5 C 20 %
369 11-04-2020 13:21:17 19.5 C 20 %
370 11-04-2020 13:31:17 19.6 C 20 %
371 11-04-2020 13:41:17 19.9 C 20 %
372 11-04-2020 13:51:17 20.2 C 20 %
373 11-04-2020 14:01:18 20.9 C 20 %
374 11-04-2020 14:11:18 21.3 C 20 %
375 11-04-2020 14:21:17 21.5 C 20 %
Sensor: Nr:Datum:Temp:Feuchte:
Aussen-T/F 376 11-04-2020 14:31:17 24.4 C 20 %
377 11-04-2020 14:41:17 27.5 C 20 %
378 11-04-2020 14:51:18 27.4 C 20 %
379 11-04-2020 15:01:18 28.6 C 20 %
380 11-04-2020 15:11:18 30.4 C 20 %
381 11-04-2020 15:21:17 29.9 C 20 %
382 11-04-2020 15:31:17 30.4 C 20 %
383 11-04-2020 15:41:17 31.2 C 20 %
384 11-04-2020 15:51:18 31.8 C 20 %
385 11-04-2020 16:01:17 28.5 C 20 %
386 11-04-2020 16:11:17 31.4 C 20 %
387 11-04-2020 16:21:18 30.7 C 20 %
388 11-04-2020 16:31:17 31.5 C 20 %
389 11-04-2020 16:41:17 31.3 C 20 %
390 11-04-2020 16:51:17 32.1 C 20 %
391 11-04-2020 17:01:17 31.8 C 20 %
392 11-04-2020 17:11:17 29.5 C 20 %
393 11-04-2020 17:21:17 29.8 C 20 %
394 11-04-2020 17:31:17 28.7 C 20 %
395 11-04-2020 17:41:17 26.5 C 20 %
396 11-04-2020 17:51:17 27.5 C 20 %
397 11-04-2020 18:01:17 24.2 C 20 %
398 11-04-2020 18:11:17 23.4 C 20 %
399 11-04-2020 18:21:17 23.6 C 20 %
400 11-04-2020 18:31:17 23.6 C 20 %
Sensor: Nr:Datum:Temp:Feuchte:
Aussen-T/F 401 11-04-2020 18:41:17 23.3 C 20 %
402 11-04-2020 18:51:17 22.9 C 20 %
403 11-04-2020 19:01:17 22.9 C 20 %
404 11-04-2020 19:11:17 22.7 C 20 %
405 11-04-2020 19:21:18 22 C 20 %
406 11-04-2020 19:31:17 21.7 C 20 %
407 11-04-2020 19:41:17 21.2 C 20 %
408 11-04-2020 19:51:17 18.9 C 20 %
409 11-04-2020 20:01:17 18 C 20 %
410 11-04-2020 20:11:17 17.1 C 20 %
411 11-04-2020 20:21:17 16.6 C 20 %
412 11-04-2020 20:31:17 16.5 C 20 %
413 11-04-2020 20:41:17 16.5 C 20 %
414 11-04-2020 20:51:17 16.2 C 20 %
415 11-04-2020 21:01:18 16 C 20 %
416 11-04-2020 21:11:18 15.5 C 20 %
417 11-04-2020 21:21:18 15.4 C 20 %
418 11-04-2020 21:31:17 15.1 C 20 %
419 11-04-2020 21:41:17 14.8 C 20 %
420 11-04-2020 21:51:17 14.5 C 20 %
421 11-04-2020 22:01:17 14.3 C 20 %
422 11-04-2020 22:11:17 14.4 C 20 %
423 11-04-2020 22:21:17 14 C 20 %
424 11-04-2020 22:31:18 14 C 21 %
425 11-04-2020 22:41:18 14.4 C 21 %
Sensor: Nr:Datum:Temp:Feuchte:
Aussen-T/F 426 11-04-2020 22:51:17 14.4 C 22 %
427 11-04-2020 23:01:17 13.7 C 23 %
428 11-04-2020 23:11:17 13 C 24 %
429 11-04-2020 23:21:18 12.3 C 26 %
430 11-04-2020 23:31:18 12.1 C 26 %
431 11-04-2020 23:41:18 11.8 C 27 %
432 11-04-2020 23:51:17 11.7 C 28 %
433 12-04-2020 00:01:17 11.6 C 29 %
434 12-04-2020 00:11:17 11.3 C 28 %
435 12-04-2020 00:21:17 11.3 C 29 %
436 12-04-2020 00:31:17 11.5 C 29 %
437 12-04-2020 00:41:17 11.6 C 29 %
438 12-04-2020 00:51:17 11.4 C 28 %
439 12-04-2020 01:01:17 11.3 C 28 %
440 12-04-2020 01:11:17 11 C 28 %
441 12-04-2020 01:21:17 10.6 C 29 %
442 12-04-2020 01:31:18 10.3 C 29 %
443 12-04-2020 01:41:18 10.2 C 30 %
444 12-04-2020 01:51:17 10.6 C 29 %
445 12-04-2020 02:01:18 10.8 C 30 %
446 12-04-2020 02:11:18 10.7 C 31 %
447 12-04-2020 02:21:18 10.3 C 31 %
448 12-04-2020 02:31:17 10.4 C 30 %
449 12-04-2020 02:41:17 10.2 C 31 %
450 12-04-2020 02:51:17 10.1 C 31 %
Sensor: Nr:Datum:Temp:Feuchte:
Aussen-T/F 451 12-04-2020 03:01:17 10.3 C 31 %
452 12-04-2020 03:11:17 10.2 C 31 %
453 12-04-2020 03:21:17 10.1 C 32 %
454 12-04-2020 03:31:17 10 C 32 %
455 12-04-2020 03:41:18 9.9 C 33 %
456 12-04-2020 03:51:17 10 C 32 %
457 12-04-2020 04:01:17 9.8 C 33 %
458 12-04-2020 04:11:17 9.7 C 33 %
459 12-04-2020 04:21:17 8.9 C 35 %
460 12-04-2020 04:31:17 8.8 C 34 %
461 12-04-2020 04:41:17 8.9 C 35 %
462 12-04-2020 04:51:17 8.5 C 35 %
463 12-04-2020 05:01:18 8.2 C 36 %
464 12-04-2020 05:11:18 8.4 C 36 %
465 12-04-2020 05:21:17 8.5 C 36 %
466 12-04-2020 05:31:17 8.2 C 36 %
467 12-04-2020 05:41:17 8 C 36 %
468 12-04-2020 05:51:17 7.6 C 37 %
469 12-04-2020 06:01:17 7.7 C 37 %
470 12-04-2020 06:11:17 7.5 C 38 %
471 12-04-2020 06:21:17 7.2 C 38 %
472 12-04-2020 06:31:17 7.1 C 39 %
473 12-04-2020 06:41:17 7.2 C 39 %
474 12-04-2020 06:51:17 7.3 C 39 %
475 12-04-2020 07:01:17 6.9 C 39 %
Sensor: Nr:Datum:Temp:Feuchte:
Aussen-T/F 476 12-04-2020 07:11:17 6.7 C 40 %
477 12-04-2020 07:21:17 6.5 C 40 %
478 12-04-2020 07:31:17 6.7 C 40 %
479 12-04-2020 07:41:17 7.1 C 40 %
480 12-04-2020 07:51:18 7 C 40 %
481 12-04-2020 08:01:17 7.3 C 40 %
482 12-04-2020 08:11:17 7.5 C 40 %
483 12-04-2020 08:21:17 7.5 C 40 %
484 12-04-2020 08:31:17 7.6 C 40 %
485 12-04-2020 08:41:18 7.9 C 40 %
486 12-04-2020 08:51:17 8.2 C 40 %
487 12-04-2020 09:01:18 8.8 C 39 %
488 12-04-2020 09:11:18 9.2 C 38 %
489 12-04-2020 09:21:17 9.5 C 38 %
490 12-04-2020 09:31:17 10 C 37 %
491 12-04-2020 09:41:17 10.1 C 37 %
492 12-04-2020 09:51:17 11 C 36 %
493 12-04-2020 10:01:17 11.3 C 36 %
494 12-04-2020 10:11:17 11.7 C 35 %
495 12-04-2020 10:21:17 12.2 C 35 %
496 12-04-2020 10:31:18 13.2 C 33 %
497 12-04-2020 10:41:18 14.4 C 31 %
498 12-04-2020 10:51:17 14.9 C 31 %
499 12-04-2020 11:01:17 15.6 C 30 %
500 12-04-2020 11:11:17 17 C 27 %
Sensor: Nr:Datum:Temp:Feuchte:
Aussen-T/F 501 12-04-2020 11:21:17 17.6 C 27 %
502 12-04-2020 11:31:17 18 C 26 %
503 12-04-2020 11:41:17 18.5 C 24 %
504 12-04-2020 11:51:17 19.1 C 20 %
505 12-04-2020 12:01:17 20.6 C 20 %
506 12-04-2020 12:11:17 20.8 C 20 %
507 12-04-2020 12:21:17 21.7 C 20 %
508 12-04-2020 12:31:17 21.6 C 20 %
509 12-04-2020 12:41:17 21.8 C 20 %
510 12-04-2020 12:51:18 21.2 C 20 %
511 12-04-2020 13:01:17 21.7 C 20 %
512 12-04-2020 13:11:17 21.7 C 20 %
513 12-04-2020 13:21:17 22 C 20 %
514 12-04-2020 13:31:17 21.7 C 20 %
515 12-04-2020 13:41:17 22 C 20 %
516 12-04-2020 13:51:17 22.1 C 20 %
517 12-04-2020 14:01:17 22.4 C 20 %
518 12-04-2020 14:11:17 22.8 C 20 %
519 12-04-2020 14:21:17 22.9 C 20 %
520 12-04-2020 14:31:17 26.2 C 20 %
521 12-04-2020 14:41:17 28.6 C 20 %
522 12-04-2020 14:51:17 28.5 C 20 %
523 12-04-2020 15:01:17 30.3 C 20 %
524 12-04-2020 15:11:17 27.7 C 20 %
525 12-04-2020 15:21:17 27.9 C 20 %
Sensor: Nr:Datum:Temp:Feuchte:
Aussen-T/F 526 12-04-2020 15:31:18 30.7 C 20 %
527 12-04-2020 15:41:18 30.5 C 20 %
528 12-04-2020 15:51:18 28.3 C 20 %
529 12-04-2020 16:01:17 30.5 C 20 %
530 12-04-2020 16:11:17 33.2 C 20 %
531 12-04-2020 16:21:17 32.8 C 20 %
532 12-04-2020 16:31:17 27.8 C 20 %
533 12-04-2020 16:41:17 26 C 20 %
534 12-04-2020 16:51:17 24.7 C 20 %
535 12-04-2020 17:01:17 29.6 C 20 %
536 12-04-2020 17:11:18 29.6 C 20 %
537 12-04-2020 17:21:17 29.5 C 20 %
538 12-04-2020 17:31:17 26.5 C 20 %
539 12-04-2020 17:41:17 29.3 C 20 %
540 12-04-2020 17:51:17 29.8 C 20 %
541 12-04-2020 18:01:18 24.6 C 20 %
542 12-04-2020 18:11:18 24 C 20 %
543 12-04-2020 18:21:17 24 C 20 %
544 12-04-2020 18:31:17 23.6 C 20 %
545 12-04-2020 18:41:17 22.9 C 20 %
546 12-04-2020 18:51:17 22.4 C 20 %
547 12-04-2020 19:01:17 22.5 C 20 %
548 12-04-2020 19:11:17 22.4 C 20 %
549 12-04-2020 19:21:17 22 C 20 %
550 12-04-2020 19:31:17 21.6 C 20 %
Sensor: Nr:Datum:Temp:Feuchte:
Aussen-T/F 551 12-04-2020 19:41:17 20.3 C 20 %
552 12-04-2020 19:51:18 19.1 C 20 %
553 12-04-2020 20:01:18 18.2 C 20 %
554 12-04-2020 20:11:18 17.9 C 20 %
555 12-04-2020 20:21:17 17.5 C 20 %
556 12-04-2020 20:31:18 17 C 20 %
557 12-04-2020 20:41:18 16.8 C 20 %
558 12-04-2020 20:51:17 16 C 20 %
559 12-04-2020 21:01:17 15.5 C 20 %
560 12-04-2020 21:11:17 14 C 20 %
561 12-04-2020 21:22:17 13.5 C 20 %
562 12-04-2020 21:31:17 13.2 C 21 %
563 12-04-2020 21:41:17 13.2 C 20 %
564 12-04-2020 21:51:17 13.3 C 21 %
565 12-04-2020 22:01:17 13.4 C 20 %
566 12-04-2020 22:11:17 13 C 21 %
567 12-04-2020 22:22:17 12.9 C 22 %
568 12-04-2020 22:32:17 12.2 C 23 %
569 12-04-2020 22:42:17 11.8 C 26 %
570 12-04-2020 22:51:17 11.7 C 25 %
571 12-04-2020 23:01:18 11.5 C 25 %
572 12-04-2020 23:11:18 11.1 C 26 %
573 12-04-2020 23:21:17 10.9 C 27 %
574 12-04-2020 23:32:17 10.7 C 28 %
575 12-04-2020 23:41:17 10.3 C 28 %
Sensor: Nr:Datum:Temp:Feuchte:
Aussen-T/F 576 12-04-2020 23:52:17 10.5 C 28 %
577 13-04-2020 00:01:17 10.6 C 28 %
578 13-04-2020 00:11:17 10.4 C 29 %
579 13-04-2020 00:21:18 10.4 C 30 %
580 13-04-2020 00:31:17 10.1 C 30 %
581 13-04-2020 00:41:17 9.9 C 31 %
582 13-04-2020 00:51:17 9.7 C 31 %
583 13-04-2020 01:01:18 9.5 C 31 %
584 13-04-2020 01:11:18 9.4 C 32 %
585 13-04-2020 01:21:18 9 C 32 %
586 13-04-2020 01:31:18 9.3 C 32 %
587 13-04-2020 01:41:18 9.2 C 32 %
588 13-04-2020 01:51:18 9.3 C 32 %
589 13-04-2020 02:02:17 9.2 C 32 %
590 13-04-2020 02:12:17 9.2 C 32 %
591 13-04-2020 02:21:17 9.1 C 32 %
592 13-04-2020 02:31:18 9 C 33 %
593 13-04-2020 02:41:18 8.6 C 34 %
594 13-04-2020 02:51:17 8.6 C 34 %
595 13-04-2020 03:01:18 8.4 C 34 %
596 13-04-2020 03:11:18 8.2 C 35 %
597 13-04-2020 03:22:17 7.9 C 35 %
598 13-04-2020 03:32:17 8.1 C 35 %
599 13-04-2020 03:42:17 8 C 35 %
600 13-04-2020 03:51:17 7.8 C 35 %
Sensor: Nr:Datum:Temp:Feuchte:
Aussen-T/F 601 13-04-2020 04:02:17 7.5 C 36 %
602 13-04-2020 04:12:17 7.2 C 36 %
603 13-04-2020 04:21:18 6.8 C 38 %
604 13-04-2020 04:32:17 6.8 C 38 %
605 13-04-2020 04:41:17 6.7 C 39 %
606 13-04-2020 04:52:17 7.7 C 37 %
607 13-04-2020 05:02:17 7.3 C 37 %
608 13-04-2020 05:12:17 7.5 C 38 %
609 13-04-2020 05:22:17 7.8 C 38 %
610 13-04-2020 05:32:17 7.6 C 37 %
611 13-04-2020 05:42:17 7.4 C 37 %
612 13-04-2020 05:52:17 7.2 C 38 %
613 13-04-2020 06:02:17 7.2 C 38 %
614 13-04-2020 06:12:17 6.6 C 39 %
615 13-04-2020 06:22:17 6.2 C 39 %
616 13-04-2020 06:32:17 6.3 C 40 %
617 13-04-2020 06:42:17 6.3 C 40 %
618 13-04-2020 06:52:17 6.4 C 40 %
619 13-04-2020 07:02:17 6.5 C 40 %
620 13-04-2020 07:12:17 7.2 C 39 %
621 13-04-2020 07:22:17 7.6 C 38 %
622 13-04-2020 07:32:17 8.1 C 37 %
623 13-04-2020 07:42:17 8.3 C 37 %
624 13-04-2020 07:52:17 8.5 C 37 %
625 13-04-2020 08:02:17 8.6 C 36 %
Sensor: Nr:Datum:Temp:Feuchte:
Aussen-T/F 626 13-04-2020 08:12:18 8.9 C 36 %
627 13-04-2020 08:22:17 9 C 36 %
628 13-04-2020 08:32:17 9.4 C 36 %
629 13-04-2020 08:42:17 10.7 C 37 %
630 13-04-2020 08:52:17 11.1 C 36 %
631 13-04-2020 09:02:17 10.7 C 37 %
632 13-04-2020 09:12:17 10.7 C 37 %
633 13-04-2020 09:22:17 11 C 36 %
634 13-04-2020 09:32:17 11.5 C 36 %
635 13-04-2020 09:42:17 11.9 C 35 %
636 13-04-2020 09:52:17 11.4 C 35 %
637 13-04-2020 10:02:17 11.2 C 35 %
638 13-04-2020 10:12:17 11.1 C 35 %
639 13-04-2020 10:22:17 11 C 34 %
640 13-04-2020 10:32:17 11.1 C 34 %
641 13-04-2020 10:42:17 11.3 C 34 %
642 13-04-2020 10:52:17 11.6 C 33 %
643 13-04-2020 11:02:17 11.6 C 33 %
644 13-04-2020 11:12:17 11.4 C 32 %
645 13-04-2020 11:22:17 11.8 C 32 %
646 13-04-2020 11:32:17 11.5 C 31 %
647 13-04-2020 11:42:17 11.1 C 31 %
648 13-04-2020 11:52:16 10.8 C 32 %
649 13-04-2020 12:02:17 10.9 C 32 %
650 13-04-2020 12:12:17 10.5 C 33 %
Sensor: Nr:Datum:Temp:Feuchte:
Aussen-T/F 651 13-04-2020 12:22:17 10.4 C 33 %
652 13-04-2020 12:32:17 10.7 C 32 %
653 13-04-2020 12:42:17 11.1 C 32 %
654 13-04-2020 12:52:17 10.6 C 32 %
655 13-04-2020 13:02:16 10.3 C 32 %
656 13-04-2020 13:12:16 10.2 C 32 %
657 13-04-2020 13:22:17 10.2 C 32 %
658 13-04-2020 13:32:17 9.6 C 33 %
659 13-04-2020 13:42:17 8.6 C 35 %
660 13-04-2020 13:52:17 7.6 C 39 %
661 13-04-2020 14:02:17 7.5 C 40 %
662 13-04-2020 14:12:17 7.7 C 38 %
663 13-04-2020 14:22:16 8.7 C 36 %
664 13-04-2020 14:32:17 9.2 C 35 %
665 13-04-2020 14:42:17 9.6 C 34 %
666 13-04-2020 14:52:16 10.9 C 31 %
667 13-04-2020 15:02:17 12.4 C 26 %
668 13-04-2020 15:12:17 12.3 C 25 %
669 13-04-2020 15:22:17 12.7 C 20 %
670 13-04-2020 15:32:17 11.8 C 20 %
671 13-04-2020 15:42:17 12.4 C 20 %
672 13-04-2020 15:52:16 13.2 C 20 %
673 13-04-2020 16:02:16 12.2 C 20 %
674 13-04-2020 16:12:16 14.4 C 20 %
675 13-04-2020 16:22:16 15 C 20 %
Sensor: Nr:Datum:Temp:Feuchte:
Aussen-T/F 676 13-04-2020 16:32:17 16 C 20 %
677 13-04-2020 16:42:17 14.9 C 20 %
678 13-04-2020 16:52:16 16.5 C 20 %
679 13-04-2020 17:02:17 15.2 C 20 %
680 13-04-2020 17:12:17 15.6 C 20 %
681 13-04-2020 17:22:16 15 C 20 %
682 13-04-2020 17:32:16 15 C 20 %
683 13-04-2020 17:42:16 14.5 C 20 %
684 13-04-2020 17:52:16 15.4 C 20 %
685 13-04-2020 18:02:16 13.2 C 20 %
686 13-04-2020 18:12:16 12.5 C 20 %
687 13-04-2020 18:22:17 12.1 C 20 %
688 13-04-2020 18:32:17 11.9 C 20 %
689 13-04-2020 18:42:18 11.1 C 20 %
690 13-04-2020 18:52:16 11.1 C 20 %
691 13-04-2020 19:02:16 10.8 C 20 %
692 13-04-2020 19:12:16 10.5 C 20 %
693 13-04-2020 19:22:16 10.2 C 20 %
694 13-04-2020 19:32:17 10 C 20 %
695 13-04-2020 19:42:17 9.8 C 20 %
696 13-04-2020 19:52:16 9.6 C 20 %
697 13-04-2020 20:02:16 9 C 20 %
698 13-04-2020 20:12:16 8.6 C 20 %
699 13-04-2020 20:22:16 8.5 C 20 %
700 13-04-2020 20:32:16 8.4 C 20 %
Sensor: Nr:Datum:Temp:Feuchte:
Aussen-T/F 701 13-04-2020 20:42:16 8.2 C 20 %
702 13-04-2020 20:52:16 7.5 C 20 %
703 13-04-2020 21:02:16 7.5 C 20 %
704 13-04-2020 21:12:16 7.4 C 20 %
705 13-04-2020 21:22:16 7.3 C 20 %
706 13-04-2020 21:32:17 7.2 C 20 %
707 13-04-2020 21:42:17 6.7 C 20 %
708 13-04-2020 21:52:16 6.5 C 20 %
709 13-04-2020 22:02:16 6.1 C 20 %
710 13-04-2020 22:12:16 5.5 C 20 %
711 13-04-2020 22:22:16 5.1 C 20 %
712 13-04-2020 22:32:16 4.6 C 23 %
713 13-04-2020 22:42:16 4.4 C 25 %
714 13-04-2020 22:52:16 4.1 C 25 %
715 13-04-2020 23:02:16 3.9 C 26 %
716 13-04-2020 23:12:16 3.8 C 27 %
717 13-04-2020 23:22:16 3.5 C 30 %
718 13-04-2020 23:32:17 3.3 C 29 %
719 13-04-2020 23:42:17 4 C 26 %
720 13-04-2020 23:52:16 4 C 25 %
721 14-04-2020 00:02:16 3.3 C 28 %
722 14-04-2020 00:12:16 4.1 C 25 %
723 14-04-2020 00:22:16 3.2 C 27 %
724 14-04-2020 00:32:16 3.3 C 27 %
725 14-04-2020 00:42:16 2.8 C 29 %
Sensor: Nr:Datum:Temp:Feuchte:
Aussen-T/F 726 14-04-2020 00:52:16 2.9 C 29 %
727 14-04-2020 01:02:16 3.1 C 27 %
728 14-04-2020 01:12:16 3.4 C 27 %
729 14-04-2020 01:22:16 2.8 C 28 %
730 14-04-2020 01:32:16 2.1 C 30 %
731 14-04-2020 01:42:16 1.9 C 33 %
732 14-04-2020 01:52:16 1.2 C 35 %
733 14-04-2020 02:02:16 1.6 C 35 %
734 14-04-2020 02:12:16 1.3 C 35 %
735 14-04-2020 02:22:16 0.9 C 36 %
736 14-04-2020 02:32:16 0.8 C 36 %
737 14-04-2020 02:42:16 1.1 C 35 %
738 14-04-2020 02:52:18 1 C 35 %
739 14-04-2020 03:02:18 1.1 C 35 %
740 14-04-2020 03:12:18 1.1 C 35 %
741 14-04-2020 03:22:17 0.7 C 36 %
742 14-04-2020 03:32:18 1.1 C 36 %
743 14-04-2020 03:42:18 0.9 C 36 %
744 14-04-2020 03:52:17 1 C 35 %
745 14-04-2020 04:02:18 0.9 C 36 %
746 14-04-2020 04:12:18 0.9 C 36 %
747 14-04-2020 04:22:17 0.6 C 36 %
748 14-04-2020 04:32:17 0.7 C 36 %
749 14-04-2020 04:42:17 0.7 C 36 %
750 14-04-2020 04:52:18 0.6 C 36 %
Sensor: Nr:Datum:Temp:Feuchte:
Aussen-T/F 751 14-04-2020 05:02:17 0 C 37 %
752 14-04-2020 05:12:17 0 C 38 %
753 14-04-2020 05:22:17 0.6 C 38 %
754 14-04-2020 05:32:17 0.6 C 39 %
755 14-04-2020 05:42:17 0.7 C 39 %
756 14-04-2020 05:52:17 0 C 39 %
757 14-04-2020 06:02:17 -0.2 C 40 %
758 14-04-2020 06:12:17 -0.7 C 41 %
759 14-04-2020 06:22:17 -0.9 C 41 %
760 14-04-2020 06:32:17 -0.4 C 41 %
761 14-04-2020 06:42:17 -0.1 C 41 %
762 14-04-2020 06:52:17 0.5 C 41 %
763 14-04-2020 07:02:17 0.7 C 41 %
764 14-04-2020 07:12:17 1.1 C 40 %
765 14-04-2020 07:22:17 1.3 C 39 %
766 14-04-2020 07:32:17 1.6 C 39 %
767 14-04-2020 07:42:17 1.8 C 39 %
768 14-04-2020 07:52:18 2.1 C 37 %
769 14-04-2020 08:02:17 2.2 C 38 %
770 14-04-2020 08:12:17 2.3 C 37 %
771 14-04-2020 08:22:18 1.7 C 39 %
772 14-04-2020 08:32:17 1.7 C 40 %
773 14-04-2020 08:42:17 2.2 C 38 %
774 14-04-2020 08:52:17 2.4 C 38 %
775 14-04-2020 09:02:18 3 C 37 %
Sensor: Nr:Datum:Temp:Feuchte:
Aussen-T/F 776 14-04-2020 09:12:18 3.8 C 36 %
777 14-04-2020 09:22:17 4.7 C 34 %
778 14-04-2020 09:32:18 5.7 C 32 %
779 14-04-2020 09:42:18 5.3 C 31 %
780 14-04-2020 09:52:17 6 C 31 %
781 14-04-2020 10:02:17 6.6 C 30 %
782 14-04-2020 10:12:17 5.8 C 30 %
783 14-04-2020 10:22:17 5.9 C 30 %
784 14-04-2020 10:32:17 6.7 C 30 %
785 14-04-2020 10:42:17 7.4 C 26 %
786 14-04-2020 10:52:18 8.4 C 23 %
787 14-04-2020 11:02:17 8.2 C 21 %
788 14-04-2020 11:12:17 8 C 20 %
789 14-04-2020 11:22:17 7.9 C 20 %
790 14-04-2020 11:32:17 8.2 C 20 %
791 14-04-2020 11:42:17 9.1 C 20 %
792 14-04-2020 11:52:18 8.4 C 20 %
793 14-04-2020 12:02:17 8.5 C 20 %
794 14-04-2020 12:12:17 8.6 C 20 %
795 14-04-2020 12:22:17 8.9 C 20 %
796 14-04-2020 12:32:17 8.6 C 20 %
797 14-04-2020 12:42:17 9.8 C 20 %
798 14-04-2020 12:52:17 10.6 C 20 %
799 14-04-2020 13:02:18 10.2 C 20 %
800 14-04-2020 13:12:18 10 C 20 %
Sensor: Nr:Datum:Temp:Feuchte:
Aussen-T/F 801 14-04-2020 13:22:17 10.4 C 20 %
802 14-04-2020 13:32:17 10.7 C 20 %
803 14-04-2020 13:42:17 10 C 20 %
804 14-04-2020 13:52:18 9.5 C 20 %
805 14-04-2020 14:02:17 9.8 C 20 %
806 14-04-2020 14:12:18 10.3 C 20 %
807 14-04-2020 14:22:18 11.8 C 20 %
808 14-04-2020 14:32:18 14.5 C 20 %
809 14-04-2020 14:42:18 17.4 C 20 %
810 14-04-2020 14:52:17 16.8 C 20 %
811 14-04-2020 15:02:17 17.6 C 20 %
812 14-04-2020 15:12:18 21 C 20 %
813 14-04-2020 15:22:17 14.7 C 20 %
814 14-04-2020 15:32:17 16.7 C 20 %
815 14-04-2020 15:42:17 14 C 20 %
816 14-04-2020 15:52:17 14 C 20 %
817 14-04-2020 16:02:17 15 C 20 %
818 14-04-2020 16:12:17 17.2 C 20 %
819 14-04-2020 16:22:17 17.7 C 20 %
820 14-04-2020 16:32:18 16.3 C 20 %
821 14-04-2020 16:42:18 14 C 20 %
822 14-04-2020 16:52:17 14.5 C 20 %
823 14-04-2020 17:02:18 12.2 C 20 %
824 14-04-2020 17:12:18 14.2 C 20 %
825 14-04-2020 17:22:17 19.2 C 20 %
Sensor: Nr:Datum:Temp:Feuchte:
Aussen-T/F 826 14-04-2020 17:32:17 16.8 C 20 %
827 14-04-2020 17:42:18 15.5 C 20 %
828 14-04-2020 17:52:17 16 C 20 %
829 14-04-2020 18:02:18 13.4 C 20 %
830 14-04-2020 18:12:18 12.4 C 20 %
831 14-04-2020 18:22:17 12.1 C 20 %
832 14-04-2020 18:32:18 11.9 C 20 %
833 14-04-2020 18:42:18 11.7 C 20 %
834 14-04-2020 18:52:17 11.3 C 20 %
835 14-04-2020 19:02:17 11.2 C 20 %
836 14-04-2020 19:12:18 11 C 20 %
837 14-04-2020 19:22:18 10.6 C 20 %
838 14-04-2020 19:32:18 10.3 C 20 %
839 14-04-2020 19:42:18 10.1 C 20 %
840 14-04-2020 19:52:17 9.7 C 20 %
841 14-04-2020 20:02:17 9.3 C 20 %
842 14-04-2020 20:12:17 8.9 C 20 %
843 14-04-2020 20:22:17 7.7 C 20 %
844 14-04-2020 20:32:17 7 C 23 %
845 14-04-2020 20:42:18 6.7 C 25 %
846 14-04-2020 20:52:17 6.8 C 25 %
847 14-04-2020 21:02:17 6.5 C 25 %
848 14-04-2020 21:12:17 6.3 C 25 %
849 14-04-2020 21:22:17 6 C 26 %
850 14-04-2020 21:32:17 6.1 C 26 %
Sensor: Nr:Datum:Temp:Feuchte:
Aussen-T/F 851 14-04-2020 21:42:17 5.8 C 27 %
852 14-04-2020 21:52:17 5.6 C 27 %
853 14-04-2020 22:02:18 5.6 C 27 %
854 14-04-2020 22:12:18 5.1 C 29 %
855 14-04-2020 22:22:17 5.2 C 28 %
856 14-04-2020 22:32:18 5 C 29 %
857 14-04-2020 22:42:18 4.7 C 30 %
858 14-04-2020 22:52:18 4.7 C 30 %
859 14-04-2020 23:02:18 4.3 C 32 %
860 14-04-2020 23:12:18 3.6 C 34 %
861 14-04-2020 23:22:17 3.2 C 35 %
862 14-04-2020 23:32:17 3 C 35 %
863 14-04-2020 23:42:17 2.8 C 36 %
864 14-04-2020 23:52:17 2.6 C 36 %
865 15-04-2020 00:02:18 2.4 C 37 %
866 15-04-2020 00:12:18 2.1 C 37 %
867 15-04-2020 00:22:17 1.7 C 39 %
868 15-04-2020 00:32:18 1.6 C 39 %
869 15-04-2020 00:42:18 1.6 C 40 %
870 15-04-2020 00:52:17 1.6 C 39 %
871 15-04-2020 01:02:17 1.5 C 40 %
872 15-04-2020 01:12:17 1.3 C 40 %
873 15-04-2020 01:22:17 1.2 C 40 %
874 15-04-2020 01:32:17 1.3 C 40 %
875 15-04-2020 01:42:17 1.2 C 40 %
Sensor: Nr:Datum:Temp:Feuchte:
Aussen-T/F 876 15-04-2020 01:52:17 1 C 40 %
877 15-04-2020 02:02:17 0.8 C 41 %
878 15-04-2020 02:12:17 0.8 C 42 %
879 15-04-2020 02:22:17 0.8 C 42 %
880 15-04-2020 02:32:17 0.7 C 42 %
881 15-04-2020 02:42:17 0.6 C 42 %
882 15-04-2020 02:52:17 0.1 C 42 %
883 15-04-2020 03:02:17 0.2 C 43 %
884 15-04-2020 03:12:17 0.3 C 43 %
885 15-04-2020 03:22:17 0.2 C 43 %
886 15-04-2020 03:32:18 0.5 C 43 %
887 15-04-2020 03:42:18 0.1 C 43 %
888 15-04-2020 03:52:18 0 C 43 %
889 15-04-2020 04:02:18 0.2 C 43 %
890 15-04-2020 04:12:18 -0.2 C 43 %
891 15-04-2020 04:22:17 0 C 44 %
892 15-04-2020 04:32:18 -0.2 C 43 %
893 15-04-2020 04:42:18 -0.3 C 44 %
894 15-04-2020 04:52:17 -0.4 C 44 %
895 15-04-2020 05:02:18 -0.4 C 44 %
896 15-04-2020 05:12:18 -0.3 C 44 %
897 15-04-2020 05:22:17 -0.4 C 45 %
898 15-04-2020 05:32:17 -0.5 C 45 %
899 15-04-2020 05:42:17 -0.4 C 45 %
900 15-04-2020 05:52:17 -0.7 C 45 %
Sensor: Nr:Datum:Temp:Feuchte:
Aussen-T/F 901 15-04-2020 06:02:17 -0.7 C 45 %
902 15-04-2020 06:12:17 -0.7 C 45 %
903 15-04-2020 06:22:17 -0.7 C 45 %
904 15-04-2020 06:32:17 -0.6 C 45 %
905 15-04-2020 06:42:17 -0.7 C 45 %
906 15-04-2020 06:52:17 -0.9 C 45 %
907 15-04-2020 07:02:17 -0.7 C 45 %
908 15-04-2020 07:12:17 -0.6 C 45 %
909 15-04-2020 07:22:17 -0.5 C 45 %
910 15-04-2020 07:32:17 -0.1 C 46 %
911 15-04-2020 07:42:17 0.1 C 45 %
912 15-04-2020 07:52:18 0.4 C 45 %
913 15-04-2020 08:02:17 0.7 C 45 %
914 15-04-2020 08:12:17 1 C 43 %
915 15-04-2020 08:22:18 1.4 C 42 %
916 15-04-2020 08:32:18 1.6 C 41 %
917 15-04-2020 08:42:18 1.9 C 41 %
918 15-04-2020 08:52:18 2.4 C 40 %
919 15-04-2020 09:02:17 2.8 C 40 %
920 15-04-2020 09:12:17 3 C 38 %
921 15-04-2020 09:22:18 3.4 C 38 %
922 15-04-2020 09:32:18 3.5 C 37 %
923 15-04-2020 09:42:18 4.2 C 36 %
924 15-04-2020 09:52:17 4.4 C 36 %
925 15-04-2020 10:02:18 4.9 C 35 %
Sensor: Nr:Datum:Temp:Feuchte:
Aussen-T/F 926 15-04-2020 10:12:18 5.4 C 35 %
927 15-04-2020 10:22:18 6.2 C 34 %
928 15-04-2020 10:32:18 6.9 C 33 %
929 15-04-2020 10:42:18 7.4 C 31 %
930 15-04-2020 10:52:18 8.1 C 30 %
931 15-04-2020 11:02:17 8.5 C 30 %
932 15-04-2020 11:12:17 9.2 C 29 %
933 15-04-2020 11:22:18 9.9 C 28 %
934 15-04-2020 11:32:17 10.4 C 26 %
935 15-04-2020 11:42:17 11 C 22 %
936 15-04-2020 11:52:18 11.6 C 20 %
937 15-04-2020 12:02:17 12.3 C 20 %
938 15-04-2020 12:12:17 12.2 C 20 %
939 15-04-2020 12:22:18 13.3 C 20 %
940 15-04-2020 12:32:18 13.2 C 20 %
941 15-04-2020 12:42:18 13.3 C 20 %
942 15-04-2020 12:52:17 13.2 C 20 %
943 15-04-2020 13:02:17 13.4 C 20 %
944 15-04-2020 13:12:17 13.5 C 20 %
945 15-04-2020 13:22:18 13.4 C 20 %
946 15-04-2020 13:32:18 14.2 C 20 %
947 15-04-2020 13:42:18 14.4 C 20 %
948 15-04-2020 13:52:17 14.7 C 20 %
949 15-04-2020 14:02:17 15.2 C 20 %
950 15-04-2020 14:12:17 15.5 C 20 %
Sensor: Nr:Datum:Temp:Feuchte:
Aussen-T/F 951 15-04-2020 14:22:17 16.9 C 20 %
952 15-04-2020 14:32:17 21.6 C 20 %
953 15-04-2020 14:42:17 23.9 C 20 %
954 15-04-2020 14:52:17 25.2 C 20 %
955 15-04-2020 15:02:18 24.8 C 20 %
956 15-04-2020 15:12:18 23.5 C 20 %
957 15-04-2020 15:22:18 24.4 C 20 %
958 15-04-2020 15:32:18 23.9 C 20 %
959 15-04-2020 15:42:18 24.5 C 20 %
960 15-04-2020 15:52:17 24.4 C 20 %
961 15-04-2020 16:02:18 24.8 C 20 %
962 15-04-2020 16:12:18 24.6 C 20 %
963 15-04-2020 16:22:17 23.3 C 20 %
964 15-04-2020 16:32:18 23.7 C 20 %
965 15-04-2020 16:42:18 25.4 C 20 %
966 15-04-2020 16:52:18 25.9 C 20 %
967 15-04-2020 17:02:17 25.4 C 20 %
968 15-04-2020 17:12:17 26.8 C 20 %
969 15-04-2020 17:22:18 24.8 C 20 %
970 15-04-2020 17:32:17 24 C 20 %
971 15-04-2020 17:42:17 22.4 C 20 %
972 15-04-2020 17:52:18 24.4 C 20 %
973 15-04-2020 18:02:18 20.6 C 20 %
974 15-04-2020 18:12:18 20.2 C 20 %
975 15-04-2020 18:22:18 19.7 C 20 %
Sensor: Nr:Datum:Temp:Feuchte:
Aussen-T/F 976 15-04-2020 18:32:18 19.1 C 20 %
977 15-04-2020 18:42:18 19.4 C 20 %
978 15-04-2020 18:52:17 19.4 C 20 %
979 15-04-2020 19:02:17 18.8 C 20 %
980 15-04-2020 19:12:17 18.7 C 20 %
981 15-04-2020 19:22:17 18.2 C 20 %
982 15-04-2020 19:32:17 18 C 20 %
983 15-04-2020 19:42:18 17.3 C 20 %
984 15-04-2020 19:52:17 15.3 C 20 %
985 15-04-2020 20:02:18 14 C 20 %
986 15-04-2020 20:12:18 13.6 C 20 %
987 15-04-2020 20:22:18 13.4 C 20 %
988 15-04-2020 20:32:17 13.1 C 20 %
989 15-04-2020 20:42:18 12.7 C 20 %
990 15-04-2020 20:52:17 12 C 20 %
991 15-04-2020 21:02:18 12 C 20 %
992 15-04-2020 21:12:18 11 C 20 %
993 15-04-2020 21:22:17 11 C 20 %
994 15-04-2020 21:32:17 10.5 C 20 %
995 15-04-2020 21:42:17 9.4 C 25 %
996 15-04-2020 21:52:17 9 C 26 %
997 15-04-2020 22:02:17 8.9 C 27 %
998 15-04-2020 22:12:17 8.6 C 28 %
999 15-04-2020 22:22:17 8.8 C 28 %
1000 15-04-2020 22:32:18 8.1 C 28 %
Sensor: Nr:Datum:Temp:Feuchte:
Aussen-T/F 1001 15-04-2020 22:42:18 7.7 C 29 %
1002 15-04-2020 22:52:17 7.3 C 30 %
1003 15-04-2020 23:02:17 7.1 C 30 %
1004 15-04-2020 23:12:17 7.2 C 30 %
1005 15-04-2020 23:22:17 7 C 30 %
1006 15-04-2020 23:32:17 6.6 C 31 %
1007 15-04-2020 23:42:18 6.4 C 32 %
1008 15-04-2020 23:52:17 6.2 C 32 %
1009 16-04-2020 00:02:17 6.2 C 32 %
1010 16-04-2020 00:12:17 6 C 33 %
1011 16-04-2020 00:22:17 5.8 C 34 %
1012 16-04-2020 00:32:18 5.5 C 35 %
1013 16-04-2020 00:42:18 5.3 C 35 %
1014 16-04-2020 00:52:17 5.2 C 35 %
1015 16-04-2020 01:02:17 4.8 C 35 %
1016 16-04-2020 01:12:17 4.8 C 35 %
1017 16-04-2020 01:22:17 5.1 C 35 %
1018 16-04-2020 01:32:18 5.1 C 35 %
1019 16-04-2020 01:42:18 4.7 C 36 %
1020 16-04-2020 01:52:17 4.8 C 36 %
1021 16-04-2020 02:02:18 4.6 C 36 %
1022 16-04-2020 02:12:18 4.3 C 36 %
1023 16-04-2020 02:22:18 3.9 C 38 %
1024 16-04-2020 02:32:17 4.1 C 38 %
1025 16-04-2020 02:42:17 4 C 38 %
Sensor: Nr:Datum:Temp:Feuchte:
Aussen-T/F 1026 16-04-2020 02:52:17 3.7 C 39 %
1027 16-04-2020 03:02:17 3.6 C 40 %
1028 16-04-2020 03:12:17 3.6 C 39 %
1029 16-04-2020 03:22:17 3.5 C 39 %
1030 16-04-2020 03:32:17 3.3 C 39 %
1031 16-04-2020 03:42:17 3 C 40 %
1032 16-04-2020 03:52:17 2.9 C 41 %
1033 16-04-2020 04:02:17 3.2 C 40 %
1034 16-04-2020 04:12:17 3.2 C 40 %
1035 16-04-2020 04:22:17 2.7 C 41 %
1036 16-04-2020 04:32:18 2.6 C 41 %
1037 16-04-2020 04:42:18 3 C 41 %
1038 16-04-2020 04:52:17 2.6 C 42 %
1039 16-04-2020 05:02:17 2.7 C 42 %
1040 16-04-2020 05:12:17 2.7 C 42 %
1041 16-04-2020 05:22:17 2.6 C 42 %
1042 16-04-2020 05:32:17 2.3 C 42 %
1043 16-04-2020 05:42:17 2 C 42 %
1044 16-04-2020 05:52:17 2.1 C 43 %
1045 16-04-2020 06:02:18 2.4 C 43 %
1046 16-04-2020 06:12:18 2 C 42 %
1047 16-04-2020 06:22:17 1.6 C 44 %
1048 16-04-2020 06:32:17 1.4 C 44 %
1049 16-04-2020 06:42:17 1.8 C 45 %
1050 16-04-2020 06:52:17 1.8 C 45 %
Sensor: Nr:Datum:Temp:Feuchte:
Aussen-T/F 1051 16-04-2020 07:02:17 1.8 C 45 %
1052 16-04-2020 07:12:17 1.8 C 45 %
1053 16-04-2020 07:22:17 2.2 C 44 %
1054 16-04-2020 07:32:17 2.1 C 44 %
1055 16-04-2020 07:42:17 2.1 C 44 %
1056 16-04-2020 07:52:17 2.5 C 44 %
1057 16-04-2020 08:02:17 2.5 C 44 %
1058 16-04-2020 08:12:17 2.6 C 44 %
1059 16-04-2020 08:22:17 3 C 43 %
1060 16-04-2020 08:32:18 3.2 C 42 %
1061 16-04-2020 08:42:18 3.5 C 42 %
1062 16-04-2020 08:52:17 3.6 C 41 %
1063 16-04-2020 09:02:18 3.9 C 41 %
1064 16-04-2020 09:12:18 4.2 C 41 %
1065 16-04-2020 09:22:17 4.5 C 40 %
1066 16-04-2020 09:32:17 5.1 C 40 %
1067 16-04-2020 09:42:17 5.8 C 39 %
1068 16-04-2020 09:52:17 6.6 C 37 %
1069 16-04-2020 10:02:18 7 C 36 %
1070 16-04-2020 10:12:18 7.5 C 36 %
1071 16-04-2020 10:22:17 8.1 C 35 %
1072 16-04-2020 10:32:17 9.4 C 34 %
1073 16-04-2020 10:42:18 10.4 C 31 %
1074 16-04-2020 10:52:17 11.2 C 30 %
1075 16-04-2020 11:02:18 12.2 C 29 %
Sensor: Nr:Datum:Temp:Feuchte:
Aussen-T/F 1076 16-04-2020 11:12:18 14.2 C 25 %
1077 16-04-2020 11:22:17 15.5 C 20 %
1078 16-04-2020 11:32:17 16.8 C 20 %
1079 16-04-2020 11:42:17 17.6 C 20 %
1080 16-04-2020 11:52:17 18 C 20 %
1081 16-04-2020 12:02:18 18.4 C 20 %
1082 16-04-2020 12:12:18 18.7 C 20 %
1083 16-04-2020 12:22:17 19.1 C 20 %
1084 16-04-2020 12:32:18 19.3 C 20 %
1085 16-04-2020 12:42:18 19.5 C 20 %
1086 16-04-2020 12:52:17 19.6 C 20 %
1087 16-04-2020 13:02:18 20.1 C 20 %
1088 16-04-2020 13:12:18 20.5 C 20 %
1089 16-04-2020 13:22:17 20.8 C 20 %
1090 16-04-2020 13:32:18 21.1 C 20 %
1091 16-04-2020 13:42:18 21.5 C 20 %
1092 16-04-2020 13:52:17 21.7 C 20 %
1093 16-04-2020 14:02:17 22 C 20 %
1094 16-04-2020 14:12:17 22.4 C 20 %
1095 16-04-2020 14:22:17 22.8 C 20 %
1096 16-04-2020 14:32:17 26.2 C 20 %
1097 16-04-2020 14:42:17 28 C 20 %
1098 16-04-2020 14:52:17 29.6 C 20 %
1099 16-04-2020 15:02:17 29.8 C 20 %
1100 16-04-2020 15:12:17 29.5 C 20 %
Sensor: Nr:Datum:Temp:Feuchte:
Aussen-T/F 1101 16-04-2020 15:22:17 28.5 C 20 %
1102 16-04-2020 15:32:18 30.1 C 20 %
1103 16-04-2020 15:42:18 25.8 C 20 %
1104 16-04-2020 15:52:17 27.1 C 20 %
1105 16-04-2020 16:02:17 29.5 C 20 %
1106 16-04-2020 16:12:17 28.4 C 20 %
1107 16-04-2020 16:22:17 26.5 C 20 %
1108 16-04-2020 16:32:17 26.6 C 20 %
1109 16-04-2020 16:42:18 27.2 C 20 %
1110 16-04-2020 16:52:17 24.9 C 20 %
1111 16-04-2020 17:02:17 25 C 20 %
1112 16-04-2020 17:12:17 26.1 C 20 %
1113 16-04-2020 17:22:18 28.3 C 20 %
1114 16-04-2020 17:32:17 27.6 C 20 %
1115 16-04-2020 17:42:17 27.3 C 20 %
1116 16-04-2020 17:52:17 26.5 C 20 %
1117 16-04-2020 18:02:17 25.6 C 20 %
1118 16-04-2020 18:12:17 24.3 C 20 %
1119 16-04-2020 18:22:17 24.4 C 20 %
1120 16-04-2020 18:32:17 24.2 C 20 %
1121 16-04-2020 18:42:17 23.9 C 20 %
1122 16-04-2020 18:52:17 24 C 20 %
1123 16-04-2020 19:02:17 23.2 C 20 %
1124 16-04-2020 19:12:17 22.9 C 20 %
1125 16-04-2020 19:22:17 22.2 C 20 %
Sensor: Nr:Datum:Temp:Feuchte:
Aussen-T/F 1126 16-04-2020 19:32:18 21.9 C 20 %
1127 16-04-2020 19:42:18 21.2 C 20 %
1128 16-04-2020 19:52:17 20.5 C 20 %
1129 16-04-2020 20:02:17 19.5 C 20 %
1130 16-04-2020 20:12:17 19.2 C 20 %
1131 16-04-2020 20:22:17 19.3 C 20 %
1132 16-04-2020 20:32:18 19.1 C 20 %
1133 16-04-2020 20:42:18 18.9 C 20 %
1134 16-04-2020 20:52:18 18.5 C 20 %
1135 16-04-2020 21:02:17 17.9 C 20 %
1136 16-04-2020 21:12:17 16.5 C 20 %
1137 16-04-2020 21:22:17 16.1 C 20 %
1138 16-04-2020 21:32:18 15.5 C 20 %
1139 16-04-2020 21:42:18 14.7 C 21 %
1140 16-04-2020 21:52:17 14.4 C 22 %
1141 16-04-2020 22:02:17 14.5 C 22 %
1142 16-04-2020 22:12:17 13.5 C 25 %
1143 16-04-2020 22:22:17 14.1 C 25 %
1144 16-04-2020 22:32:17 13.8 C 25 %
1145 16-04-2020 22:42:18 13.1 C 26 %
1146 16-04-2020 22:52:17 12.4 C 28 %
1147 16-04-2020 23:02:17 12.5 C 29 %
1148 16-04-2020 23:12:17 12.2 C 30 %
1149 16-04-2020 23:22:17 11.7 C 30 %
1150 16-04-2020 23:32:18 11.6 C 31 %
Sensor: Nr:Datum:Temp:Feuchte:
Aussen-T/F 1151 16-04-2020 23:42:18 11.6 C 31 %
1152 16-04-2020 23:52:17 11.8 C 31 %
1153 17-04-2020 00:02:18 11.4 C 31 %
1154 17-04-2020 00:12:18 11 C 31 %
1155 17-04-2020 00:22:17 11 C 32 %
1156 17-04-2020 00:32:17 11 C 32 %
1157 17-04-2020 00:42:17 11 C 32 %
1158 17-04-2020 00:52:18 10.4 C 33 %
1159 17-04-2020 01:02:17 10.1 C 34 %
1160 17-04-2020 01:12:18 10.1 C 34 %
1161 17-04-2020 01:22:18 9.8 C 35 %
1162 17-04-2020 01:32:18 10 C 35 %
1163 17-04-2020 01:42:18 10 C 35 %
1164 17-04-2020 01:52:17 9.5 C 36 %
1165 17-04-2020 02:02:17 9.7 C 36 %
1166 17-04-2020 02:12:17 9.6 C 36 %
1167 17-04-2020 02:22:17 9.1 C 36 %
1168 17-04-2020 02:32:17 8.9 C 37 %
1169 17-04-2020 02:42:17 8.5 C 38 %
1170 17-04-2020 02:52:17 8.1 C 38 %
1171 17-04-2020 03:02:17 7.9 C 39 %
1172 17-04-2020 03:12:18 7.9 C 40 %
1173 17-04-2020 03:22:18 7.8 C 40 %
1174 17-04-2020 03:32:17 7.8 C 40 %
1175 17-04-2020 03:42:18 7.8 C 40 %
Sensor: Nr:Datum:Temp:Feuchte:
Aussen-T/F 1176 17-04-2020 03:52:18 8.5 C 39 %
1177 17-04-2020 04:02:17 8.4 C 39 %
1178 17-04-2020 04:12:17 8.3 C 39 %
1179 17-04-2020 04:22:17 8 C 39 %
1180 17-04-2020 04:32:17 7.9 C 40 %
1181 17-04-2020 04:42:17 8 C 40 %
1182 17-04-2020 04:52:17 7.8 C 40 %
1183 17-04-2020 05:02:17 7.5 C 40 %
1184 17-04-2020 05:12:18 6.9 C 41 %
1185 17-04-2020 05:22:17 6.7 C 42 %
1186 17-04-2020 05:32:18 6.6 C 42 %
1187 17-04-2020 05:42:18 6.7 C 43 %
1188 17-04-2020 05:52:18 6.5 C 42 %
1189 17-04-2020 06:02:18 6.5 C 43 %
1190 17-04-2020 06:12:18 6.2 C 43 %
1191 17-04-2020 06:22:17 6 C 43 %
1192 17-04-2020 06:32:17 6 C 44 %
1193 17-04-2020 06:42:17 5.8 C 44 %
1194 17-04-2020 06:52:17 5.8 C 44 %
1195 17-04-2020 07:02:18 5.8 C 45 %
1196 17-04-2020 07:12:18 5.9 C 45 %
1197 17-04-2020 07:22:18 6.1 C 45 %
1198 17-04-2020 07:32:17 6.1 C 45 %
1199 17-04-2020 07:42:17 6.3 C 45 %
1200 17-04-2020 07:52:17 6.3 C 45 %
Sensor: Nr:Datum:Temp:Feuchte:
Aussen-T/F 1201 17-04-2020 08:02:17 6.5 C 45 %
1202 17-04-2020 08:12:17 6.7 C 45 %
1203 17-04-2020 08:22:17 6.9 C 45 %
1204 17-04-2020 08:32:18 7 C 44 %
1205 17-04-2020 08:42:18 7.6 C 44 %
1206 17-04-2020 08:52:17 7.9 C 44 %
1207 17-04-2020 09:02:18 8.4 C 42 %
1208 17-04-2020 09:12:18 8.6 C 42 %
1209 17-04-2020 09:22:17 8.8 C 41 %
1210 17-04-2020 09:32:17 9.3 C 41 %
1211 17-04-2020 09:42:17 9.6 C 40 %
1212 17-04-2020 09:52:18 10.3 C 39 %
1213 17-04-2020 10:02:17 10.8 C 38 %
1214 17-04-2020 10:12:17 11 C 37 %
1215 17-04-2020 10:22:18 11.8 C 36 %
1216 17-04-2020 10:32:18 12.4 C 35 %
1217 17-04-2020 10:42:18 13 C 34 %
1218 17-04-2020 10:52:17 13.9 C 34 %
1219 17-04-2020 11:02:17 14.6 C 32 %
1220 17-04-2020 11:12:17 15.8 C 30 %
1221 17-04-2020 11:22:18 16.5 C 28 %
1222 17-04-2020 11:32:17 17.1 C 28 %
1223 17-04-2020 11:42:17 17.7 C 26 %
1224 17-04-2020 11:52:17 17.9 C 25 %
1225 17-04-2020 12:02:18 18.5 C 25 %
Sensor: Nr:Datum:Temp:Feuchte:
Aussen-T/F 1226 17-04-2020 12:12:18 18.7 C 24 %
1227 17-04-2020 12:22:17 19.1 C 22 %
1228 17-04-2020 12:32:17 19.7 C 20 %
1229 17-04-2020 12:42:17 19.7 C 20 %
1230 17-04-2020 12:52:17 19.7 C 20 %
1231 17-04-2020 13:02:18 20 C 20 %
1232 17-04-2020 13:12:18 20.4 C 20 %
1233 17-04-2020 13:22:17 20.6 C 20 %
1234 17-04-2020 13:32:17 20.8 C 20 %
1235 17-04-2020 13:42:17 21.1 C 20 %
1236 17-04-2020 13:52:17 21.6 C 20 %
1237 17-04-2020 14:02:18 21.8 C 20 %
1238 17-04-2020 14:12:18 22.6 C 20 %
1239 17-04-2020 14:22:17 23.2 C 20 %
1240 17-04-2020 14:32:17 25.2 C 20 %
1241 17-04-2020 14:42:17 29 C 20 %
1242 17-04-2020 14:52:17 32.1 C 20 %
1243 17-04-2020 15:02:17 30.9 C 20 %
1244 17-04-2020 15:12:17 31.4 C 20 %
1245 17-04-2020 15:22:17 29.6 C 20 %
1246 17-04-2020 15:32:17 29.2 C 20 %
1247 17-04-2020 15:42:17 29 C 20 %
1248 17-04-2020 15:52:18 25.7 C 20 %
1249 17-04-2020 16:02:17 30.3 C 20 %
1250 17-04-2020 16:12:17 30.2 C 20 %
Sensor: Nr:Datum:Temp:Feuchte:
Aussen-T/F 1251 17-04-2020 16:22:17 27.5 C 20 %
1252 17-04-2020 16:32:17 28.2 C 20 %
1253 17-04-2020 16:42:17 28.2 C 20 %
1254 17-04-2020 16:52:17 27.7 C 20 %
1255 17-04-2020 17:02:18 29.6 C 20 %
1256 17-04-2020 17:12:18 29.4 C 20 %
1257 17-04-2020 17:22:17 29.5 C 20 %
1258 17-04-2020 17:32:17 30.4 C 20 %
1259 17-04-2020 17:42:18 27.7 C 20 %
1260 17-04-2020 17:52:17 28.5 C 20 %
1261 17-04-2020 18:02:17 26.6 C 20 %
1262 17-04-2020 18:12:17 26.2 C 20 %
1263 17-04-2020 18:22:17 25.7 C 20 %
1264 17-04-2020 18:32:17 24.8 C 20 %
1265 17-04-2020 18:42:17 24.7 C 20 %
1266 17-04-2020 18:52:18 24.2 C 20 %
1267 17-04-2020 19:02:17 24.1 C 20 %
1268 17-04-2020 19:12:17 23.7 C 20 %
1269 17-04-2020 19:22:17 23 C 20 %
1270 17-04-2020 19:32:17 22.2 C 20 %
1271 17-04-2020 19:42:17 21.7 C 20 %
1272 17-04-2020 19:52:17 20.7 C 20 %
1273 17-04-2020 20:02:17 20 C 20 %
1274 17-04-2020 20:12:17 19.5 C 20 %
1275 17-04-2020 20:22:17 18.8 C 21 %
Sensor: Nr:Datum:Temp:Feuchte:
Aussen-T/F 1276 17-04-2020 20:32:17 18.4 C 21 %
1277 17-04-2020 20:42:17 18.2 C 21 %
1278 17-04-2020 20:52:17 17.7 C 23 %
1279 17-04-2020 21:02:17 17.5 C 23 %
1280 17-04-2020 21:12:17 17.7 C 24 %
1281 17-04-2020 21:22:17 17.6 C 25 %
1282 17-04-2020 21:32:18 17.8 C 24 %
1283 17-04-2020 21:42:18 17 C 25 %
1284 17-04-2020 21:52:18 16.8 C 25 %
1285 17-04-2020 22:02:17 16 C 26 %
1286 17-04-2020 22:12:17 16 C 26 %
1287 17-04-2020 22:22:17 15.8 C 26 %
1288 17-04-2020 22:32:17 15.7 C 26 %
1289 17-04-2020 22:42:17 15.1 C 27 %
1290 17-04-2020 22:52:17 14.6 C 29 %
1291 17-04-2020 23:02:17 14.7 C 30 %
1292 17-04-2020 23:12:17 14.4 C 29 %
1293 17-04-2020 23:22:18 14.1 C 30 %
1294 17-04-2020 23:32:17 14 C 30 %
1295 17-04-2020 23:42:17 13.6 C 31 %
1296 17-04-2020 23:52:17 13.5 C 31 %
1297 18-04-2020 00:02:17 13.4 C 31 %
1298 18-04-2020 00:12:17 13.1 C 32 %
1299 18-04-2020 00:22:18 12.6 C 33 %
1300 18-04-2020 00:32:17 12.2 C 33 %
Sensor: Nr:Datum:Temp:Feuchte:
Aussen-T/F 1301 18-04-2020 00:42:18 12 C 33 %
1302 18-04-2020 00:52:17 11.8 C 34 %
1303 18-04-2020 01:02:18 11.8 C 34 %
1304 18-04-2020 01:12:18 11.8 C 34 %
1305 18-04-2020 01:22:17 11.4 C 34 %
1306 18-04-2020 01:32:18 11.1 C 35 %
1307 18-04-2020 01:42:18 10.9 C 36 %
1308 18-04-2020 01:52:17 10.9 C 36 %
1309 18-04-2020 02:02:18 10.8 C 36 %
1310 18-04-2020 02:12:18 10.6 C 36 %
1311 18-04-2020 02:22:17 10.7 C 36 %
1312 18-04-2020 02:32:17 10.1 C 37 %
1313 18-04-2020 02:42:17 10 C 38 %
1314 18-04-2020 02:52:18 9.8 C 38 %
1315 18-04-2020 03:02:17 9.7 C 39 %
1316 18-04-2020 03:12:17 9.6 C 39 %
1317 18-04-2020 03:22:18 9.2 C 39 %
1318 18-04-2020 03:32:18 9 C 39 %
1319 18-04-2020 03:42:18 9 C 39 %
1320 18-04-2020 03:52:18 8.9 C 40 %
1321 18-04-2020 04:02:17 9 C 40 %
1322 18-04-2020 04:12:17 9 C 40 %
1323 18-04-2020 04:22:17 9 C 40 %
1324 18-04-2020 04:32:18 8.9 C 41 %
1325 18-04-2020 04:42:18 8.8 C 41 %
Sensor: Nr:Datum:Temp:Feuchte:
Aussen-T/F 1326 18-04-2020 04:52:17 8.6 C 41 %
1327 18-04-2020 05:02:17 8.4 C 41 %
1328 18-04-2020 05:12:17 8.5 C 41 %
1329 18-04-2020 05:22:17 8.7 C 40 %
1330 18-04-2020 05:32:17 8.6 C 41 %
1331 18-04-2020 05:42:17 8.3 C 41 %
1332 18-04-2020 05:52:18 8.6 C 41 %
1333 18-04-2020 06:02:17 8.7 C 41 %
1334 18-04-2020 06:12:17 8.6 C 41 %
1335 18-04-2020 06:22:17 8.7 C 41 %
1336 18-04-2020 06:32:17 8.3 C 41 %
1337 18-04-2020 06:42:17 8.1 C 41 %
1338 18-04-2020 06:52:17 8.2 C 41 %
1339 18-04-2020 07:02:17 8.4 C 42 %
1340 18-04-2020 07:12:17 8.7 C 42 %
1341 18-04-2020 07:22:17 9.4 C 42 %
1342 18-04-2020 07:32:17 9.6 C 41 %
1343 18-04-2020 07:42:17 9.7 C 41 %
1344 18-04-2020 07:52:17 9.7 C 41 %
1345 18-04-2020 08:02:18 9.7 C 41 %
1346 18-04-2020 08:12:18 10 C 40 %
1347 18-04-2020 08:22:17 10.1 C 40 %
1348 18-04-2020 08:32:17 10.2 C 40 %
1349 18-04-2020 08:42:18 10.6 C 40 %
1350 18-04-2020 08:52:18 11.1 C 39 %
Sensor: Nr:Datum:Temp:Feuchte:
Aussen-T/F 1351 18-04-2020 09:02:17 11.7 C 38 %
1352 18-04-2020 09:12:17 12.1 C 37 %
1353 18-04-2020 09:22:17 12.5 C 36 %
1354 18-04-2020 09:32:18 13.4 C 35 %
1355 18-04-2020 09:42:18 13.8 C 34 %
1356 18-04-2020 09:52:18 14.4 C 32 %
1357 18-04-2020 10:02:18 15 C 31 %
1358 18-04-2020 10:12:18 14.9 C 31 %
1359 18-04-2020 10:22:18 16.2 C 30 %
1360 18-04-2020 10:32:18 15.8 C 30 %
1361 18-04-2020 10:42:18 17.2 C 29 %
1362 18-04-2020 10:52:18 17.9 C 29 %
1363 18-04-2020 11:02:18 18.5 C 27 %
1364 18-04-2020 11:12:18 18.3 C 27 %
1365 18-04-2020 11:22:17 18.5 C 26 %
1366 18-04-2020 11:32:18 17.8 C 27 %
1367 18-04-2020 11:42:18 18.6 C 26 %
1368 18-04-2020 11:52:18 18.9 C 27 %
1369 18-04-2020 12:02:17 19.1 C 26 %
1370 18-04-2020 12:12:17 20 C 25 %
1371 18-04-2020 12:22:18 20.2 C 24 %
1372 18-04-2020 12:32:18 20.1 C 24 %
1373 18-04-2020 12:42:18 19.6 C 25 %
1374 18-04-2020 12:52:17 19.3 C 25 %
1375 18-04-2020 13:02:17 20.8 C 24 %
Sensor: Nr:Datum:Temp:Feuchte:
Aussen-T/F 1376 18-04-2020 13:12:17 21.8 C 21 %
1377 18-04-2020 13:22:18 21.5 C 20 %
1378 18-04-2020 13:32:18 21.8 C 20 %
1379 18-04-2020 13:42:18 22.4 C 20 %
1380 18-04-2020 13:52:18 21.6 C 20 %
1381 18-04-2020 14:02:18 21.2 C 20 %
1382 18-04-2020 14:12:18 21.7 C 20 %
1383 18-04-2020 14:22:18 22.4 C 20 %
1384 18-04-2020 14:32:17 22.4 C 20 %
1385 18-04-2020 14:42:17 22.8 C 20 %
1386 18-04-2020 14:52:17 22.6 C 20 %
1387 18-04-2020 15:02:17 25.4 C 20 %
1388 18-04-2020 15:12:18 30.4 C 20 %
1389 18-04-2020 15:22:17 28.2 C 20 %
1390 18-04-2020 15:32:17 23.8 C 20 %
1391 18-04-2020 15:42:17 23.2 C 20 %
1392 18-04-2020 15:52:17 22.2 C 20 %
1393 18-04-2020 16:02:18 21.8 C 20 %
1394 18-04-2020 16:12:18 21.8 C 20 %
1395 18-04-2020 16:22:18 20.6 C 20 %
1396 18-04-2020 16:32:17 19.7 C 25 %
1397 18-04-2020 16:42:17 20 C 25 %
1398 18-04-2020 16:52:17 19.9 C 25 %
1399 18-04-2020 17:02:17 19.1 C 26 %
1400 18-04-2020 17:12:17 18.9 C 27 %
Sensor: Nr:Datum:Temp:Feuchte:
Aussen-T/F 1401 18-04-2020 17:22:17 18.7 C 28 %
1402 18-04-2020 17:32:18 17.6 C 33 %
1403 18-04-2020 17:42:18 17.5 C 33 %
1404 18-04-2020 17:52:18 17.4 C 33 %
1405 18-04-2020 18:02:18 17.3 C 34 %
1406 18-04-2020 18:12:18 17.1 C 34 %
1407 18-04-2020 18:22:17 17.3 C 33 %
1408 18-04-2020 18:32:18 17.7 C 31 %
1409 18-04-2020 18:42:18 17.7 C 31 %
1410 18-04-2020 18:52:17 17.9 C 30 %
1411 18-04-2020 19:02:18 18.1 C 30 %
1412 18-04-2020 19:12:18 17.9 C 30 %
1413 18-04-2020 19:22:17 17.6 C 30 %
1414 18-04-2020 19:32:17 17.8 C 30 %
1415 18-04-2020 19:42:17 18.1 C 29 %
1416 18-04-2020 19:52:18 17.7 C 30 %
1417 18-04-2020 20:02:17 17.3 C 30 %
1418 18-04-2020 20:12:17 16.5 C 30 %
1419 18-04-2020 20:22:17 15.9 C 31 %
1420 18-04-2020 20:32:17 15 C 32 %
1421 18-04-2020 20:42:17 14.8 C 34 %
1422 18-04-2020 20:52:17 14.5 C 34 %
1423 18-04-2020 21:02:18 14.5 C 35 %
1424 18-04-2020 21:12:18 14.9 C 34 %
1425 18-04-2020 21:22:17 15 C 33 %
Sensor: Nr:Datum:Temp:Feuchte:
Aussen-T/F 1426 18-04-2020 21:32:17 15.1 C 33 %
1427 18-04-2020 21:42:17 15 C 33 %
1428 18-04-2020 21:52:18 14.8 C 34 %
1429 18-04-2020 22:02:17 14.4 C 34 %
1430 18-04-2020 22:12:17 14.5 C 35 %
1431 18-04-2020 22:22:17 13.7 C 35 %
1432 18-04-2020 22:32:18 13.4 C 36 %
1433 18-04-2020 22:42:18 12.8 C 37 %
1434 18-04-2020 22:52:17 12.8 C 37 %
1435 18-04-2020 23:02:18 12.7 C 38 %
1436 18-04-2020 23:12:18 12.3 C 38 %
1437 18-04-2020 23:22:17 12.1 C 38 %
1438 18-04-2020 23:32:17 11.7 C 40 %
1439 18-04-2020 23:42:17 11.1 C 40 %
1440 18-04-2020 23:52:17 10.9 C 42 %
1441 19-04-2020 00:02:18 10.6 C 43 %
1442 19-04-2020 00:12:18 10.7 C 43 %
1443 19-04-2020 00:22:17 10.2 C 43 %
1444 19-04-2020 00:32:17 10.2 C 43 %
1445 19-04-2020 00:42:17 10.1 C 44 %
1446 19-04-2020 00:52:17 9.8 C 44 %
1447 19-04-2020 01:02:17 9.8 C 45 %
1448 19-04-2020 01:12:17 9.9 C 45 %
1449 19-04-2020 01:22:17 9.6 C 44 %
1450 19-04-2020 01:32:17 9.6 C 45 %
Sensor: Nr:Datum:Temp:Feuchte:
Aussen-T/F 1451 19-04-2020 01:42:17 9.9 C 45 %
1452 19-04-2020 01:52:17 9.5 C 45 %
1453 19-04-2020 02:02:17 9.5 C 45 %
1454 19-04-2020 02:12:18 9.6 C 45 %
1455 19-04-2020 02:22:17 9.7 C 45 %
1456 19-04-2020 02:32:17 10 C 45 %
1457 19-04-2020 02:42:17 10 C 44 %
1458 19-04-2020 02:52:17 9.8 C 45 %
1459 19-04-2020 03:02:17 9.6 C 45 %
1460 19-04-2020 03:12:17 9.3 C 44 %
1461 19-04-2020 03:22:17 9.1 C 45 %
1462 19-04-2020 03:32:17 8.9 C 45 %
1463 19-04-2020 03:42:17 8.7 C 45 %
1464 19-04-2020 03:52:17 8.7 C 45 %
1465 19-04-2020 04:02:17 8.5 C 45 %
1466 19-04-2020 04:12:17 9.2 C 45 %
1467 19-04-2020 04:22:17 9.2 C 45 %
1468 19-04-2020 04:32:17 9.4 C 45 %
1469 19-04-2020 04:42:17 9.6 C 45 %
1470 19-04-2020 04:52:17 9.6 C 45 %
1471 19-04-2020 05:02:17 9.7 C 45 %
1472 19-04-2020 05:12:17 9.6 C 45 %
1473 19-04-2020 05:22:18 9.6 C 45 %
1474 19-04-2020 05:32:17 9.7 C 45 %
1475 19-04-2020 05:42:17 9.7 C 45 %
Sensor: Nr:Datum:Temp:Feuchte:
Aussen-T/F 1476 19-04-2020 05:52:17 9.8 C 45 %
1477 19-04-2020 06:02:17 9.9 C 45 %
1478 19-04-2020 06:12:17 10.1 C 44 %
1479 19-04-2020 06:22:17 10.1 C 44 %
1480 19-04-2020 06:32:17 10.2 C 44 %
1481 19-04-2020 06:42:17 10.2 C 44 %
1482 19-04-2020 06:52:18 10.3 C 44 %
1483 19-04-2020 07:02:18 10.3 C 44 %
1484 19-04-2020 07:12:18 10.4 C 44 %
1485 19-04-2020 07:22:17 10.6 C 44 %
1486 19-04-2020 07:32:18 10.5 C 43 %
1487 19-04-2020 07:42:18 10.6 C 43 %
1488 19-04-2020 07:52:17 10.6 C 43 %
1489 19-04-2020 08:02:17 10.7 C 43 %
1490 19-04-2020 08:12:17 11.3 C 42 %
1491 19-04-2020 08:22:17 11.5 C 41 %
1492 19-04-2020 08:32:17 12 C 40 %
1493 19-04-2020 08:42:17 12.4 C 39 %
1494 19-04-2020 08:52:17 13.2 C 37 %
1495 19-04-2020 09:02:17 12.5 C 38 %
1496 19-04-2020 09:12:18 13 C 37 %
1497 19-04-2020 09:22:18 13.2 C 36 %
1498 19-04-2020 09:32:17 13.5 C 36 %
1499 19-04-2020 09:42:17 13.8 C 36 %
1500 19-04-2020 09:52:17 13.8 C 35 %
Sensor: Nr:Datum:Temp:Feuchte:
Aussen-T/F 1501 19-04-2020 10:02:17 13.7 C 35 %
1502 19-04-2020 10:12:17 14.2 C 35 %
1503 19-04-2020 10:22:17 14.7 C 34 %
1504 19-04-2020 10:32:17 15.5 C 33 %
1505 19-04-2020 10:42:17 16.4 C 31 %
1506 19-04-2020 10:52:17 16.4 C 31 %
1507 19-04-2020 11:02:17 15.7 C 32 %
1508 19-04-2020 11:12:17 14.7 C 33 %
1509 19-04-2020 11:22:17 14.7 C 33 %
1510 19-04-2020 11:32:17 14.4 C 34 %
1511 19-04-2020 11:42:17 14 C 34 %
1512 19-04-2020 11:52:17 13.8 C 35 %
1513 19-04-2020 12:02:17 14.2 C 34 %
1514 19-04-2020 12:12:17 14.7 C 34 %
1515 19-04-2020 12:22:17 16 C 31 %
1516 19-04-2020 12:32:18 16 C 31 %
1517 19-04-2020 12:42:18 16.3 C 30 %
1518 19-04-2020 12:52:17 16.9 C 30 %
1519 19-04-2020 13:02:17 17.4 C 28 %
1520 19-04-2020 13:12:17 16.9 C 29 %
1521 19-04-2020 13:22:17 17.4 C 27 %
1522 19-04-2020 13:32:17 18.8 C 26 %
1523 19-04-2020 13:42:17 19.1 C 25 %
1524 19-04-2020 13:52:17 19.3 C 25 %
1525 19-04-2020 14:02:18 18.8 C 25 %
Sensor: Nr:Datum:Temp:Feuchte:
Aussen-T/F 1526 19-04-2020 14:12:18 18.6 C 25 %
1527 19-04-2020 14:22:17 18.1 C 25 %
1528 19-04-2020 14:32:17 17.4 C 26 %
1529 19-04-2020 14:42:17 18 C 26 %
1530 19-04-2020 14:52:17 17.1 C 26 %
1531 19-04-2020 15:02:18 16.9 C 26 %
1532 19-04-2020 15:12:18 16.6 C 26 %
1533 19-04-2020 15:22:17 17 C 25 %
1534 19-04-2020 15:32:17 17.2 C 25 %
1535 19-04-2020 15:42:18 17.8 C 25 %
1536 19-04-2020 15:52:18 18.1 C 24 %
1537 19-04-2020 16:02:17 19.2 C 22 %
1538 19-04-2020 16:12:17 22.2 C 20 %
1539 19-04-2020 16:22:17 20.2 C 20 %
1540 19-04-2020 16:32:17 18.6 C 20 %
1541 19-04-2020 16:42:17 20.5 C 20 %
1542 19-04-2020 16:52:17 21.3 C 20 %
1543 19-04-2020 17:02:17 17.5 C 20 %
1544 19-04-2020 17:12:17 18.6 C 20 %
1545 19-04-2020 17:22:17 19.7 C 20 %
1546 19-04-2020 17:32:18 18.9 C 20 %
1547 19-04-2020 17:42:18 19.2 C 20 %
1548 19-04-2020 17:52:17 18.6 C 20 %
1549 19-04-2020 18:02:18 17.4 C 20 %
1550 19-04-2020 18:12:18 17.3 C 20 %
Sensor: Nr:Datum:Temp:Feuchte:
Aussen-T/F 1551 19-04-2020 18:22:17 17.3 C 20 %
1552 19-04-2020 18:32:17 17.3 C 20 %
1553 19-04-2020 18:42:17 16.8 C 20 %
1554 19-04-2020 18:52:17 16.8 C 20 %
1555 19-04-2020 19:02:17 16.8 C 20 %
1556 19-04-2020 19:12:17 16.7 C 20 %
1557 19-04-2020 19:22:17 16.3 C 20 %
1558 19-04-2020 19:32:18 16 C 20 %
1559 19-04-2020 19:42:18 15.6 C 20 %
1560 19-04-2020 19:52:17 15.1 C 20 %
1561 19-04-2020 20:02:18 14.7 C 20 %
1562 19-04-2020 20:12:18 13.7 C 23 %
1563 19-04-2020 20:22:17 13.3 C 24 %
1564 19-04-2020 20:32:17 13 C 25 %
1565 19-04-2020 20:42:17 12.5 C 26 %
1566 19-04-2020 20:52:17 12.3 C 26 %
1567 19-04-2020 21:02:18 12 C 26 %
1568 19-04-2020 21:12:18 12 C 26 %
1569 19-04-2020 21:22:17 11.7 C 27 %
1570 19-04-2020 21:32:17 11.5 C 27 %
1571 19-04-2020 21:42:17 11.4 C 27 %
1572 19-04-2020 21:52:17 11 C 27 %
1573 19-04-2020 22:02:17 11.2 C 26 %
1574 19-04-2020 22:12:17 11 C 26 %
1575 19-04-2020 22:22:17 11.1 C 26 %
Sensor: Nr:Datum:Temp:Feuchte:
Aussen-T/F 1576 19-04-2020 22:32:17 10.9 C 26 %
1577 19-04-2020 22:42:17 10.3 C 26 %
1578 19-04-2020 22:52:17 10.2 C 26 %
1579 19-04-2020 23:02:18 11.1 C 25 %
1580 19-04-2020 23:12:18 10.1 C 25 %
1581 19-04-2020 23:22:18 9.7 C 27 %
1582 19-04-2020 23:32:17 10.3 C 22 %
1583 19-04-2020 23:42:17 10.3 C 25 %
1584 19-04-2020 23:52:17 10.3 C 23 %
1585 20-04-2020 00:02:17 10.1 C 25 %
1586 20-04-2020 00:12:17 9.6 C 25 %
1587 20-04-2020 00:22:17 10.1 C 21 %
1588 20-04-2020 00:32:18 9.9 C 23 %
1589 20-04-2020 00:42:18 9.6 C 25 %
1590 20-04-2020 00:52:18 9.3 C 25 %
1591 20-04-2020 01:02:17 9.8 C 23 %
1592 20-04-2020 01:12:17 9.3 C 23 %
1593 20-04-2020 01:22:17 9.1 C 21 %
1594 20-04-2020 01:32:17 9.6 C 21 %
1595 20-04-2020 01:42:17 9.1 C 21 %
1596 20-04-2020 01:52:17 8.5 C 25 %
1597 20-04-2020 02:02:18 8.1 C 26 %
1598 20-04-2020 02:12:18 7.9 C 26 %
1599 20-04-2020 02:22:17 7.5 C 27 %
1600 20-04-2020 02:32:18 7.3 C 27 %
Sensor: Nr:Datum:Temp:Feuchte:
Aussen-T/F 1601 20-04-2020 02:42:18 7.3 C 27 %
1602 20-04-2020 02:52:17 7.3 C 27 %
1603 20-04-2020 03:02:17 7 C 27 %
1604 20-04-2020 03:12:17 6.9 C 28 %
1605 20-04-2020 03:22:17 6.7 C 29 %
1606 20-04-2020 03:32:17 6.9 C 28 %
1607 20-04-2020 03:42:17 6.9 C 28 %
1608 20-04-2020 03:52:17 6.7 C 29 %
1609 20-04-2020 04:02:17 6.6 C 28 %
1610 20-04-2020 04:12:17 6.5 C 28 %
1611 20-04-2020 04:22:17 6.4 C 29 %
1612 20-04-2020 04:32:18 6.4 C 28 %
1613 20-04-2020 04:42:18 6.4 C 28 %
1614 20-04-2020 04:52:17 6.2 C 29 %
1615 20-04-2020 05:02:18 6.4 C 29 %
1616 20-04-2020 05:12:18 6.3 C 29 %
1617 20-04-2020 05:22:17 6.3 C 29 %
1618 20-04-2020 05:32:17 6.2 C 30 %
1619 20-04-2020 05:42:18 6.3 C 29 %
1620 20-04-2020 05:52:17 6.3 C 29 %
1621 20-04-2020 06:02:18 6 C 30 %
1622 20-04-2020 06:12:18 5.9 C 30 %
1623 20-04-2020 06:22:17 5.9 C 30 %
1624 20-04-2020 06:32:17 6.1 C 30 %
1625 20-04-2020 06:42:17 6.1 C 30 %
Sensor: Nr:Datum:Temp:Feuchte:
Aussen-T/F 1626 20-04-2020 06:52:17 5.9 C 30 %
1627 20-04-2020 07:02:17 6.1 C 30 %
1628 20-04-2020 07:12:17 6.2 C 30 %
1629 20-04-2020 07:22:17 6.2 C 30 %
1630 20-04-2020 07:32:17 6.4 C 30 %
1631 20-04-2020 07:42:17 7.2 C 27 %
1632 20-04-2020 07:52:17 7.4 C 27 %
1633 20-04-2020 08:02:18 7.3 C 27 %
1634 20-04-2020 08:12:18 7.9 C 26 %
1635 20-04-2020 08:22:17 7.8 C 27 %
1636 20-04-2020 08:32:17 7.7 C 28 %
1637 20-04-2020 08:42:18 7.9 C 26 %
1638 20-04-2020 08:52:18 8.1 C 26 %
1639 20-04-2020 09:02:17 8.3 C 26 %
1640 20-04-2020 09:12:17 8.2 C 27 %
1641 20-04-2020 09:22:17 8.4 C 27 %
1642 20-04-2020 09:32:17 9 C 25 %
1643 20-04-2020 09:42:17 9.4 C 25 %
1644 20-04-2020 09:52:18 9.4 C 26 %
1645 20-04-2020 10:02:18 9.9 C 26 %
1646 20-04-2020 10:12:18 10.7 C 22 %
1647 20-04-2020 10:22:17 11.4 C 20 %
1648 20-04-2020 10:32:17 12.1 C 20 %
1649 20-04-2020 10:42:18 12.7 C 20 %
1650 20-04-2020 10:52:17 13.1 C 20 %
Sensor: Nr:Datum:Temp:Feuchte:
Aussen-T/F 1651 20-04-2020 11:02:18 13.7 C 20 %
1652 20-04-2020 11:12:18 14 C 20 %
1653 20-04-2020 11:22:17 14.4 C 20 %
1654 20-04-2020 11:32:17 14.7 C 20 %
1655 20-04-2020 11:42:18 14.8 C 20 %
1656 20-04-2020 11:52:17 15 C 20 %
1657 20-04-2020 12:02:17 15.2 C 20 %
1658 20-04-2020 12:12:17 15 C 20 %
1659 20-04-2020 12:22:17 15 C 20 %
1660 20-04-2020 12:32:17 15.1 C 20 %
1661 20-04-2020 12:42:17 15.1 C 20 %
1662 20-04-2020 12:52:17 15.4 C 20 %
1663 20-04-2020 13:02:17 15.4 C 20 %
1664 20-04-2020 13:12:17 16 C 20 %
1665 20-04-2020 13:22:17 15.8 C 20 %
1666 20-04-2020 13:32:17 16.1 C 20 %
1667 20-04-2020 13:42:17 16.1 C 20 %
1668 20-04-2020 13:52:17 16.8 C 20 %
1669 20-04-2020 14:02:17 16.9 C 20 %
1670 20-04-2020 14:12:17 17.3 C 20 %
1671 20-04-2020 14:22:17 18.3 C 20 %
1672 20-04-2020 14:32:18 21 C 20 %
1673 20-04-2020 14:42:18 23 C 20 %
1674 20-04-2020 14:52:18 23.2 C 20 %
1675 20-04-2020 15:02:17 22.9 C 20 %
Sensor: Nr:Datum:Temp:Feuchte:
Aussen-T/F 1676 20-04-2020 15:12:17 21.8 C 20 %
1677 20-04-2020 15:22:17 22.9 C 20 %
1678 20-04-2020 15:32:17 23.3 C 20 %
1679 20-04-2020 15:42:17 24.7 C 20 %
1680 20-04-2020 15:52:17 22.5 C 20 %
1681 20-04-2020 16:02:17 24.5 C 20 %
1682 20-04-2020 16:12:17 22.7 C 20 %
1683 20-04-2020 16:22:17 23 C 20 %
1684 20-04-2020 16:32:17 23.5 C 20 %
1685 20-04-2020 16:42:17 23.6 C 20 %
1686 20-04-2020 16:52:17 23.4 C 20 %
1687 20-04-2020 17:02:17 23.7 C 20 %
1688 20-04-2020 17:12:17 22.3 C 20 %
1689 20-04-2020 17:22:17 21.6 C 20 %
1690 20-04-2020 17:32:17 20.4 C 20 %
1691 20-04-2020 17:42:17 22.4 C 20 %
1692 20-04-2020 17:52:17 20.9 C 20 %
1693 20-04-2020 18:02:18 19.1 C 20 %
1694 20-04-2020 18:12:18 19 C 20 %
1695 20-04-2020 18:22:18 18.5 C 20 %
1696 20-04-2020 18:32:17 18.4 C 20 %
1697 20-04-2020 18:42:18 18.2 C 20 %
1698 20-04-2020 18:52:18 18.3 C 20 %
1699 20-04-2020 19:02:17 17.8 C 20 %
1700 20-04-2020 19:12:17 17.6 C 20 %
Sensor: Nr:Datum:Temp:Feuchte:
Aussen-T/F 1701 20-04-2020 19:22:17 17.2 C 20 %
1702 20-04-2020 19:32:17 17 C 20 %
1703 20-04-2020 19:42:17 16.6 C 20 %
1704 20-04-2020 19:52:17 16.3 C 20 %
1705 20-04-2020 20:02:17 16 C 20 %
1706 20-04-2020 20:12:17 15.6 C 20 %
1707 20-04-2020 20:22:17 15 C 20 %
1708 20-04-2020 20:32:17 14.4 C 20 %
1709 20-04-2020 20:42:17 14.5 C 20 %
1710 20-04-2020 20:52:17 13.8 C 20 %
1711 20-04-2020 21:02:17 13.7 C 20 %
1712 20-04-2020 21:12:17 12.9 C 20 %
1713 20-04-2020 21:22:17 12.6 C 20 %
1714 20-04-2020 21:32:17 12 C 20 %
1715 20-04-2020 21:42:17 12.2 C 20 %
1716 20-04-2020 21:52:17 12.6 C 20 %
1717 20-04-2020 22:02:17 11.8 C 20 %
1718 20-04-2020 22:12:17 11.9 C 20 %
1719 20-04-2020 22:22:17 12.1 C 20 %
1720 20-04-2020 22:32:17 12.2 C 20 %
1721 20-04-2020 22:42:17 11.9 C 20 %
1722 20-04-2020 22:52:18 11.5 C 20 %
1723 20-04-2020 23:02:17 11.5 C 20 %
1724 20-04-2020 23:12:17 11.6 C 20 %
1725 20-04-2020 23:22:17 11 C 20 %
Sensor: Nr:Datum:Temp:Feuchte:
Aussen-T/F 1726 20-04-2020 23:32:18 11.6 C 20 %
1727 20-04-2020 23:42:18 11 C 20 %
1728 20-04-2020 23:52:17 11 C 20 %
1729 21-04-2020 00:02:17 10.9 C 20 %
1730 21-04-2020 00:12:17 10.3 C 20 %
1731 21-04-2020 00:22:17 10.4 C 20 %
1732 21-04-2020 00:32:17 9.9 C 20 %
1733 21-04-2020 00:42:17 10.5 C 20 %
1734 21-04-2020 00:52:17 10 C 20 %
1735 21-04-2020 01:02:18 9.4 C 20 %
1736 21-04-2020 01:12:18 8.9 C 20 %
1737 21-04-2020 01:22:18 9 C 20 %
1738 21-04-2020 01:32:18 8.9 C 20 %
1739 21-04-2020 01:42:18 9.2 C 20 %
1740 21-04-2020 01:52:17 8.4 C 20 %
1741 21-04-2020 02:02:17 9.2 C 20 %
1742 21-04-2020 02:12:18 9.1 C 20 %
1743 21-04-2020 02:22:17 9.1 C 20 %
1744 21-04-2020 02:32:18 8.9 C 20 %
1745 21-04-2020 02:42:18 9.2 C 20 %
1746 21-04-2020 02:52:17 9 C 20 %
1747 21-04-2020 03:02:17 9.3 C 20 %
1748 21-04-2020 03:12:17 9.1 C 20 %
1749 21-04-2020 03:22:18 9.2 C 20 %
1750 21-04-2020 03:32:17 9.1 C 20 %
Sensor: Nr:Datum:Temp:Feuchte:
Aussen-T/F 1751 21-04-2020 03:42:17 8.3 C 20 %
1752 21-04-2020 03:52:18 8.6 C 20 %
1753 21-04-2020 04:02:18 8.1 C 20 %
1754 21-04-2020 04:12:18 7.4 C 23 %
1755 21-04-2020 04:22:17 7.8 C 20 %
1756 21-04-2020 04:32:17 7.7 C 23 %
1757 21-04-2020 04:42:17 7.5 C 25 %
1758 21-04-2020 04:52:17 7.5 C 25 %
1759 21-04-2020 05:02:17 7.1 C 25 %
1760 21-04-2020 05:12:17 7.7 C 25 %
1761 21-04-2020 05:22:17 7.3 C 25 %
1762 21-04-2020 05:32:18 7 C 25 %
1763 21-04-2020 05:42:18 6.8 C 26 %
1764 21-04-2020 05:52:17 6.5 C 27 %
1765 21-04-2020 06:02:17 6.9 C 27 %
1766 21-04-2020 06:12:17 6.6 C 27 %
1767 21-04-2020 06:22:18 6.6 C 27 %
1768 21-04-2020 06:32:18 6.3 C 28 %
1769 21-04-2020 06:42:18 6.4 C 28 %
1770 21-04-2020 06:52:17 6.3 C 29 %
1771 21-04-2020 07:02:18 6.1 C 30 %
1772 21-04-2020 07:12:18 6.2 C 29 %
1773 21-04-2020 07:22:17 6.3 C 30 %
1774 21-04-2020 07:32:17 6.5 C 30 %
1775 21-04-2020 07:42:17 7.3 C 27 %
Sensor: Nr:Datum:Temp:Feuchte:
Aussen-T/F 1776 21-04-2020 07:52:17 6.9 C 29 %
1777 21-04-2020 08:02:17 7.4 C 27 %
1778 21-04-2020 08:12:17 7.7 C 26 %
1779 21-04-2020 08:22:17 7.6 C 26 %
1780 21-04-2020 08:32:17 7.2 C 28 %
1781 21-04-2020 08:42:18 7.5 C 27 %
1782 21-04-2020 08:52:17 8.3 C 27 %
1783 21-04-2020 09:02:17 8.7 C 25 %
1784 21-04-2020 09:12:17 9.2 C 23 %
1785 21-04-2020 09:22:17 9.7 C 21 %
1786 21-04-2020 09:32:17 10.2 C 20 %
1787 21-04-2020 09:42:17 10.7 C 20 %
1788 21-04-2020 09:52:17 10.9 C 20 %
1789 21-04-2020 10:02:17 10.9 C 20 %
1790 21-04-2020 10:12:17 11.7 C 20 %
1791 21-04-2020 10:22:17 12.2 C 20 %
1792 21-04-2020 10:32:17 12.8 C 20 %
1793 21-04-2020 10:42:17 13.2 C 20 %
1794 21-04-2020 10:52:17 13.5 C 20 %
1795 21-04-2020 11:02:17 13.9 C 20 %
1796 21-04-2020 11:12:17 14.6 C 20 %
1797 21-04-2020 11:22:17 14.6 C 20 %
1798 21-04-2020 11:32:18 14.7 C 20 %
1799 21-04-2020 11:42:18 15.2 C 20 %
1800 21-04-2020 11:52:18 15.7 C 20 %
Sensor: Nr:Datum:Temp:Feuchte:
Aussen-T/F 1801 21-04-2020 12:02:17 16.4 C 20 %
1802 21-04-2020 12:12:18 16.1 C 20 %
1803 21-04-2020 12:22:17 16.1 C 20 %
1804 21-04-2020 12:32:17 16.2 C 20 %
1805 21-04-2020 12:42:17 16.4 C 20 %
1806 21-04-2020 12:52:17 16.6 C 20 %
1807 21-04-2020 13:02:17 16.9 C 20 %
1808 21-04-2020 13:12:17 17.4 C 20 %
1809 21-04-2020 13:22:17 17.2 C 20 %
1810 21-04-2020 13:32:17 17.3 C 20 %
1811 21-04-2020 13:42:17 17.9 C 20 %
1812 21-04-2020 13:52:17 18.1 C 20 %
1813 21-04-2020 14:02:17 18.5 C 20 %
1814 21-04-2020 14:12:17 19 C 20 %
1815 21-04-2020 14:22:17 19.4 C 20 %
1816 21-04-2020 14:32:17 22 C 20 %
1817 21-04-2020 14:42:17 24.4 C 20 %
1818 21-04-2020 14:52:17 24.2 C 20 %
1819 21-04-2020 15:02:17 24.5 C 20 %
1820 21-04-2020 15:12:17 22.2 C 20 %
1821 21-04-2020 15:22:17 23.7 C 20 %
1822 21-04-2020 15:32:18 23.2 C 20 %
1823 21-04-2020 15:42:18 24 C 20 %
1824 21-04-2020 15:52:17 23.4 C 20 %
1825 21-04-2020 16:02:18 22.8 C 20 %
Sensor: Nr:Datum:Temp:Feuchte:
Aussen-T/F 1826 21-04-2020 16:12:18 23.2 C 20 %
1827 21-04-2020 16:22:17 22.9 C 20 %
1828 21-04-2020 16:32:17 23.2 C 20 %
1829 21-04-2020 16:42:17 24.3 C 20 %
1830 21-04-2020 16:52:17 22.8 C 20 %
1831 21-04-2020 17:02:17 23.6 C 20 %
1832 21-04-2020 17:12:17 24.8 C 20 %
1833 21-04-2020 17:22:18 22.8 C 20 %
1834 21-04-2020 17:32:17 21.9 C 20 %
1835 21-04-2020 17:42:17 22.3 C 20 %
1836 21-04-2020 17:52:17 22.9 C 20 %
1837 21-04-2020 18:02:18 21.1 C 20 %
1838 21-04-2020 18:12:18 20.9 C 20 %
1839 21-04-2020 18:22:17 20.5 C 20 %
1840 21-04-2020 18:32:17 20.3 C 20 %
1841 21-04-2020 18:42:17 20 C 20 %
1842 21-04-2020 18:52:18 20 C 20 %
1843 21-04-2020 19:02:17 19.6 C 20 %
1844 21-04-2020 19:12:17 19.4 C 20 %
1845 21-04-2020 19:22:17 19.1 C 20 %
1846 21-04-2020 19:32:18 18.9 C 20 %
1847 21-04-2020 19:42:18 18.7 C 20 %
1848 21-04-2020 19:52:17 18.3 C 20 %
1849 21-04-2020 20:02:17 17.9 C 20 %
1850 21-04-2020 20:12:17 17.4 C 20 %
Sensor: Nr:Datum:Temp:Feuchte:
Aussen-T/F 1851 21-04-2020 20:22:17 16.7 C 20 %
1852 21-04-2020 20:32:17 16.2 C 20 %
1853 21-04-2020 20:42:17 15.5 C 20 %
1854 21-04-2020 20:52:17 14.8 C 20 %
1855 21-04-2020 21:02:18 14.2 C 20 %
1856 21-04-2020 21:12:18 14.5 C 20 %
1857 21-04-2020 21:22:17 14.1 C 20 %
1858 21-04-2020 21:32:17 13.9 C 20 %
1859 21-04-2020 21:42:17 13.2 C 20 %
1860 21-04-2020 21:52:18 12.9 C 20 %
1861 21-04-2020 22:02:17 13.2 C 20 %
1862 21-04-2020 22:12:17 13 C 20 %
1863 21-04-2020 22:22:17 13.4 C 20 %
1864 21-04-2020 22:32:17 12.6 C 20 %
1865 21-04-2020 22:42:17 12 C 20 %
1866 21-04-2020 22:52:18 11.8 C 20 %
1867 21-04-2020 23:02:18 12.1 C 20 %
1868 21-04-2020 23:12:18 11.8 C 20 %
1869 21-04-2020 23:22:17 11.5 C 20 %
1870 21-04-2020 23:32:18 11.3 C 20 %
1871 21-04-2020 23:42:18 11.3 C 20 %
1872 21-04-2020 23:52:18 11.1 C 20 %
1873 22-04-2020 00:02:18 11.1 C 20 %
1874 22-04-2020 00:12:18 10.6 C 20 %
1875 22-04-2020 00:22:17 11.1 C 20 %
Sensor: Nr:Datum:Temp:Feuchte:
Aussen-T/F 1876 22-04-2020 00:32:18 11.4 C 20 %
1877 22-04-2020 00:42:18 10.9 C 20 %
1878 22-04-2020 00:52:17 11 C 20 %
1879 22-04-2020 01:02:17 10.8 C 20 %
1880 22-04-2020 01:12:17 10 C 21 %
1881 22-04-2020 01:22:17 9.9 C 25 %
1882 22-04-2020 01:32:18 9.7 C 25 %
1883 22-04-2020 01:42:18 10.2 C 21 %
1884 22-04-2020 01:52:17 9.9 C 23 %
1885 22-04-2020 02:02:17 9.9 C 23 %
1886 22-04-2020 02:12:17 9.8 C 25 %
1887 22-04-2020 02:22:17 9.5 C 25 %
1888 22-04-2020 02:32:17 9.3 C 25 %
1889 22-04-2020 02:42:17 9.7 C 25 %
1890 22-04-2020 02:52:17 9.3 C 25 %
1891 22-04-2020 03:02:17 9.5 C 25 %
1892 22-04-2020 03:12:17 9 C 25 %
1893 22-04-2020 03:22:18 8.8 C 26 %
1894 22-04-2020 03:32:18 8.5 C 27 %
1895 22-04-2020 03:42:18 8.4 C 27 %
1896 22-04-2020 03:52:17 8.3 C 27 %
1897 22-04-2020 04:02:18 8.4 C 27 %
1898 22-04-2020 04:12:18 8.3 C 27 %
1899 22-04-2020 04:22:17 8 C 27 %
1900 22-04-2020 04:32:18 7.9 C 27 %
Sensor: Nr:Datum:Temp:Feuchte:
Aussen-T/F 1901 22-04-2020 04:42:18 7.9 C 27 %
1902 22-04-2020 04:52:17 7.4 C 28 %
1903 22-04-2020 05:02:18 7.5 C 28 %
1904 22-04-2020 05:12:18 7.3 C 28 %
1905 22-04-2020 05:22:17 7.1 C 29 %
1906 22-04-2020 05:32:17 7.1 C 29 %
1907 22-04-2020 05:42:18 6.9 C 30 %
1908 22-04-2020 05:52:17 6.7 C 30 %
1909 22-04-2020 06:02:18 6.7 C 30 %
1910 22-04-2020 06:12:18 6.1 C 31 %
1911 22-04-2020 06:22:17 5.8 C 32 %
1912 22-04-2020 06:32:17 5.6 C 33 %
1913 22-04-2020 06:42:17 5.3 C 35 %
1914 22-04-2020 06:52:17 5.6 C 35 %
1915 22-04-2020 07:02:17 5.6 C 35 %
1916 22-04-2020 07:12:17 5.4 C 35 %
1917 22-04-2020 07:22:18 5.9 C 35 %
1918 22-04-2020 07:32:17 5.5 C 35 %
1919 22-04-2020 07:42:17 5.7 C 35 %
1920 22-04-2020 07:52:17 5.9 C 35 %
1921 22-04-2020 08:02:17 6.5 C 34 %
1922 22-04-2020 08:12:17 6.6 C 34 %
1923 22-04-2020 08:22:17 7 C 33 %
1924 22-04-2020 08:32:17 7.5 C 32 %
1925 22-04-2020 08:42:17 8 C 31 %
Sensor: Nr:Datum:Temp:Feuchte:
Aussen-T/F 1926 22-04-2020 08:52:18 8.9 C 30 %
1927 22-04-2020 09:02:18 9.1 C 30 %
1928 22-04-2020 09:12:18 9.1 C 30 %
1929 22-04-2020 09:22:17 10.1 C 26 %
1930 22-04-2020 09:32:17 10.7 C 26 %
1931 22-04-2020 09:42:17 10.7 C 26 %
1932 22-04-2020 09:52:17 11.3 C 24 %
1933 22-04-2020 10:02:17 11.5 C 24 %
1934 22-04-2020 10:12:17 12.5 C 20 %
1935 22-04-2020 10:22:17 13 C 20 %
1936 22-04-2020 10:32:17 13.7 C 20 %
1937 22-04-2020 10:42:17 14.2 C 20 %
1938 22-04-2020 10:52:17 14.8 C 20 %
1939 22-04-2020 11:02:17 15.4 C 20 %
1940 22-04-2020 11:12:17 15.7 C 20 %
1941 22-04-2020 11:22:17 16.2 C 20 %
1942 22-04-2020 11:32:17 16.4 C 20 %
1943 22-04-2020 11:42:17 17.1 C 20 %
1944 22-04-2020 11:52:18 17.1 C 20 %
1945 22-04-2020 12:02:18 17.9 C 20 %
1946 22-04-2020 12:12:18 17.6 C 20 %
1947 22-04-2020 12:22:17 17.7 C 20 %
1948 22-04-2020 12:32:17 17.7 C 20 %
1949 22-04-2020 12:42:17 17.7 C 20 %
1950 22-04-2020 12:52:18 18 C 20 %
Sensor: Nr:Datum:Temp:Feuchte:
Aussen-T/F 1951 22-04-2020 13:02:17 18.6 C 20 %
1952 22-04-2020 13:12:17 19.3 C 20 %
1953 22-04-2020 13:22:17 19 C 20 %
1954 22-04-2020 13:32:17 18.9 C 20 %
1955 22-04-2020 13:42:17 19.1 C 20 %
1956 22-04-2020 13:52:17 19.4 C 20 %
1957 22-04-2020 14:02:17 19.8 C 20 %
1958 22-04-2020 14:12:17 20.3 C 20 %
1959 22-04-2020 14:22:17 21.2 C 20 %
1960 22-04-2020 14:32:17 25.4 C 20 %
1961 22-04-2020 14:42:17 27.1 C 20 %
1962 22-04-2020 14:52:17 25.8 C 20 %
1963 22-04-2020 15:02:17 24.9 C 20 %
1964 22-04-2020 15:12:18 26.4 C 20 %
1965 22-04-2020 15:22:17 27.6 C 20 %
1966 22-04-2020 15:32:17 27 C 20 %
1967 22-04-2020 15:42:17 25.4 C 20 %
1968 22-04-2020 15:52:17 25.7 C 20 %
1969 22-04-2020 16:02:17 25.3 C 20 %
1970 22-04-2020 16:12:17 27.2 C 20 %
1971 22-04-2020 16:22:17 26.8 C 20 %
1972 22-04-2020 16:32:18 27.7 C 20 %
1973 22-04-2020 16:42:18 25.2 C 20 %
1974 22-04-2020 16:52:17 26.3 C 20 %
1975 22-04-2020 17:02:17 25.2 C 20 %
Sensor: Nr:Datum:Temp:Feuchte:
Aussen-T/F 1976 22-04-2020 17:12:17 24.6 C 20 %
1977 22-04-2020 17:22:17 25.1 C 20 %
1978 22-04-2020 17:32:17 25.5 C 20 %
1979 22-04-2020 17:42:17 25.6 C 20 %
1980 22-04-2020 17:52:17 25.2 C 20 %
1981 22-04-2020 18:02:17 23.1 C 20 %
1982 22-04-2020 18:12:17 22 C 20 %
1983 22-04-2020 18:22:17 22.1 C 20 %
1984 22-04-2020 18:32:17 21.9 C 20 %
1985 22-04-2020 18:42:17 21.9 C 20 %
1986 22-04-2020 18:52:17 21.6 C 20 %
1987 22-04-2020 19:02:17 21.1 C 20 %
1988 22-04-2020 19:12:17 21.2 C 20 %
1989 22-04-2020 19:22:17 20.8 C 20 %
1990 22-04-2020 19:32:18 20.4 C 20 %
1991 22-04-2020 19:42:18 20.3 C 20 %
1992 22-04-2020 19:52:17 20 C 20 %
1993 22-04-2020 20:02:18 19.4 C 20 %
1994 22-04-2020 20:12:18 18.4 C 20 %
1995 22-04-2020 20:22:17 17 C 20 %
1996 22-04-2020 20:32:17 16.3 C 20 %
1997 22-04-2020 20:42:17 16.2 C 20 %
1998 22-04-2020 20:52:17 15.9 C 20 %
1999 22-04-2020 21:02:17 15.7 C 20 %
2000 22-04-2020 21:12:17 15 C 20 %
Sensor: Nr:Datum:Temp:Feuchte:
Aussen-T/F 2001 22-04-2020 21:22:17 14.6 C 20 %
2002 22-04-2020 21:32:17 14.4 C 20 %
2003 22-04-2020 21:42:17 14.4 C 20 %
2004 22-04-2020 21:52:17 14.1 C 20 %
2005 22-04-2020 22:02:17 13.7 C 20 %
2006 22-04-2020 22:12:17 13.8 C 20 %
2007 22-04-2020 22:22:17 14.2 C 20 %
2008 22-04-2020 22:32:17 13.6 C 20 %
2009 22-04-2020 22:42:17 13.5 C 20 %
2010 22-04-2020 22:52:18 13.5 C 20 %
2011 22-04-2020 23:02:17 13.7 C 20 %
2012 22-04-2020 23:12:17 13.5 C 20 %
2013 22-04-2020 23:22:17 13.2 C 20 %
2014 22-04-2020 23:32:17 12.9 C 20 %
2015 22-04-2020 23:42:17 13.2 C 20 %
2016 22-04-2020 23:52:18 12.8 C 20 %
2017 23-04-2020 00:02:17 12.6 C 20 %
2018 23-04-2020 00:12:17 12.4 C 20 %
2019 23-04-2020 00:22:17 12.4 C 20 %
2020 23-04-2020 00:32:17 12.2 C 20 %
2021 23-04-2020 00:42:17 12.2 C 20 %
2022 23-04-2020 00:52:17 12.3 C 20 %
2023 23-04-2020 01:02:17 12.1 C 20 %
2024 23-04-2020 01:12:17 11.9 C 20 %
2025 23-04-2020 01:22:18 11 C 20 %
Sensor: Nr:Datum:Temp:Feuchte:
Aussen-T/F 2026 23-04-2020 01:32:17 12 C 20 %
2027 23-04-2020 01:42:17 10.9 C 20 %
2028 23-04-2020 01:52:17 10.5 C 22 %
2029 23-04-2020 02:02:17 9.7 C 25 %
2030 23-04-2020 02:12:17 9.7 C 26 %
2031 23-04-2020 02:22:18 9.7 C 25 %
2032 23-04-2020 02:32:17 9.8 C 26 %
2033 23-04-2020 02:42:17 9.6 C 25 %
2034 23-04-2020 02:52:17 9.3 C 26 %
2035 23-04-2020 03:02:18 9.2 C 26 %
2036 23-04-2020 03:12:18 9.2 C 26 %
2037 23-04-2020 03:22:17 9.4 C 26 %
2038 23-04-2020 03:32:17 9.4 C 26 %
2039 23-04-2020 03:42:17 9.3 C 26 %
2040 23-04-2020 03:52:17 9.1 C 26 %
2041 23-04-2020 04:02:17 8.6 C 27 %
2042 23-04-2020 04:12:17 8.1 C 29 %
2043 23-04-2020 04:22:17 7.5 C 30 %
2044 23-04-2020 04:32:17 7.2 C 32 %
2045 23-04-2020 04:42:17 7.2 C 32 %
2046 23-04-2020 04:52:17 6.9 C 33 %
2047 23-04-2020 05:02:17 6.4 C 34 %
2048 23-04-2020 05:12:17 6.2 C 34 %
2049 23-04-2020 05:22:17 5.9 C 35 %
2050 23-04-2020 05:32:17 6 C 35 %
Sensor: Nr:Datum:Temp:Feuchte:
Aussen-T/F 2051 23-04-2020 05:42:17 6 C 35 %
2052 23-04-2020 05:52:17 5.8 C 36 %
2053 23-04-2020 06:02:17 5.8 C 36 %
2054 23-04-2020 06:12:18 5.4 C 36 %
2055 23-04-2020 06:22:17 5.4 C 36 %
2056 23-04-2020 06:32:18 5.3 C 36 %
2057 23-04-2020 06:42:18 5.3 C 36 %
2058 23-04-2020 06:52:17 5.3 C 36 %
2059 23-04-2020 07:02:17 5.3 C 37 %
2060 23-04-2020 07:12:17 5.3 C 37 %
2061 23-04-2020 07:22:17 5.2 C 37 %
2062 23-04-2020 07:32:17 5.2 C 39 %
2063 23-04-2020 07:42:17 5.2 C 39 %
2064 23-04-2020 07:52:17 5.3 C 39 %
2065 23-04-2020 08:02:17 5.4 C 39 %
2066 23-04-2020 08:12:18 5.5 C 39 %
2067 23-04-2020 08:22:18 5.9 C 39 %
2068 23-04-2020 08:32:18 6.2 C 38 %
2069 23-04-2020 08:42:18 6.5 C 38 %
2070 23-04-2020 08:52:17 6.9 C 38 %
2071 23-04-2020 09:02:17 7.7 C 36 %
2072 23-04-2020 09:12:17 8.1 C 36 %
2073 23-04-2020 09:22:17 8.6 C 35 %
2074 23-04-2020 09:32:17 9.2 C 35 %
2075 23-04-2020 09:42:17 9.7 C 34 %
Sensor: Nr:Datum:Temp:Feuchte:
Aussen-T/F 2076 23-04-2020 09:52:17 9.9 C 34 %
2077 23-04-2020 10:02:18 10.5 C 33 %
2078 23-04-2020 10:12:18 11 C 32 %
2079 23-04-2020 10:22:17 11.8 C 30 %
2080 23-04-2020 10:32:17 12.7 C 28 %
2081 23-04-2020 10:42:17 13.2 C 27 %
2082 23-04-2020 10:52:17 14.8 C 22 %
2083 23-04-2020 11:02:18 16 C 20 %
2084 23-04-2020 11:12:18 16.3 C 20 %
2085 23-04-2020 11:22:17 17.2 C 20 %
2086 23-04-2020 11:32:17 17.4 C 20 %
2087 23-04-2020 11:42:17 17.7 C 20 %
2088 23-04-2020 11:52:18 17.9 C 20 %
2089 23-04-2020 12:02:17 18.9 C 20 %
2090 23-04-2020 12:12:17 18.2 C 20 %
2091 23-04-2020 12:22:17 18 C 20 %
2092 23-04-2020 12:32:18 18.5 C 20 %
2093 23-04-2020 12:42:18 18.3 C 20 %
2094 23-04-2020 12:52:17 18.4 C 20 %
2095 23-04-2020 13:02:17 19.2 C 20 %
2096 23-04-2020 13:12:17 19.5 C 20 %
2097 23-04-2020 13:22:17 19.1 C 20 %
2098 23-04-2020 13:32:17 19.2 C 20 %
2099 23-04-2020 13:42:17 19.7 C 20 %
2100 23-04-2020 13:52:17 20.1 C 20 %
Sensor: Nr:Datum:Temp:Feuchte:
Aussen-T/F 2101 23-04-2020 14:02:17 20.4 C 20 %
2102 23-04-2020 14:12:17 20.7 C 20 %
2103 23-04-2020 14:22:17 21.6 C 20 %
2104 23-04-2020 14:32:17 27.4 C 20 %
2105 23-04-2020 14:42:17 29.1 C 20 %
2106 23-04-2020 14:52:17 29 C 20 %
2107 23-04-2020 15:02:17 29.3 C 20 %
2108 23-04-2020 15:12:17 29.5 C 20 %
2109 23-04-2020 15:22:18 28.8 C 20 %
2110 23-04-2020 15:32:17 30.3 C 20 %
2111 23-04-2020 15:42:17 31.4 C 20 %
2112 23-04-2020 15:52:17 28.9 C 20 %
2113 23-04-2020 16:02:18 27.7 C 20 %
2114 23-04-2020 16:12:18 28.1 C 20 %
2115 23-04-2020 16:22:17 28.4 C 20 %
2116 23-04-2020 16:32:18 28.3 C 20 %
2117 23-04-2020 16:42:18 29 C 20 %
2118 23-04-2020 16:52:17 29.2 C 20 %
2119 23-04-2020 17:02:17 31.6 C 20 %
2120 23-04-2020 17:12:18 28.2 C 20 %
2121 23-04-2020 17:22:17 28.6 C 20 %
2122 23-04-2020 17:32:18 28.1 C 20 %
2123 23-04-2020 17:42:18 28 C 20 %
2124 23-04-2020 17:52:18 30.1 C 20 %
2125 23-04-2020 18:02:17 27.1 C 20 %
Sensor: Nr:Datum:Temp:Feuchte:
Aussen-T/F 2126 23-04-2020 18:12:17 24.5 C 20 %
2127 23-04-2020 18:22:17 23.9 C 20 %
2128 23-04-2020 18:32:17 23.6 C 20 %
2129 23-04-2020 18:42:17 23.7 C 20 %
2130 23-04-2020 18:52:17 23.2 C 20 %
2131 23-04-2020 19:02:17 22.5 C 20 %
2132 23-04-2020 19:12:17 22.4 C 20 %
2133 23-04-2020 19:22:17 22 C 20 %
2134 23-04-2020 19:32:18 21.2 C 20 %
2135 23-04-2020 19:42:18 20 C 20 %
2136 23-04-2020 19:52:17 18.6 C 20 %
2137 23-04-2020 20:02:18 18.6 C 20 %
2138 23-04-2020 20:12:18 17.9 C 20 %
2139 23-04-2020 20:22:17 17.2 C 20 %
2140 23-04-2020 20:32:18 16.5 C 20 %
2141 23-04-2020 20:42:18 15.5 C 20 %
2142 23-04-2020 20:52:18 14.3 C 20 %
2143 23-04-2020 21:02:18 14 C 20 %
2144 23-04-2020 21:12:18 14.1 C 20 %
2145 23-04-2020 21:22:17 13.5 C 20 %
2146 23-04-2020 21:32:17 13.1 C 20 %
2147 23-04-2020 21:42:17 12.9 C 20 %
2148 23-04-2020 21:52:17 12.5 C 20 %
2149 23-04-2020 22:02:17 12 C 23 %
2150 23-04-2020 22:12:17 11.6 C 25 %
Sensor: Nr:Datum:Temp:Feuchte:
Aussen-T/F 2151 23-04-2020 22:22:17 11.5 C 25 %
2152 23-04-2020 22:32:18 11 C 26 %
2153 23-04-2020 22:42:18 11.1 C 26 %
2154 23-04-2020 22:52:18 10.8 C 26 %
2155 23-04-2020 23:02:18 10.4 C 27 %
2156 23-04-2020 23:12:18 10.3 C 27 %
2157 23-04-2020 23:22:18 9.6 C 29 %
2158 23-04-2020 23:32:17 9.6 C 29 %
2159 23-04-2020 23:42:17 9.6 C 29 %
2160 23-04-2020 23:52:17 9.2 C 30 %
2161 24-04-2020 00:02:18 9.2 C 30 %
2162 24-04-2020 00:12:18 9.3 C 30 %
2163 24-04-2020 00:22:17 9.2 C 30 %
2164 24-04-2020 00:32:18 8.6 C 31 %
2165 24-04-2020 00:42:18 8.4 C 31 %
2166 24-04-2020 00:52:17 8.3 C 32 %
2167 24-04-2020 01:02:18 8.1 C 32 %
2168 24-04-2020 01:12:18 8.3 C 33 %
2169 24-04-2020 01:22:17 8.1 C 32 %
2170 24-04-2020 01:32:18 8.1 C 33 %
2171 24-04-2020 01:42:18 8.2 C 33 %
2172 24-04-2020 01:52:17 7.8 C 33 %
2173 24-04-2020 02:02:17 7.5 C 34 %
2174 24-04-2020 02:12:17 7.1 C 34 %
2175 24-04-2020 02:22:17 7 C 35 %
Sensor: Nr:Datum:Temp:Feuchte:
Aussen-T/F 2176 24-04-2020 02:32:18 7.2 C 35 %
2177 24-04-2020 02:42:18 6.8 C 36 %
2178 24-04-2020 02:52:18 7 C 35 %
2179 24-04-2020 03:02:17 7 C 35 %
2180 24-04-2020 03:12:18 6.8 C 36 %
2181 24-04-2020 03:22:17 6.2 C 36 %
2182 24-04-2020 03:32:17 6.4 C 37 %
2183 24-04-2020 03:42:17 6.3 C 37 %
2184 24-04-2020 03:52:17 6.2 C 37 %
2185 24-04-2020 04:02:17 6.2 C 37 %
2186 24-04-2020 04:12:17 6.1 C 37 %
2187 24-04-2020 04:22:17 6 C 37 %
2188 24-04-2020 04:32:17 5.9 C 38 %
2189 24-04-2020 04:42:17 6.2 C 38 %
2190 24-04-2020 04:52:17 6.3 C 38 %
2191 24-04-2020 05:02:17 6.2 C 38 %
2192 24-04-2020 05:12:17 6 C 38 %
2193 24-04-2020 05:22:17 5.9 C 39 %
2194 24-04-2020 05:32:18 6.3 C 38 %
2195 24-04-2020 05:42:18 6.2 C 38 %
2196 24-04-2020 05:52:17 6.1 C 38 %
2197 24-04-2020 06:02:17 6.1 C 38 %
2198 24-04-2020 06:12:17 5.9 C 39 %
2199 24-04-2020 06:22:18 6 C 39 %
2200 24-04-2020 06:32:17 6 C 38 %
Sensor: Nr:Datum:Temp:Feuchte:
Aussen-T/F 2201 24-04-2020 06:42:17 6 C 39 %
2202 24-04-2020 06:52:17 6.2 C 39 %
2203 24-04-2020 07:02:17 6.3 C 38 %
2204 24-04-2020 07:12:17 6.3 C 39 %
2205 24-04-2020 07:22:17 6.3 C 39 %
2206 24-04-2020 07:32:18 6.3 C 39 %
2207 24-04-2020 07:42:18 6.5 C 39 %
2208 24-04-2020 07:52:17 6.7 C 39 %
2209 24-04-2020 08:02:18 6.8 C 39 %
2210 24-04-2020 08:12:18 7.3 C 38 %
2211 24-04-2020 08:22:17 8.2 C 36 %
2212 24-04-2020 08:32:17 9 C 35 %
2213 24-04-2020 08:42:17 9.6 C 35 %
2214 24-04-2020 08:52:17 9.9 C 34 %
2215 24-04-2020 09:02:17 10.4 C 33 %
2216 24-04-2020 09:12:18 11 C 32 %
2217 24-04-2020 09:22:17 11.5 C 31 %
2218 24-04-2020 09:32:18 11.9 C 31 %
2219 24-04-2020 09:42:18 12.5 C 30 %
2220 24-04-2020 09:52:17 12.4 C 30 %
2221 24-04-2020 10:02:17 12.8 C 30 %
2222 24-04-2020 10:12:17 13.1 C 29 %
2223 24-04-2020 10:22:17 14 C 28 %
2224 24-04-2020 10:32:17 14.2 C 28 %
2225 24-04-2020 10:42:17 14.6 C 27 %
Sensor: Nr:Datum:Temp:Feuchte:
Aussen-T/F 2226 24-04-2020 10:52:17 15 C 26 %
2227 24-04-2020 11:02:17 15.6 C 26 %
2228 24-04-2020 11:12:18 15.6 C 26 %
2229 24-04-2020 11:22:17 16.5 C 25 %
2230 24-04-2020 11:32:18 16.6 C 24 %
2231 24-04-2020 11:42:18 17 C 24 %
2232 24-04-2020 11:52:17 17 C 23 %
2233 24-04-2020 12:02:17 17.9 C 23 %
2234 24-04-2020 12:12:17 18.1 C 21 %
2235 24-04-2020 12:22:17 18.2 C 21 %
2236 24-04-2020 12:32:18 18.4 C 21 %
2237 24-04-2020 12:42:18 18.9 C 20 %
2238 24-04-2020 12:52:18 19.3 C 20 %
2239 24-04-2020 13:02:17 19.6 C 20 %
2240 24-04-2020 13:12:17 20.2 C 20 %
2241 24-04-2020 13:22:17 20.5 C 20 %
2242 24-04-2020 13:32:18 20.7 C 20 %
2243 24-04-2020 13:42:18 21 C 20 %
2244 24-04-2020 13:52:17 21.3 C 20 %
2245 24-04-2020 14:02:17 21.8 C 20 %
2246 24-04-2020 14:12:17 22.2 C 20 %
2247 24-04-2020 14:22:17 23.5 C 20 %
2248 24-04-2020 14:32:17 26.8 C 20 %
2249 24-04-2020 14:42:17 28.5 C 20 %
2250 24-04-2020 14:52:17 27.1 C 20 %
Sensor: Nr:Datum:Temp:Feuchte:
Aussen-T/F 2251 24-04-2020 15:02:18 28 C 20 %
2252 24-04-2020 15:12:18 31 C 20 %
2253 24-04-2020 15:22:17 27.6 C 20 %
2254 24-04-2020 15:32:17 28.1 C 20 %
2255 24-04-2020 15:42:18 27.5 C 20 %
2256 24-04-2020 15:52:17 28.8 C 20 %
2257 24-04-2020 16:02:18 28.7 C 20 %
2258 24-04-2020 16:12:18 28.7 C 20 %
2259 24-04-2020 16:22:18 27.2 C 20 %
2260 24-04-2020 16:32:18 26.8 C 20 %
2261 24-04-2020 16:42:18 28 C 20 %
2262 24-04-2020 16:52:17 26.3 C 20 %
2263 24-04-2020 17:02:17 26 C 20 %
2264 24-04-2020 17:12:17 26.7 C 20 %
2265 24-04-2020 17:22:18 26.4 C 20 %
2266 24-04-2020 17:32:18 26.3 C 20 %
2267 24-04-2020 17:42:18 24.2 C 20 %
2268 24-04-2020 17:52:17 26 C 20 %
2269 24-04-2020 18:02:18 24.1 C 20 %
2270 24-04-2020 18:12:18 22.3 C 20 %
2271 24-04-2020 18:22:17 22.2 C 20 %
2272 24-04-2020 18:32:17 22 C 20 %
2273 24-04-2020 18:42:17 20.9 C 20 %
2274 24-04-2020 18:52:18 21 C 20 %
2275 24-04-2020 19:02:17 20.5 C 20 %
Sensor: Nr:Datum:Temp:Feuchte:
Aussen-T/F 2276 24-04-2020 19:12:17 20.3 C 20 %
2277 24-04-2020 19:23:17 20 C 20 %
2278 24-04-2020 19:32:17 19.9 C 20 %
2279 24-04-2020 19:42:18 19.6 C 20 %
2280 24-04-2020 19:53:17 19.2 C 20 %
2281 24-04-2020 20:02:18 19 C 20 %
2282 24-04-2020 20:12:18 18.5 C 20 %
2283 24-04-2020 20:22:17 17.7 C 20 %
2284 24-04-2020 20:32:18 17.3 C 20 %
2285 24-04-2020 20:42:18 16.8 C 20 %
2286 24-04-2020 20:52:18 16.1 C 20 %
2287 24-04-2020 21:02:18 15.9 C 20 %
2288 24-04-2020 21:12:18 15.5 C 20 %
2289 24-04-2020 21:23:17 15.4 C 20 %
2290 24-04-2020 21:33:17 15 C 20 %
2291 24-04-2020 21:42:17 15.1 C 20 %
2292 24-04-2020 21:52:17 14.7 C 20 %
2293 24-04-2020 22:03:17 14.4 C 20 %
2294 24-04-2020 22:13:17 14.1 C 20 %
2295 24-04-2020 22:22:18 14.2 C 20 %
2296 24-04-2020 22:32:18 14.4 C 20 %
2297 24-04-2020 22:42:18 13.9 C 20 %
2298 24-04-2020 22:52:18 13.3 C 20 %
2299 24-04-2020 23:02:18 13.2 C 20 %
2300 24-04-2020 23:12:18 13.2 C 20 %
Sensor: Nr:Datum:Temp:Feuchte:
Aussen-T/F 2301 24-04-2020 23:22:17 12.7 C 20 %
2302 24-04-2020 23:33:17 12.5 C 20 %
2303 24-04-2020 23:43:17 13 C 20 %
2304 24-04-2020 23:53:17 12.4 C 20 %
2305 25-04-2020 00:02:18 12.6 C 20 %
2306 25-04-2020 00:12:18 12.7 C 20 %
2307 25-04-2020 00:23:17 12.6 C 20 %
2308 25-04-2020 00:32:18 12.3 C 20 %
2309 25-04-2020 00:42:18 11.8 C 20 %
2310 25-04-2020 00:52:18 11.7 C 20 %
2311 25-04-2020 01:03:17 11.7 C 20 %
2312 25-04-2020 01:12:17 11.7 C 20 %
2313 25-04-2020 01:23:17 11.3 C 22 %
2314 25-04-2020 01:33:17 11 C 25 %
2315 25-04-2020 01:43:17 11.1 C 25 %
2316 25-04-2020 01:52:17 11.1 C 25 %
2317 25-04-2020 02:02:18 10.4 C 26 %
2318 25-04-2020 02:12:18 10.3 C 26 %
2319 25-04-2020 02:23:17 9.7 C 29 %
2320 25-04-2020 02:33:17 9.5 C 29 %
2321 25-04-2020 02:43:17 9.4 C 30 %
2322 25-04-2020 02:53:17 9.8 C 29 %
2323 25-04-2020 03:03:17 10.1 C 28 %
2324 25-04-2020 03:13:17 10 C 28 %
2325 25-04-2020 03:22:18 10 C 28 %
Sensor: Nr:Datum:Temp:Feuchte:
Aussen-T/F 2326 25-04-2020 03:33:17 9.7 C 30 %
2327 25-04-2020 03:43:17 9 C 30 %
2328 25-04-2020 03:53:17 9 C 30 %
2329 25-04-2020 04:02:18 9.3 C 30 %
2330 25-04-2020 04:12:18 8.9 C 30 %
2331 25-04-2020 04:23:17 8.9 C 30 %
2332 25-04-2020 04:33:18 8.7 C 31 %
2333 25-04-2020 04:42:18 8.2 C 32 %
2334 25-04-2020 04:53:17 8.3 C 33 %
2335 25-04-2020 05:03:17 8.1 C 33 %
2336 25-04-2020 05:13:18 7.5 C 35 %
2337 25-04-2020 05:23:18 7 C 36 %
2338 25-04-2020 05:32:18 7.1 C 37 %
2339 25-04-2020 05:42:18 7.2 C 38 %
2340 25-04-2020 05:53:18 7.6 C 38 %
2341 25-04-2020 06:02:18 8 C 36 %
2342 25-04-2020 06:12:18 8.2 C 36 %
2343 25-04-2020 06:23:17 8.3 C 36 %
2344 25-04-2020 06:33:17 8.3 C 36 %
2345 25-04-2020 06:43:18 8.4 C 35 %
2346 25-04-2020 06:53:17 8.3 C 35 %
2347 25-04-2020 07:03:18 8.3 C 35 %
2348 25-04-2020 07:12:18 8.4 C 35 %
2349 25-04-2020 07:23:17 8.3 C 35 %
2350 25-04-2020 07:32:18 8.4 C 35 %
Sensor: Nr:Datum:Temp:Feuchte:
Aussen-T/F 2351 25-04-2020 07:42:18 8.4 C 35 %
2352 25-04-2020 07:52:18 8.4 C 35 %
2353 25-04-2020 08:03:17 8.4 C 34 %
2354 25-04-2020 08:13:17 8.7 C 34 %
2355 25-04-2020 08:23:17 8.6 C 34 %
2356 25-04-2020 08:33:17 8.7 C 34 %
2357 25-04-2020 08:43:17 8.8 C 34 %
2358 25-04-2020 08:53:17 8.8 C 32 %
2359 25-04-2020 09:03:17 9.3 C 32 %
2360 25-04-2020 09:13:17 9.6 C 31 %
2361 25-04-2020 09:23:17 9.7 C 31 %
2362 25-04-2020 09:33:17 9.8 C 31 %
2363 25-04-2020 09:43:17 10.2 C 30 %
2364 25-04-2020 09:53:17 10.4 C 30 %
2365 25-04-2020 10:03:17 10.8 C 30 %
2366 25-04-2020 10:13:17 10.5 C 28 %
2367 25-04-2020 10:23:17 11 C 28 %
2368 25-04-2020 10:32:18 11.1 C 27 %
2369 25-04-2020 10:42:18 10.5 C 27 %
2370 25-04-2020 10:53:17 11.5 C 26 %
2371 25-04-2020 11:03:17 12.4 C 25 %
2372 25-04-2020 11:13:18 12 C 24 %
2373 25-04-2020 11:23:17 10.9 C 25 %
2374 25-04-2020 11:32:18 11.6 C 25 %
2375 25-04-2020 11:42:18 11.2 C 25 %
Sensor: Nr:Datum:Temp:Feuchte:
Aussen-T/F 2376 25-04-2020 11:53:17 11.8 C 25 %
2377 25-04-2020 12:03:18 11.2 C 25 %
2378 25-04-2020 12:13:18 11.5 C 25 %
2379 25-04-2020 12:23:18 11.7 C 25 %
2380 25-04-2020 12:33:17 11.7 C 25 %
2381 25-04-2020 12:43:18 11.4 C 25 %
2382 25-04-2020 12:53:17 12.3 C 24 %
2383 25-04-2020 13:03:17 12.4 C 22 %
2384 25-04-2020 13:13:17 12.5 C 23 %
2385 25-04-2020 13:23:17 13.2 C 21 %
2386 25-04-2020 13:33:17 13.1 C 21 %
2387 25-04-2020 13:43:17 13.2 C 21 %
2388 25-04-2020 13:53:17 13.7 C 20 %
2389 25-04-2020 14:03:17 13.8 C 20 %
2390 25-04-2020 14:13:17 14.1 C 20 %
2391 25-04-2020 14:23:17 15.8 C 20 %
2392 25-04-2020 14:33:17 21 C 20 %
2393 25-04-2020 14:43:17 22.5 C 20 %
2394 25-04-2020 14:53:17 20.7 C 20 %
2395 25-04-2020 15:03:17 23.8 C 20 %
2396 25-04-2020 15:13:17 23.8 C 20 %
2397 25-04-2020 15:23:17 23.7 C 20 %
2398 25-04-2020 15:33:18 25.7 C 20 %
2399 25-04-2020 15:43:18 25.7 C 20 %
2400 25-04-2020 15:53:18 26.3 C 20 %
Sensor: Nr:Datum:Temp:Feuchte:
Aussen-T/F 2401 25-04-2020 16:03:17 23.2 C 20 %
2402 25-04-2020 16:13:17 24.8 C 20 %
2403 25-04-2020 16:23:17 23.9 C 20 %
2404 25-04-2020 16:33:17 25.3 C 20 %
2405 25-04-2020 16:43:17 22.5 C 20 %
2406 25-04-2020 16:53:17 23.9 C 20 %
2407 25-04-2020 17:03:17 25.1 C 20 %
2408 25-04-2020 17:13:17 25.9 C 20 %
2409 25-04-2020 17:23:17 26.4 C 20 %
2410 25-04-2020 17:33:18 27.1 C 20 %
2411 25-04-2020 17:43:18 22.5 C 20 %
2412 25-04-2020 17:53:17 23.3 C 20 %
2413 25-04-2020 18:03:17 20.1 C 20 %
2414 25-04-2020 18:13:17 18.5 C 20 %
2415 25-04-2020 18:23:17 18.6 C 20 %
2416 25-04-2020 18:33:17 18.3 C 20 %
2417 25-04-2020 18:43:17 17.9 C 20 %
2418 25-04-2020 18:53:17 17.7 C 20 %
2419 25-04-2020 19:03:17 17.5 C 20 %
2420 25-04-2020 19:13:17 17.1 C 20 %
2421 25-04-2020 19:23:17 16.9 C 20 %
2422 25-04-2020 19:33:17 16.4 C 20 %
2423 25-04-2020 19:43:18 16.2 C 20 %
2424 25-04-2020 19:53:17 15.7 C 20 %
2425 25-04-2020 20:03:18 15.4 C 20 %
Sensor: Nr:Datum:Temp:Feuchte:
Aussen-T/F 2426 25-04-2020 20:13:18 14.7 C 20 %
2427 25-04-2020 20:23:17 13.9 C 20 %
2428 25-04-2020 20:33:17 13.8 C 20 %
2429 25-04-2020 20:43:17 12.7 C 20 %
2430 25-04-2020 20:53:17 12.4 C 20 %
2431 25-04-2020 21:03:18 12.1 C 20 %
2432 25-04-2020 21:13:18 12 C 20 %
2433 25-04-2020 21:23:17 11.4 C 21 %
2434 25-04-2020 21:33:17 11.1 C 22 %
2435 25-04-2020 21:43:18 11.2 C 21 %
2436 25-04-2020 21:53:17 11 C 22 %
2437 25-04-2020 22:03:17 11 C 22 %
2438 25-04-2020 22:13:17 10.9 C 23 %
2439 25-04-2020 22:23:17 10.1 C 25 %
2440 25-04-2020 22:33:17 10.1 C 25 %
2441 25-04-2020 22:43:17 9.9 C 26 %
2442 25-04-2020 22:53:18 9.8 C 27 %
2443 25-04-2020 23:03:17 9.6 C 27 %
2444 25-04-2020 23:13:17 9.5 C 27 %
2445 25-04-2020 23:23:17 9.1 C 28 %
2446 25-04-2020 23:33:18 8.7 C 30 %
2447 25-04-2020 23:43:18 8.2 C 31 %
2448 25-04-2020 23:53:17 7.7 C 32 %
2449 26-04-2020 00:03:18 7.1 C 33 %
2450 26-04-2020 00:13:18 6.8 C 35 %
Sensor: Nr:Datum:Temp:Feuchte:
Aussen-T/F 2451 26-04-2020 00:23:17 6.6 C 35 %
2452 26-04-2020 00:33:18 6.3 C 35 %
2453 26-04-2020 00:43:18 6.2 C 36 %
2454 26-04-2020 00:53:17 5.9 C 37 %
2455 26-04-2020 01:03:17 5.8 C 37 %
2456 26-04-2020 01:13:18 5.5 C 38 %
2457 26-04-2020 01:23:17 5.6 C 38 %
2458 26-04-2020 01:33:17 5.2 C 38 %
2459 26-04-2020 01:43:17 5.1 C 38 %
2460 26-04-2020 01:53:17 5.1 C 39 %
2461 26-04-2020 02:03:17 4.7 C 40 %
2462 26-04-2020 02:13:17 4.7 C 40 %
2463 26-04-2020 02:23:17 4.6 C 40 %
2464 26-04-2020 02:33:17 4.5 C 40 %
2465 26-04-2020 02:43:17 4.8 C 41 %
2466 26-04-2020 02:53:18 4.7 C 41 %
2467 26-04-2020 03:03:17 4.4 C 41 %
2468 26-04-2020 03:13:18 4.3 C 41 %
2469 26-04-2020 03:23:17 4.1 C 41 %
2470 26-04-2020 03:33:18 4 C 41 %
2471 26-04-2020 03:43:18 3.8 C 42 %
2472 26-04-2020 03:53:17 3.6 C 43 %
2473 26-04-2020 04:03:18 3.9 C 44 %
2474 26-04-2020 04:13:18 3.6 C 43 %
2475 26-04-2020 04:23:17 3.4 C 43 %
Sensor: Nr:Datum:Temp:Feuchte:
Aussen-T/F 2476 26-04-2020 04:33:17 3.2 C 43 %
2477 26-04-2020 04:43:17 3.3 C 44 %
2478 26-04-2020 04:53:17 3.1 C 44 %
2479 26-04-2020 05:03:18 3.1 C 45 %
2480 26-04-2020 05:13:18 3 C 44 %
2481 26-04-2020 05:23:17 2.7 C 45 %
2482 26-04-2020 05:33:17 2.6 C 45 %
2483 26-04-2020 05:43:17 2.7 C 46 %
2484 26-04-2020 05:53:17 2.5 C 46 %
2485 26-04-2020 06:03:17 2.3 C 46 %
2486 26-04-2020 06:13:17 2.4 C 46 %
2487 26-04-2020 06:23:17 2.4 C 46 %
2488 26-04-2020 06:33:17 2.4 C 46 %
2489 26-04-2020 06:43:18 2.3 C 46 %
2490 26-04-2020 06:53:17 2.3 C 46 %
2491 26-04-2020 07:03:17 2.3 C 46 %
2492 26-04-2020 07:13:17 2.6 C 47 %
2493 26-04-2020 07:23:17 2.7 C 47 %
2494 26-04-2020 07:33:17 2.8 C 46 %
2495 26-04-2020 07:43:17 2.8 C 46 %
2496 26-04-2020 07:53:17 2.9 C 47 %
2497 26-04-2020 08:03:17 3.2 C 46 %
2498 26-04-2020 08:13:17 3.4 C 46 %
2499 26-04-2020 08:23:17 3.6 C 46 %
2500 26-04-2020 08:33:17 4 C 45 %
Sensor: Nr:Datum:Temp:Feuchte:
Aussen-T/F 2501 26-04-2020 08:43:17 4.3 C 45 %
2502 26-04-2020 08:53:17 4.5 C 45 %
2503 26-04-2020 09:03:17 4.9 C 45 %
2504 26-04-2020 09:13:17 5.2 C 43 %
2505 26-04-2020 09:23:17 5.8 C 44 %
2506 26-04-2020 09:33:17 6.4 C 42 %
2507 26-04-2020 09:43:17 6.8 C 41 %
2508 26-04-2020 09:53:17 7.4 C 40 %
2509 26-04-2020 10:03:18 7.8 C 39 %
2510 26-04-2020 10:13:18 8.5 C 38 %
2511 26-04-2020 10:23:17 9 C 37 %
2512 26-04-2020 10:33:18 9.6 C 36 %
2513 26-04-2020 10:43:18 10.4 C 35 %
2514 26-04-2020 10:53:17 11.3 C 32 %
2515 26-04-2020 11:03:17 12.2 C 31 %
2516 26-04-2020 11:13:17 12.8 C 29 %
2517 26-04-2020 11:23:17 13.6 C 27 %
2518 26-04-2020 11:33:17 14.1 C 26 %
2519 26-04-2020 11:43:17 14.7 C 25 %
2520 26-04-2020 11:53:17 15.2 C 22 %
2521 26-04-2020 12:03:17 15.2 C 21 %
2522 26-04-2020 12:13:17 15.1 C 20 %
2523 26-04-2020 12:23:18 15.4 C 20 %
2524 26-04-2020 12:33:17 15.9 C 20 %
2525 26-04-2020 12:43:18 15.9 C 20 %
Sensor: Nr:Datum:Temp:Feuchte:
Aussen-T/F 2526 26-04-2020 12:53:17 16.2 C 20 %
2527 26-04-2020 13:03:17 16.5 C 20 %
2528 26-04-2020 13:13:17 16.8 C 20 %
2529 26-04-2020 13:23:18 16.6 C 20 %
2530 26-04-2020 13:33:17 16.8 C 20 %
2531 26-04-2020 13:43:17 17.1 C 20 %
2532 26-04-2020 13:53:17 17.1 C 20 %
2533 26-04-2020 14:03:17 17.4 C 20 %
2534 26-04-2020 14:13:17 18.1 C 20 %
2535 26-04-2020 14:23:17 19.3 C 20 %
2536 26-04-2020 14:33:18 25 C 20 %
2537 26-04-2020 14:43:18 24.8 C 20 %
2538 26-04-2020 14:53:17 26.7 C 20 %
2539 26-04-2020 15:03:18 26.6 C 20 %
2540 26-04-2020 15:13:18 28.3 C 20 %
2541 26-04-2020 15:23:17 29.7 C 20 %
2542 26-04-2020 15:33:17 29.5 C 20 %
2543 26-04-2020 15:43:17 28 C 20 %
2544 26-04-2020 15:53:18 29 C 20 %
2545 26-04-2020 16:03:18 30.5 C 20 %
2546 26-04-2020 16:13:18 27.6 C 20 %
2547 26-04-2020 16:23:17 28.4 C 20 %
2548 26-04-2020 16:33:17 26.5 C 20 %
2549 26-04-2020 16:43:17 30.3 C 20 %
2550 26-04-2020 16:53:17 28.1 C 20 %
Sensor: Nr:Datum:Temp:Feuchte:
Aussen-T/F 2551 26-04-2020 17:03:18 29 C 20 %
2552 26-04-2020 17:13:18 28.3 C 20 %
2553 26-04-2020 17:23:18 27.4 C 20 %
2554 26-04-2020 17:33:18 27.2 C 20 %
2555 26-04-2020 17:43:18 28 C 20 %
2556 26-04-2020 17:53:17 26.5 C 20 %
2557 26-04-2020 18:03:17 25.8 C 20 %
2558 26-04-2020 18:13:17 23.1 C 20 %
2559 26-04-2020 18:23:17 22 C 20 %
2560 26-04-2020 18:33:17 21.9 C 20 %
2561 26-04-2020 18:43:17 21.1 C 20 %
2562 26-04-2020 18:53:17 21.1 C 20 %
2563 26-04-2020 19:03:17 20.9 C 20 %
2564 26-04-2020 19:13:17 20.2 C 20 %
2565 26-04-2020 19:23:17 19.7 C 20 %
2566 26-04-2020 19:33:17 19.5 C 20 %
2567 26-04-2020 19:43:18 19.1 C 20 %
2568 26-04-2020 19:53:17 18.2 C 20 %
2569 26-04-2020 20:03:18 17.3 C 20 %
2570 26-04-2020 20:13:18 16.6 C 20 %
2571 26-04-2020 20:23:17 15.8 C 20 %
2572 26-04-2020 20:33:17 14.7 C 20 %
2573 26-04-2020 20:43:17 14.3 C 20 %
2574 26-04-2020 20:53:18 14 C 20 %
2575 26-04-2020 21:03:18 13.7 C 20 %
Sensor: Nr:Datum:Temp:Feuchte:
Aussen-T/F 2576 26-04-2020 21:13:18 13.1 C 20 %
2577 26-04-2020 21:23:17 12.6 C 20 %
2578 26-04-2020 21:33:18 12.4 C 20 %
2579 26-04-2020 21:43:18 12.1 C 20 %
2580 26-04-2020 21:53:17 11.6 C 23 %
2581 26-04-2020 22:03:17 11.3 C 25 %
2582 26-04-2020 22:13:17 10.9 C 26 %
2583 26-04-2020 22:23:18 10.7 C 26 %
2584 26-04-2020 22:33:17 10.5 C 26 %
2585 26-04-2020 22:43:17 9.9 C 28 %
2586 26-04-2020 22:53:17 9.6 C 29 %
2587 26-04-2020 23:03:17 9.2 C 29 %
2588 26-04-2020 23:13:17 9 C 30 %
2589 26-04-2020 23:23:17 8.9 C 30 %
2590 26-04-2020 23:33:18 8.8 C 30 %
2591 26-04-2020 23:43:18 8.7 C 30 %
2592 26-04-2020 23:53:17 8.5 C 30 %
2593 27-04-2020 00:03:18 8.3 C 30 %
2594 27-04-2020 00:13:18 8 C 31 %
2595 27-04-2020 00:23:18 7.9 C 32 %
2596 27-04-2020 00:33:17 7.6 C 32 %
2597 27-04-2020 00:43:17 7.4 C 33 %
2598 27-04-2020 00:53:17 7.2 C 33 %
2599 27-04-2020 01:03:18 7.1 C 33 %
2600 27-04-2020 01:13:18 6.8 C 35 %
Sensor: Nr:Datum:Temp:Feuchte:
Aussen-T/F 2601 27-04-2020 01:23:18 6.9 C 35 %
2602 27-04-2020 01:33:17 6.9 C 35 %
2603 27-04-2020 01:43:17 6.8 C 35 %
2604 27-04-2020 01:53:17 6.4 C 35 %
2605 27-04-2020 02:03:17 6.2 C 36 %
2606 27-04-2020 02:13:17 6 C 36 %
2607 27-04-2020 02:23:17 5.9 C 37 %
2608 27-04-2020 02:33:17 5.7 C 37 %
2609 27-04-2020 02:43:17 6 C 37 %
2610 27-04-2020 02:53:17 6 C 37 %
2611 27-04-2020 03:03:18 5.7 C 38 %
2612 27-04-2020 03:13:18 5.6 C 38 %
2613 27-04-2020 03:23:18 5.6 C 38 %
2614 27-04-2020 03:33:17 5.6 C 38 %
2615 27-04-2020 03:43:17 5.6 C 39 %
2616 27-04-2020 03:53:17 5.7 C 39 %
2617 27-04-2020 04:03:18 5 C 38 %
2618 27-04-2020 04:13:18 4.8 C 40 %
2619 27-04-2020 04:23:17 4.4 C 40 %
2620 27-04-2020 04:33:18 4.3 C 41 %
2621 27-04-2020 04:43:18 4 C 41 %
2622 27-04-2020 04:53:17 4.1 C 42 %
2623 27-04-2020 05:03:17 4 C 42 %
2624 27-04-2020 05:13:17 4.2 C 42 %
2625 27-04-2020 05:23:17 3.7 C 43 %
Sensor: Nr:Datum:Temp:Feuchte:
Aussen-T/F 2626 27-04-2020 05:33:17 3.7 C 43 %
2627 27-04-2020 05:43:17 3.4 C 43 %
2628 27-04-2020 05:53:17 3.7 C 44 %
2629 27-04-2020 06:03:18 3.5 C 44 %
2630 27-04-2020 06:13:18 3.4 C 44 %
2631 27-04-2020 06:23:17 3.6 C 45 %
2632 27-04-2020 06:33:17 3.8 C 45 %
2633 27-04-2020 06:43:17 3.8 C 44 %
2634 27-04-2020 06:53:17 3.8 C 44 %
2635 27-04-2020 07:03:17 3.8 C 44 %
2636 27-04-2020 07:13:17 3.9 C 45 %
2637 27-04-2020 07:23:17 3.9 C 45 %
2638 27-04-2020 07:33:17 4.2 C 44 %
2639 27-04-2020 07:43:17 4.5 C 43 %
2640 27-04-2020 07:53:17 4.6 C 43 %
2641 27-04-2020 08:03:17 4.9 C 42 %
2642 27-04-2020 08:13:17 4.8 C 42 %
2643 27-04-2020 08:23:17 5.1 C 42 %
2644 27-04-2020 08:33:17 5.5 C 41 %
2645 27-04-2020 08:43:17 5.7 C 41 %
2646 27-04-2020 08:53:17 6 C 41 %
2647 27-04-2020 09:03:18 6.4 C 40 %
2648 27-04-2020 09:13:18 6.6 C 40 %
2649 27-04-2020 09:23:17 7 C 40 %
2650 27-04-2020 09:33:17 7.6 C 39 %
Sensor: Nr:Datum:Temp:Feuchte:
Aussen-T/F 2651 27-04-2020 09:43:17 8.3 C 37 %
2652 27-04-2020 09:53:17 8.5 C 38 %
2653 27-04-2020 10:03:17 9.1 C 37 %
2654 27-04-2020 10:13:17 9.9 C 37 %
2655 27-04-2020 10:23:17 10.7 C 35 %
2656 27-04-2020 10:33:17 11.7 C 34 %
2657 27-04-2020 10:43:17 12.3 C 32 %
2658 27-04-2020 10:53:17 13.5 C 30 %
2659 27-04-2020 11:03:17 15.5 C 25 %
2660 27-04-2020 11:13:17 16.6 C 22 %
2661 27-04-2020 11:23:17 16.8 C 20 %
2662 27-04-2020 11:33:17 17.2 C 20 %
2663 27-04-2020 11:43:17 17.5 C 20 %
2664 27-04-2020 11:53:17 17.7 C 20 %
2665 27-04-2020 12:03:17 18.1 C 20 %
2666 27-04-2020 12:13:17 18.4 C 20 %
2667 27-04-2020 12:23:17 18.3 C 20 %
2668 27-04-2020 12:33:17 18.7 C 20 %
2669 27-04-2020 12:43:17 19 C 20 %
2670 27-04-2020 12:53:18 19.1 C 20 %
2671 27-04-2020 13:03:17 19.7 C 20 %
2672 27-04-2020 13:13:17 19.5 C 20 %
2673 27-04-2020 13:23:17 19.6 C 20 %
2674 27-04-2020 13:33:17 20.1 C 20 %
2675 27-04-2020 13:43:17 20.2 C 20 %
Sensor: Nr:Datum:Temp:Feuchte:
Aussen-T/F 2676 27-04-2020 13:53:17 20.4 C 20 %
2677 27-04-2020 14:03:18 21 C 20 %
2678 27-04-2020 14:13:18 21.4 C 20 %
2679 27-04-2020 14:23:17 25.1 C 20 %
2680 27-04-2020 14:33:18 25.5 C 20 %
2681 27-04-2020 14:43:18 28.2 C 20 %
2682 27-04-2020 14:53:17 28.9 C 20 %
2683 27-04-2020 15:03:17 30.1 C 20 %
2684 27-04-2020 15:13:17 27.6 C 20 %
2685 27-04-2020 15:23:17 26.7 C 20 %
2686 27-04-2020 15:33:17 27.5 C 20 %
2687 27-04-2020 15:43:17 27.6 C 20 %
2688 27-04-2020 15:53:17 27.9 C 20 %
2689 27-04-2020 16:03:17 26.8 C 20 %
2690 27-04-2020 16:13:17 23.7 C 20 %
2691 27-04-2020 16:23:17 23.4 C 20 %
2692 27-04-2020 16:33:17 24.1 C 20 %
2693 27-04-2020 16:43:17 23.7 C 20 %
2694 27-04-2020 16:53:17 22.7 C 20 %
2695 27-04-2020 17:03:18 22.1 C 20 %
2696 27-04-2020 17:13:18 22.1 C 20 %
2697 27-04-2020 17:23:17 21.6 C 20 %
2698 27-04-2020 17:33:17 21.7 C 20 %
2699 27-04-2020 17:43:17 21.6 C 20 %
2700 27-04-2020 17:53:17 22.2 C 20 %
Sensor: Nr:Datum:Temp:Feuchte:
Aussen-T/F 2701 27-04-2020 18:03:17 21.5 C 20 %
2702 27-04-2020 18:13:17 21.8 C 20 %
2703 27-04-2020 18:23:17 24 C 20 %
2704 27-04-2020 18:33:18 23.1 C 20 %
2705 27-04-2020 18:43:18 22.4 C 20 %
2706 27-04-2020 18:53:17 22.1 C 20 %
2707 27-04-2020 19:03:17 20.9 C 20 %
2708 27-04-2020 19:13:17 19.4 C 20 %
2709 27-04-2020 19:23:18 19.2 C 20 %
2710 27-04-2020 19:33:17 18.3 C 20 %
2711 27-04-2020 19:43:18 18.2 C 20 %
2712 27-04-2020 19:53:17 17.4 C 20 %
2713 27-04-2020 20:03:17 17.1 C 20 %
2714 27-04-2020 20:13:17 16.8 C 20 %
2715 27-04-2020 20:23:17 16.2 C 20 %
2716 27-04-2020 20:33:17 15.4 C 21 %
2717 27-04-2020 20:43:17 15.1 C 21 %
2718 27-04-2020 20:53:18 15.2 C 21 %
2719 27-04-2020 21:03:17 15 C 21 %
2720 27-04-2020 21:13:17 15 C 22 %
2721 27-04-2020 21:23:17 14.6 C 25 %
2722 27-04-2020 21:33:18 14.2 C 25 %
2723 27-04-2020 21:43:18 13.6 C 26 %
2724 27-04-2020 21:53:17 13.2 C 27 %
2725 27-04-2020 22:03:18 13.3 C 27 %
Sensor: Nr:Datum:Temp:Feuchte:
Aussen-T/F 2726 27-04-2020 22:13:18 13.3 C 27 %
2727 27-04-2020 22:23:17 13 C 28 %
2728 27-04-2020 22:33:17 12.3 C 30 %
2729 27-04-2020 22:43:17 12.1 C 30 %
2730 27-04-2020 22:53:18 12 C 30 %
2731 27-04-2020 23:03:17 12 C 30 %
2732 27-04-2020 23:13:17 12 C 30 %
2733 27-04-2020 23:23:17 11.8 C 31 %
2734 27-04-2020 23:33:17 11.4 C 32 %
2735 27-04-2020 23:43:17 11 C 32 %
2736 27-04-2020 23:53:18 10.6 C 34 %
2737 28-04-2020 00:03:17 10.5 C 35 %
2738 28-04-2020 00:13:17 10 C 35 %
2739 28-04-2020 00:23:17 10 C 35 %
2740 28-04-2020 00:33:18 9.8 C 36 %
2741 28-04-2020 00:43:18 9.8 C 36 %
2742 28-04-2020 00:53:17 9.7 C 36 %
2743 28-04-2020 01:03:18 9.5 C 36 %
2744 28-04-2020 01:13:18 9.3 C 37 %
2745 28-04-2020 01:23:17 9.1 C 37 %
2746 28-04-2020 01:33:17 9.1 C 37 %
2747 28-04-2020 01:43:18 9.2 C 37 %
2748 28-04-2020 01:53:17 8.8 C 38 %
2749 28-04-2020 02:03:18 8.7 C 39 %
2750 28-04-2020 02:13:18 8.8 C 39 %
Sensor: Nr:Datum:Temp:Feuchte:
Aussen-T/F 2751 28-04-2020 02:23:17 8.4 C 39 %
2752 28-04-2020 02:33:18 8.2 C 39 %
2753 28-04-2020 02:43:18 8.3 C 40 %
2754 28-04-2020 02:53:18 8.6 C 40 %
2755 28-04-2020 03:03:17 8.7 C 40 %
2756 28-04-2020 03:13:17 8.4 C 40 %
2757 28-04-2020 03:23:17 8.3 C 40 %
2758 28-04-2020 03:33:18 8.3 C 40 %
2759 28-04-2020 03:43:18 7.8 C 40 %
2760 28-04-2020 03:53:18 7.7 C 41 %
2761 28-04-2020 04:03:18 7.9 C 41 %
2762 28-04-2020 04:13:18 7.4 C 41 %
2763 28-04-2020 04:23:18 7.3 C 41 %
2764 28-04-2020 04:33:18 7.3 C 42 %
2765 28-04-2020 04:43:18 7.6 C 43 %
2766 28-04-2020 04:53:17 7.7 C 42 %
2767 28-04-2020 05:03:17 7.8 C 41 %
2768 28-04-2020 05:13:17 7.8 C 42 %
2769 28-04-2020 05:23:17 7.8 C 41 %
2770 28-04-2020 05:33:18 7.9 C 41 %
2771 28-04-2020 05:43:18 7.7 C 41 %
2772 28-04-2020 05:53:17 7.5 C 41 %
2773 28-04-2020 06:03:17 7.2 C 41 %
2774 28-04-2020 06:13:17 7 C 42 %
2775 28-04-2020 06:23:17 7.3 C 43 %
Sensor: Nr:Datum:Temp:Feuchte:
Aussen-T/F 2776 28-04-2020 06:33:18 7.6 C 43 %
2777 28-04-2020 06:43:18 8 C 42 %
2778 28-04-2020 06:53:17 8.3 C 41 %
2779 28-04-2020 07:03:18 8.7 C 41 %
2780 28-04-2020 07:13:18 9.1 C 40 %
2781 28-04-2020 07:23:18 9.3 C 39 %
2782 28-04-2020 07:33:17 9.5 C 39 %
2783 28-04-2020 07:43:17 9.6 C 39 %
2784 28-04-2020 07:53:17 9.4 C 39 %
2785 28-04-2020 08:03:17 9.2 C 40 %
2786 28-04-2020 08:13:17 9.5 C 41 %
2787 28-04-2020 08:23:17 9.8 C 41 %
2788 28-04-2020 08:33:17 10 C 41 %
2789 28-04-2020 08:43:17 10.1 C 41 %
2790 28-04-2020 08:53:17 10.6 C 40 %
2791 28-04-2020 09:03:17 10.7 C 40 %
2792 28-04-2020 09:13:17 11.2 C 39 %
2793 28-04-2020 09:23:17 11.7 C 39 %
2794 28-04-2020 09:33:18 11.8 C 39 %
2795 28-04-2020 09:43:18 11.8 C 38 %
2796 28-04-2020 09:53:17 12.2 C 38 %
2797 28-04-2020 10:03:17 12.8 C 38 %
2798 28-04-2020 10:13:17 12.9 C 37 %
2799 28-04-2020 10:23:18 13.3 C 36 %
2800 28-04-2020 10:33:17 13.7 C 36 %
Sensor: Nr:Datum:Temp:Feuchte:
Aussen-T/F 2801 28-04-2020 10:43:17 14 C 35 %
2802 28-04-2020 10:53:17 14.1 C 35 %
2803 28-04-2020 11:03:17 13.4 C 37 %
2804 28-04-2020 11:13:17 13.8 C 38 %
2805 28-04-2020 11:23:17 13.5 C 38 %
2806 28-04-2020 11:33:17 14.2 C 38 %
2807 28-04-2020 11:43:17 14.3 C 37 %
2808 28-04-2020 11:53:17 14.6 C 38 %
2809 28-04-2020 12:03:17 14.9 C 37 %
2810 28-04-2020 12:13:17 15 C 37 %
2811 28-04-2020 12:23:17 14.9 C 38 %
2812 28-04-2020 12:33:17 15.2 C 37 %
2813 28-04-2020 12:43:17 15 C 38 %
2814 28-04-2020 12:53:17 14.9 C 39 %
2815 28-04-2020 13:03:18 14.7 C 39 %
2816 28-04-2020 13:13:18 14.5 C 41 %
2817 28-04-2020 13:23:17 14.2 C 41 %
2818 28-04-2020 13:33:17 14.9 C 40 %
2819 28-04-2020 13:43:17 14.9 C 38 %
2820 28-04-2020 13:53:17 15.2 C 36 %
2821 28-04-2020 14:03:17 16.2 C 36 %
2822 28-04-2020 14:13:17 16.9 C 35 %
2823 28-04-2020 14:23:18 20.2 C 30 %
2824 28-04-2020 14:33:18 17.5 C 32 %
2825 28-04-2020 14:43:18 16.5 C 34 %
Sensor: Nr:Datum:Temp:Feuchte:
Aussen-T/F 2826 28-04-2020 14:53:17 17.2 C 33 %
2827 28-04-2020 15:03:17 16.4 C 34 %
2828 28-04-2020 15:13:17 15.6 C 36 %
2829 28-04-2020 15:23:17 15.6 C 36 %
2830 28-04-2020 15:33:17 18.1 C 32 %
2831 28-04-2020 15:43:17 16.5 C 33 %
2832 28-04-2020 15:53:17 17 C 32 %
2833 28-04-2020 16:03:18 17.1 C 32 %
2834 28-04-2020 16:13:18 16.7 C 32 %
2835 28-04-2020 16:23:17 16.9 C 32 %
2836 28-04-2020 16:33:17 18.5 C 30 %
2837 28-04-2020 16:43:17 20.1 C 26 %
2838 28-04-2020 16:53:17 19.4 C 27 %
2839 28-04-2020 17:03:17 17.6 C 30 %
2840 28-04-2020 17:13:17 17.4 C 30 %
2841 28-04-2020 17:23:17 17.2 C 29 %
2842 28-04-2020 17:33:17 17 C 30 %
2843 28-04-2020 17:43:17 16.8 C 30 %
2844 28-04-2020 17:53:17 17.6 C 28 %
2845 28-04-2020 18:03:17 18.2 C 27 %
2846 28-04-2020 18:13:17 17.4 C 29 %
2847 28-04-2020 18:23:17 18 C 28 %
2848 28-04-2020 18:33:18 17.6 C 28 %
2849 28-04-2020 18:43:18 17.7 C 28 %
2850 28-04-2020 18:53:17 16.6 C 30 %
Sensor: Nr:Datum:Temp:Feuchte:
Aussen-T/F 2851 28-04-2020 19:03:17 16.3 C 30 %
2852 28-04-2020 19:13:17 16.3 C 30 %
2853 28-04-2020 19:23:17 16.3 C 30 %
2854 28-04-2020 19:33:18 16.4 C 30 %
2855 28-04-2020 19:43:18 16.5 C 30 %
2856 28-04-2020 19:53:17 16.1 C 30 %
2857 28-04-2020 20:03:18 15 C 32 %
2858 28-04-2020 20:13:18 14.2 C 35 %
2859 28-04-2020 20:23:17 13.6 C 37 %
2860 28-04-2020 20:33:17 13.4 C 37 %
2861 28-04-2020 20:43:18 13.1 C 37 %
2862 28-04-2020 20:53:17 13 C 38 %
2863 28-04-2020 21:03:17 12.5 C 39 %
2864 28-04-2020 21:13:17 13.5 C 36 %
2865 28-04-2020 21:23:17 13.9 C 35 %
2866 28-04-2020 21:33:17 14.6 C 34 %
2867 28-04-2020 21:43:17 14.4 C 34 %
2868 28-04-2020 21:53:17 14.2 C 34 %
2869 28-04-2020 22:03:17 13.4 C 35 %
2870 28-04-2020 22:13:17 12.8 C 37 %
2871 28-04-2020 22:23:17 12.8 C 37 %
2872 28-04-2020 22:33:17 13 C 36 %
2873 28-04-2020 22:43:17 13.1 C 36 %
2874 28-04-2020 22:53:18 12.9 C 37 %
2875 28-04-2020 23:03:17 12.7 C 38 %
Sensor: Nr:Datum:Temp:Feuchte:
Aussen-T/F 2876 28-04-2020 23:13:18 12.7 C 38 %
2877 28-04-2020 23:23:18 12.7 C 38 %
2878 28-04-2020 23:33:18 12.7 C 38 %
2879 28-04-2020 23:43:18 12.5 C 39 %
2880 28-04-2020 23:53:18 12.2 C 39 %
2881 29-04-2020 00:03:17 12.2 C 39 %
2882 29-04-2020 00:13:17 12.2 C 39 %
2883 29-04-2020 00:23:17 12.1 C 39 %
2884 29-04-2020 00:33:18 11.8 C 40 %
2885 29-04-2020 00:43:18 11.5 C 40 %
2886 29-04-2020 00:53:18 11.5 C 40 %
2887 29-04-2020 01:03:18 11.5 C 40 %
2888 29-04-2020 01:13:18 11.6 C 40 %
2889 29-04-2020 01:23:17 11.7 C 40 %
2890 29-04-2020 01:33:17 11.6 C 42 %
2891 29-04-2020 01:43:17 11.4 C 43 %
2892 29-04-2020 01:53:17 11.4 C 44 %
2893 29-04-2020 02:03:17 11.4 C 44 %
2894 29-04-2020 02:13:17 11.4 C 41 %
2895 29-04-2020 02:23:17 12.3 C 37 %
2896 29-04-2020 02:33:18 12.6 C 37 %
2897 29-04-2020 02:43:18 12.5 C 36 %
2898 29-04-2020 02:53:17 12.1 C 36 %
2899 29-04-2020 03:03:17 12 C 36 %
2900 29-04-2020 03:13:17 11.4 C 39 %
Sensor: Nr:Datum:Temp:Feuchte:
Aussen-T/F 2901 29-04-2020 03:23:17 11.5 C 39 %
2902 29-04-2020 03:33:17 11.7 C 39 %
2903 29-04-2020 03:43:17 12 C 37 %
2904 29-04-2020 03:53:17 12.1 C 37 %
2905 29-04-2020 04:03:17 11.9 C 39 %
2906 29-04-2020 04:13:17 11.9 C 39 %
2907 29-04-2020 04:23:17 11.7 C 39 %
2908 29-04-2020 04:33:17 11.9 C 38 %
2909 29-04-2020 04:43:18 11.6 C 39 %
2910 29-04-2020 04:53:17 11.4 C 39 %
2911 29-04-2020 05:03:18 11.7 C 39 %
2912 29-04-2020 05:13:18 11.5 C 39 %
2913 29-04-2020 05:23:18 11.7 C 39 %
2914 29-04-2020 05:33:17 11.5 C 39 %
2915 29-04-2020 05:43:17 11.4 C 39 %
2916 29-04-2020 05:53:17 11.3 C 40 %
2917 29-04-2020 06:03:18 11.3 C 40 %
2918 29-04-2020 06:13:18 11.5 C 39 %
2919 29-04-2020 06:23:17 11.6 C 38 %
2920 29-04-2020 06:33:17 11.2 C 39 %
2921 29-04-2020 06:43:17 11 C 40 %
2922 29-04-2020 06:53:17 11.2 C 40 %
2923 29-04-2020 07:03:17 11.5 C 39 %
2924 29-04-2020 07:13:17 11.9 C 39 %
2925 29-04-2020 07:23:17 12.1 C 37 %
Sensor: Nr:Datum:Temp:Feuchte:
Aussen-T/F 2926 29-04-2020 07:33:17 12.3 C 37 %
2927 29-04-2020 07:43:17 12.4 C 36 %
2928 29-04-2020 07:53:17 12.7 C 36 %
2929 29-04-2020 08:03:17 12.9 C 36 %
2930 29-04-2020 08:13:17 12.9 C 36 %
2931 29-04-2020 08:23:17 12.7 C 36 %
2932 29-04-2020 08:33:17 12.6 C 36 %
2933 29-04-2020 08:43:17 12.5 C 36 %
2934 29-04-2020 08:53:17 13 C 35 %
2935 29-04-2020 09:03:17 13.1 C 35 %
2936 29-04-2020 09:13:17 13.2 C 35 %
2937 29-04-2020 09:23:17 13.5 C 34 %
2938 29-04-2020 09:33:17 13.6 C 33 %
2939 29-04-2020 09:43:17 13.9 C 32 %
2940 29-04-2020 09:53:17 14.1 C 32 %
2941 29-04-2020 10:03:17 14.5 C 31 %
2942 29-04-2020 10:13:17 14.8 C 30 %
2943 29-04-2020 10:23:17 15.1 C 29 %
2944 29-04-2020 10:33:17 14.8 C 30 %
2945 29-04-2020 10:43:17 15 C 29 %
2946 29-04-2020 10:53:17 15.5 C 28 %
2947 29-04-2020 11:03:17 16 C 28 %
2948 29-04-2020 11:13:17 16 C 28 %
2949 29-04-2020 11:23:17 16.3 C 27 %
2950 29-04-2020 11:33:18 16.8 C 27 %
Sensor: Nr:Datum:Temp:Feuchte:
Aussen-T/F 2951 29-04-2020 11:43:18 16.9 C 25 %
2952 29-04-2020 11:53:17 17.1 C 25 %
2953 29-04-2020 12:03:18 17.5 C 25 %
2954 29-04-2020 12:13:18 16.4 C 25 %
2955 29-04-2020 12:23:17 15.5 C 26 %
2956 29-04-2020 12:33:17 15.9 C 26 %
2957 29-04-2020 12:43:17 16.3 C 25 %
2958 29-04-2020 12:53:17 16.2 C 25 %
2959 29-04-2020 13:03:17 17.5 C 25 %
2960 29-04-2020 13:13:17 16.4 C 25 %
2961 29-04-2020 13:23:18 16.1 C 25 %
2962 29-04-2020 13:33:18 17.5 C 25 %
2963 29-04-2020 13:43:18 17.3 C 25 %
2964 29-04-2020 13:53:18 16.6 C 25 %
2965 29-04-2020 14:03:18 16.7 C 26 %
2966 29-04-2020 14:13:18 15.7 C 26 %
2967 29-04-2020 14:23:18 15.9 C 26 %
2968 29-04-2020 14:33:17 16.1 C 26 %
2969 29-04-2020 14:43:17 19.2 C 22 %
2970 29-04-2020 14:53:17 21.1 C 20 %
2971 29-04-2020 15:03:17 20.9 C 20 %
2972 29-04-2020 15:13:17 22.7 C 20 %
2973 29-04-2020 15:23:17 22.3 C 20 %
2974 29-04-2020 15:33:17 19.6 C 20 %
2975 29-04-2020 15:43:17 18.7 C 20 %
Sensor: Nr:Datum:Temp:Feuchte:
Aussen-T/F 2976 29-04-2020 15:53:17 19.2 C 20 %
2977 29-04-2020 16:03:17 17.4 C 22 %
2978 29-04-2020 16:13:17 17.9 C 22 %
2979 29-04-2020 16:23:17 18.4 C 20 %
2980 29-04-2020 16:33:17 17.7 C 21 %
2981 29-04-2020 16:43:17 20.2 C 20 %
2982 29-04-2020 16:53:17 18.2 C 20 %
2983 29-04-2020 17:03:17 17.4 C 22 %
2984 29-04-2020 17:13:17 16 C 25 %
2985 29-04-2020 17:23:17 19.4 C 23 %
2986 29-04-2020 17:33:17 21.1 C 20 %
2987 29-04-2020 17:43:17 21.2 C 20 %
2988 29-04-2020 17:53:17 20.2 C 20 %
2989 29-04-2020 18:03:17 21 C 20 %
2990 29-04-2020 18:13:18 17.5 C 21 %
2991 29-04-2020 18:23:17 17.4 C 21 %
2992 29-04-2020 18:33:17 17.7 C 22 %
2993 29-04-2020 18:43:17 17.9 C 22 %
2994 29-04-2020 18:53:17 17.2 C 23 %
2995 29-04-2020 19:03:18 17 C 25 %
2996 29-04-2020 19:13:18 17.5 C 24 %
2997 29-04-2020 19:23:17 17.5 C 23 %
2998 29-04-2020 19:33:17 17.1 C 23 %
2999 29-04-2020 19:43:18 16.7 C 24 %
3000 29-04-2020 19:53:17 16.1 C 25 %
Sensor: Nr:Datum:Temp:Feuchte:
Aussen-T/F 3001 29-04-2020 20:03:18 15.4 C 26 %
3002 29-04-2020 20:13:18 15 C 26 %
3003 29-04-2020 20:23:18 14.7 C 29 %
3004 29-04-2020 20:33:17 14.5 C 29 %
3005 29-04-2020 20:43:17 14.5 C 28 %
3006 29-04-2020 20:53:18 14.4 C 28 %
3007 29-04-2020 21:03:18 13.8 C 30 %
3008 29-04-2020 21:13:18 13.2 C 31 %
3009 29-04-2020 21:23:17 12.9 C 33 %
3010 29-04-2020 21:33:17 13 C 32 %
3011 29-04-2020 21:43:17 13.5 C 32 %
3012 29-04-2020 21:53:17 13.2 C 32 %
3013 29-04-2020 22:03:18 13 C 32 %
3014 29-04-2020 22:13:18 13.2 C 33 %
3015 29-04-2020 22:23:17 13.5 C 32 %
3016 29-04-2020 22:33:17 13.3 C 32 %
3017 29-04-2020 22:43:17 13.1 C 32 %
3018 29-04-2020 22:53:18 13.3 C 33 %
3019 29-04-2020 23:03:18 12.8 C 35 %
3020 29-04-2020 23:13:18 12.8 C 35 %
3021 29-04-2020 23:23:17 13 C 34 %
3022 29-04-2020 23:33:17 13.2 C 33 %
3023 29-04-2020 23:43:17 13.2 C 34 %
3024 29-04-2020 23:53:18 12.9 C 35 %
3025 30-04-2020 00:03:17 13 C 34 %
Sensor: Nr:Datum:Temp:Feuchte:
Aussen-T/F 3026 30-04-2020 00:13:17 13.2 C 34 %
3027 30-04-2020 00:23:17 13.3 C 33 %
3028 30-04-2020 00:33:17 13.2 C 33 %
3029 30-04-2020 00:43:17 13.3 C 33 %
3030 30-04-2020 00:53:17 13.1 C 33 %
3031 30-04-2020 01:03:17 13.1 C 33 %
3032 30-04-2020 01:13:17 13.2 C 33 %
3033 30-04-2020 01:23:17 13.2 C 33 %
3034 30-04-2020 01:33:17 13.4 C 33 %
3035 30-04-2020 01:43:17 13.4 C 32 %
3036 30-04-2020 01:53:17 13 C 34 %
3037 30-04-2020 02:03:17 12 C 37 %
3038 30-04-2020 02:13:17 11.8 C 39 %
3039 30-04-2020 02:23:17 11.5 C 39 %
3040 30-04-2020 02:33:17 11.8 C 38 %
3041 30-04-2020 02:43:17 11.7 C 38 %
3042 30-04-2020 02:53:17 11.8 C 37 %
3043 30-04-2020 03:03:17 11.7 C 37 %
3044 30-04-2020 03:13:17 11.2 C 38 %
3045 30-04-2020 03:23:17 10.9 C 40 %
3046 30-04-2020 03:33:17 10.9 C 40 %
3047 30-04-2020 03:43:18 11 C 40 %
3048 30-04-2020 03:53:17 11 C 40 %
3049 30-04-2020 04:03:17 10.8 C 41 %
3050 30-04-2020 04:13:17 10.7 C 41 %
Sensor: Nr:Datum:Temp:Feuchte:
Aussen-T/F 3051 30-04-2020 04:23:17 10.6 C 43 %
3052 30-04-2020 04:33:18 10.7 C 44 %
3053 30-04-2020 04:43:18 10.6 C 44 %
3054 30-04-2020 04:53:17 10.7 C 45 %
3055 30-04-2020 05:03:17 10.7 C 45 %
3056 30-04-2020 05:13:17 10.8 C 45 %
3057 30-04-2020 05:23:17 10.8 C 45 %
3058 30-04-2020 05:33:17 10.8 C 45 %
3059 30-04-2020 05:43:17 10.7 C 45 %
3060 30-04-2020 05:53:18 10.8 C 45 %
3061 30-04-2020 06:03:17 10.7 C 45 %
3062 30-04-2020 06:13:18 10.7 C 45 %
3063 30-04-2020 06:23:17 10.7 C 45 %
3064 30-04-2020 06:33:17 10.8 C 45 %
3065 30-04-2020 06:43:17 10.7 C 45 %
3066 30-04-2020 06:53:17 10.8 C 45 %
3067 30-04-2020 07:03:17 10.6 C 44 %
3068 30-04-2020 07:13:17 10.3 C 42 %
3069 30-04-2020 07:23:17 10.2 C 42 %
3070 30-04-2020 07:33:17 10.2 C 42 %
3071 30-04-2020 07:43:17 10.1 C 42 %
3072 30-04-2020 07:53:17 10 C 43 %
3073 30-04-2020 08:03:17 9.9 C 42 %
3074 30-04-2020 08:13:17 9.8 C 43 %
3075 30-04-2020 08:23:17 10 C 43 %
Sensor: Nr:Datum:Temp:Feuchte:
Aussen-T/F 3076 30-04-2020 08:33:17 11 C 39 %
3077 30-04-2020 08:43:17 10.7 C 40 %
3078 30-04-2020 08:53:17 10.9 C 40 %
3079 30-04-2020 09:03:17 11.2 C 39 %
3080 30-04-2020 09:13:17 11.8 C 37 %
3081 30-04-2020 09:23:18 12.1 C 36 %
3082 30-04-2020 09:33:17 12.5 C 36 %
3083 30-04-2020 09:43:17 12.5 C 36 %
3084 30-04-2020 09:53:17 12.7 C 36 %
3085 30-04-2020 10:03:17 13.2 C 35 %
3086 30-04-2020 10:13:17 13.9 C 35 %
3087 30-04-2020 10:23:17 14 C 33 %
3088 30-04-2020 10:33:17 13.7 C 32 %
3089 30-04-2020 10:43:17 14.4 C 31 %
3090 30-04-2020 10:53:18 14 C 31 %
3091 30-04-2020 11:03:18 14 C 30 %
3092 30-04-2020 11:13:18 14 C 30 %
3093 30-04-2020 11:23:17 14 C 31 %
3094 30-04-2020 11:33:17 14.5 C 31 %
3095 30-04-2020 11:43:17 14.2 C 30 %
3096 30-04-2020 11:53:17 14.3 C 30 %
3097 30-04-2020 12:03:18 14.5 C 30 %
3098 30-04-2020 12:13:18 14.2 C 29 %
3099 30-04-2020 12:23:17 14.6 C 29 %
3100 30-04-2020 12:33:17 14.4 C 29 %
Sensor: Nr:Datum:Temp:Feuchte:
Aussen-T/F 3101 30-04-2020 12:43:17 14.5 C 29 %
3102 30-04-2020 12:53:18 15 C 27 %
3103 30-04-2020 13:03:17 14.7 C 27 %
3104 30-04-2020 13:13:17 14.6 C 27 %
3105 30-04-2020 13:23:17 14.6 C 27 %
3106 30-04-2020 13:33:17 14.5 C 27 %
3107 30-04-2020 13:43:17 15.2 C 26 %
3108 30-04-2020 13:53:17 15.9 C 25 %
3109 30-04-2020 14:03:18 16.8 C 23 %
3110 30-04-2020 14:13:18 16.2 C 21 %
3111 30-04-2020 14:23:17 16.6 C 21 %
3112 30-04-2020 14:33:18 19.7 C 20 %
3113 30-04-2020 14:43:18 18.3 C 20 %
3114 30-04-2020 14:53:17 18.1 C 20 %
3115 30-04-2020 15:03:18 19.2 C 20 %
3116 30-04-2020 15:13:18 19.5 C 20 %
3117 30-04-2020 15:23:17 17.4 C 20 %
3118 30-04-2020 15:33:17 16.5 C 20 %
3119 30-04-2020 15:43:17 15.8 C 20 %
3120 30-04-2020 15:53:18 15.9 C 21 %
3121 30-04-2020 16:03:17 16.2 C 20 %
3122 30-04-2020 16:13:17 16.3 C 20 %
3123 30-04-2020 16:23:17 16.7 C 21 %
3124 30-04-2020 16:33:17 16.4 C 20 %
3125 30-04-2020 16:43:18 16.3 C 21 %
Sensor: Nr:Datum:Temp:Feuchte:
Aussen-T/F 3126 30-04-2020 16:53:17 15.9 C 21 %
3127 30-04-2020 17:03:17 14.8 C 25 %
3128 30-04-2020 17:13:17 12.5 C 33 %
3129 30-04-2020 17:23:18 11.8 C 37 %
3130 30-04-2020 17:33:17 11.5 C 37 %
3131 30-04-2020 17:43:17 10.7 C 40 %
3132 30-04-2020 17:53:17 10.8 C 42 %
3133 30-04-2020 18:03:17 10.6 C 41 %
3134 30-04-2020 18:13:18 10.3 C 42 %
3135 30-04-2020 18:23:17 10.2 C 42 %
3136 30-04-2020 18:33:17 10.2 C 43 %
3137 30-04-2020 18:43:17 10 C 41 %
3138 30-04-2020 18:53:17 9.9 C 41 %
3139 30-04-2020 19:03:18 9.6 C 41 %
3140 30-04-2020 19:13:18 9.5 C 41 %
3141 30-04-2020 19:23:17 10 C 40 %
3142 30-04-2020 19:33:18 10.1 C 41 %
3143 30-04-2020 19:43:18 10 C 41 %
3144 30-04-2020 19:53:17 9.9 C 44 %
3145 30-04-2020 20:03:17 9.7 C 45 %
3146 30-04-2020 20:13:17 9.6 C 45 %
3147 30-04-2020 20:23:17 9.4 C 44 %
3148 30-04-2020 20:33:18 9 C 44 %
3149 30-04-2020 20:43:18 8.6 C 45 %
3150 30-04-2020 20:53:17 8.6 C 46 %
Sensor: Nr:Datum:Temp:Feuchte:
Aussen-T/F 3151 30-04-2020 21:03:17 8.7 C 46 %
3152 30-04-2020 21:13:17 8.8 C 45 %
3153 30-04-2020 21:23:17 8.9 C 45 %
3154 30-04-2020 21:33:17 9 C 45 %
3155 30-04-2020 21:43:18 9 C 45 %
3156 30-04-2020 21:53:17 9 C 45 %
3157 30-04-2020 22:03:18 8.6 C 45 %
3158 30-04-2020 22:13:18 8.4 C 45 %
3159 30-04-2020 22:23:18 8.7 C 45 %
3160 30-04-2020 22:33:17 8.7 C 45 %
3161 30-04-2020 22:43:17 8.6 C 45 %
3162 30-04-2020 22:53:18 8.5 C 45 %
3163 30-04-2020 23:03:17 8.4 C 45 %
3164 30-04-2020 23:13:17 8.3 C 45 %
3165 30-04-2020 23:23:17 8.3 C 45 %
3166 30-04-2020 23:33:17 8.6 C 45 %
3167 30-04-2020 23:43:17 9 C 44 %
3168 30-04-2020 23:53:17 9.2 C 43 %
3169 01-05-2020 00:03:17 8.9 C 43 %
3170 01-05-2020 00:13:17 8.6 C 44 %
3171 01-05-2020 00:23:17 8.2 C 44 %
3172 01-05-2020 00:33:18 8.4 C 44 %
3173 01-05-2020 00:43:18 8.2 C 44 %
3174 01-05-2020 00:53:17 7.8 C 45 %
3175 01-05-2020 01:03:17 8.1 C 45 %
Sensor: Nr:Datum:Temp:Feuchte:
Aussen-T/F 3176 01-05-2020 01:13:18 8.2 C 44 %
3177 01-05-2020 01:23:18 8.1 C 43 %
3178 01-05-2020 01:33:18 8.1 C 43 %
3179 01-05-2020 01:43:18 8.5 C 42 %
3180 01-05-2020 01:53:17 8.5 C 41 %
3181 01-05-2020 02:03:17 8.1 C 42 %
3182 01-05-2020 02:13:18 8 C 42 %
3183 01-05-2020 02:23:17 7.7 C 43 %
3184 01-05-2020 02:33:17 7.6 C 43 %
3185 01-05-2020 02:43:17 7.8 C 43 %
3186 01-05-2020 02:53:17 7.7 C 44 %
3187 01-05-2020 03:03:17 7.4 C 44 %
3188 01-05-2020 03:13:18 7.4 C 46 %
3189 01-05-2020 03:23:17 7.9 C 44 %
3190 01-05-2020 03:33:17 8.2 C 41 %
3191 01-05-2020 03:43:17 8 C 42 %
3192 01-05-2020 03:53:18 7.4 C 44 %
3193 01-05-2020 04:03:17 7.3 C 45 %
3194 01-05-2020 04:13:17 7 C 45 %
3195 01-05-2020 04:23:17 7.1 C 46 %
3196 01-05-2020 04:33:17 7.3 C 46 %
3197 01-05-2020 04:43:17 7.4 C 46 %
3198 01-05-2020 04:53:17 7.6 C 46 %
3199 01-05-2020 05:03:18 7.8 C 46 %
3200 01-05-2020 05:13:18 7.9 C 46 %
Sensor: Nr:Datum:Temp:Feuchte:
Aussen-T/F 3201 01-05-2020 05:23:17 8 C 45 %
3202 01-05-2020 05:33:18 8 C 45 %
3203 01-05-2020 05:43:18 8.6 C 41 %
3204 01-05-2020 05:53:17 8.4 C 40 %
3205 01-05-2020 06:03:17 8.1 C 41 %
3206 01-05-2020 06:13:17 7.8 C 43 %
3207 01-05-2020 06:23:17 7.6 C 44 %
3208 01-05-2020 06:33:17 7.6 C 45 %
3209 01-05-2020 06:43:17 7.4 C 45 %
3210 01-05-2020 06:53:17 7 C 45 %
3211 01-05-2020 07:03:17 6.8 C 46 %
3212 01-05-2020 07:13:17 6.9 C 46 %
3213 01-05-2020 07:23:17 7.8 C 46 %
3214 01-05-2020 07:33:18 7.9 C 46 %
3215 01-05-2020 07:43:18 8.3 C 45 %
3216 01-05-2020 07:53:17 8.1 C 41 %
3217 01-05-2020 08:03:18 8.1 C 41 %
3218 01-05-2020 08:13:18 8.4 C 41 %
3219 01-05-2020 08:23:18 8.3 C 42 %
3220 01-05-2020 08:33:18 8.3 C 44 %
3221 01-05-2020 08:43:18 9 C 44 %
3222 01-05-2020 08:53:17 9.2 C 42 %
3223 01-05-2020 09:03:17 9.6 C 42 %
3224 01-05-2020 09:13:17 9.7 C 42 %
3225 01-05-2020 09:23:17 10.1 C 40 %
Sensor: Nr:Datum:Temp:Feuchte:
Aussen-T/F 3226 01-05-2020 09:33:17 10.4 C 38 %
3227 01-05-2020 09:43:18 10.6 C 39 %
3228 01-05-2020 09:53:18 10.5 C 38 %
3229 01-05-2020 10:03:18 10.5 C 38 %
3230 01-05-2020 10:13:18 10.6 C 37 %
3231 01-05-2020 10:23:17 10.5 C 37 %
3232 01-05-2020 10:33:17 11 C 37 %
3233 01-05-2020 10:43:17 11.5 C 36 %
3234 01-05-2020 10:53:17 12.6 C 34 %
3235 01-05-2020 11:03:17 12.5 C 33 %
3236 01-05-2020 11:13:18 12.8 C 33 %
3237 01-05-2020 11:23:17 12.7 C 32 %
3238 01-05-2020 11:33:18 13.1 C 31 %
3239 01-05-2020 11:43:18 13.1 C 31 %
3240 01-05-2020 11:53:17 12.8 C 32 %
3241 01-05-2020 12:03:17 12.1 C 32 %
3242 01-05-2020 12:13:17 11.9 C 34 %
3243 01-05-2020 12:23:17 12.1 C 33 %
3244 01-05-2020 12:33:17 11.1 C 36 %
3245 01-05-2020 12:43:17 10.7 C 38 %
3246 01-05-2020 12:53:17 10.4 C 39 %
3247 01-05-2020 13:03:18 10.3 C 38 %
3248 01-05-2020 13:13:18 9.7 C 38 %
3249 01-05-2020 13:23:17 10.5 C 38 %
3250 01-05-2020 13:33:17 11.3 C 36 %
Sensor: Nr:Datum:Temp:Feuchte:
Aussen-T/F 3251 01-05-2020 13:43:17 12.4 C 34 %
3252 01-05-2020 13:53:17 12.8 C 34 %
3253 01-05-2020 14:03:17 12.3 C 33 %
3254 01-05-2020 14:13:17 13.5 C 31 %
3255 01-05-2020 14:23:18 14.7 C 28 %
3256 01-05-2020 14:33:18 14.2 C 27 %
3257 01-05-2020 14:43:18 16.8 C 22 %
3258 01-05-2020 14:53:17 19.6 C 20 %
3259 01-05-2020 15:03:17 19.2 C 20 %
3260 01-05-2020 15:13:17 20 C 20 %
3261 01-05-2020 15:23:17 16.6 C 20 %
3262 01-05-2020 15:33:17 14.9 C 25 %
3263 01-05-2020 15:43:17 13.5 C 27 %
3264 01-05-2020 15:53:17 11.7 C 34 %
3265 01-05-2020 16:03:18 13.5 C 30 %
3266 01-05-2020 16:13:18 18.5 C 24 %
3267 01-05-2020 16:23:17 19 C 20 %
3268 01-05-2020 16:33:18 18 C 20 %
3269 01-05-2020 16:43:18 18.4 C 20 %
3270 01-05-2020 16:53:17 17.1 C 22 %
3271 01-05-2020 17:03:18 19.1 C 20 %
3272 01-05-2020 17:13:18 18.3 C 20 %
3273 01-05-2020 17:23:17 15.5 C 25 %
3274 01-05-2020 17:33:17 14 C 28 %
3275 01-05-2020 17:43:17 12.2 C 34 %
Sensor: Nr:Datum:Temp:Feuchte:
Aussen-T/F 3276 01-05-2020 17:53:17 12.3 C 35 %
3277 01-05-2020 18:03:18 12.5 C 35 %
3278 01-05-2020 18:13:18 12.1 C 35 %
3279 01-05-2020 18:23:17 12.2 C 35 %
3280 01-05-2020 18:33:18 12.8 C 35 %
3281 01-05-2020 18:43:18 13.8 C 34 %
3282 01-05-2020 18:53:17 13.2 C 31 %
3283 01-05-2020 19:03:18 12.7 C 34 %
3284 01-05-2020 19:13:18 12.1 C 35 %
3285 01-05-2020 19:23:18 11.7 C 36 %
3286 01-05-2020 19:33:17 11.8 C 35 %
3287 01-05-2020 19:43:17 11.8 C 35 %
3288 01-05-2020 19:53:17 11.4 C 35 %
3289 01-05-2020 20:03:17 11.3 C 35 %
3290 01-05-2020 20:13:17 11.3 C 35 %
3291 01-05-2020 20:23:17 11.5 C 34 %
3292 01-05-2020 20:33:17 11.1 C 34 %
3293 01-05-2020 20:43:17 10.5 C 36 %
3294 01-05-2020 20:53:17 10.3 C 37 %
3295 01-05-2020 21:03:18 10.3 C 37 %
3296 01-05-2020 21:13:18 10.4 C 37 %
3297 01-05-2020 21:23:17 10.2 C 37 %
3298 01-05-2020 21:33:17 9.8 C 38 %
3299 01-05-2020 21:43:17 9.3 C 39 %
3300 01-05-2020 21:53:17 8.8 C 40 %
Sensor: Nr:Datum:Temp:Feuchte:
Aussen-T/F 3301 01-05-2020 22:03:18 9 C 40 %
3302 01-05-2020 22:13:18 9 C 40 %
3303 01-05-2020 22:23:17 9.2 C 39 %
3304 01-05-2020 22:33:17 9.3 C 39 %
3305 01-05-2020 22:43:17 9.3 C 40 %
3306 01-05-2020 22:53:18 9.5 C 39 %
3307 01-05-2020 23:03:17 9.4 C 40 %
3308 01-05-2020 23:13:17 9.3 C 40 %
3309 01-05-2020 23:23:17 9.3 C 40 %
3310 01-05-2020 23:33:17 9.4 C 40 %
3311 01-05-2020 23:43:17 9.5 C 39 %
3312 01-05-2020 23:53:17 9.4 C 40 %
3313 02-05-2020 00:03:17 9.3 C 40 %
3314 02-05-2020 00:13:17 9.2 C 40 %
3315 02-05-2020 00:23:17 9 C 40 %
3316 02-05-2020 00:33:18 8.9 C 40 %
3317 02-05-2020 00:43:18 8.9 C 40 %
3318 02-05-2020 00:53:17 8.9 C 40 %
3319 02-05-2020 01:03:18 9.1 C 40 %
3320 02-05-2020 01:13:18 9.3 C 39 %
3321 02-05-2020 01:23:17 9.3 C 39 %
3322 02-05-2020 01:33:17 9.1 C 40 %
3323 02-05-2020 01:43:18 8.8 C 40 %
3324 02-05-2020 01:53:17 8.5 C 40 %
3325 02-05-2020 02:03:18 8.3 C 41 %
Sensor: Nr:Datum:Temp:Feuchte:
Aussen-T/F 3326 02-05-2020 02:13:18 8.3 C 42 %
3327 02-05-2020 02:23:17 8.4 C 42 %
3328 02-05-2020 02:33:18 8.7 C 41 %
3329 02-05-2020 02:43:18 9.1 C 40 %
3330 02-05-2020 02:53:17 9.3 C 39 %
3331 02-05-2020 03:03:18 9.3 C 39 %
3332 02-05-2020 03:13:18 9.1 C 39 %
3333 02-05-2020 03:23:17 9.3 C 39 %
3334 02-05-2020 03:33:17 9.2 C 39 %
3335 02-05-2020 03:43:17 8.9 C 40 %
3336 02-05-2020 03:53:17 8.9 C 40 %
3337 02-05-2020 04:03:18 8.6 C 40 %
3338 02-05-2020 04:13:18 8.4 C 41 %
3339 02-05-2020 04:23:17 8.4 C 41 %
3340 02-05-2020 04:33:18 8.8 C 40 %
3341 02-05-2020 04:43:18 9 C 39 %
3342 02-05-2020 04:53:18 8.8 C 40 %
3343 02-05-2020 05:03:17 8.8 C 39 %
3344 02-05-2020 05:13:17 8.8 C 39 %
3345 02-05-2020 05:23:17 8.7 C 39 %
3346 02-05-2020 05:33:17 8.8 C 39 %
3347 02-05-2020 05:43:17 8.4 C 40 %
3348 02-05-2020 05:53:17 8.2 C 39 %
3349 02-05-2020 06:03:17 8.2 C 39 %
3350 02-05-2020 06:13:17 7.7 C 40 %
Sensor: Nr:Datum:Temp:Feuchte:
Aussen-T/F 3351 02-05-2020 06:23:17 7.9 C 40 %
3352 02-05-2020 06:33:17 7.9 C 40 %
3353 02-05-2020 06:43:17 8 C 39 %
3354 02-05-2020 06:53:17 8.2 C 39 %
3355 02-05-2020 07:03:17 8 C 39 %
3356 02-05-2020 07:13:17 8.3 C 39 %
3357 02-05-2020 07:23:17 8.4 C 38 %
3358 02-05-2020 07:33:17 8.2 C 38 %
3359 02-05-2020 07:43:17 8 C 39 %
3360 02-05-2020 07:53:17 8.4 C 39 %
3361 02-05-2020 08:03:17 8.5 C 39 %
3362 02-05-2020 08:13:17 8.9 C 38 %
3363 02-05-2020 08:23:17 9 C 37 %
3364 02-05-2020 08:33:17 9.8 C 37 %
3365 02-05-2020 08:43:17 9.8 C 37 %
3366 02-05-2020 08:53:17 9.5 C 37 %
3367 02-05-2020 09:03:17 9.6 C 36 %
3368 02-05-2020 09:13:17 9.7 C 36 %
3369 02-05-2020 09:23:17 9.9 C 36 %
3370 02-05-2020 09:33:17 10.8 C 35 %
3371 02-05-2020 09:43:17 10.8 C 35 %
3372 02-05-2020 09:53:17 10.2 C 35 %
3373 02-05-2020 10:03:18 9.7 C 36 %
3374 02-05-2020 10:13:18 8.6 C 40 %
3375 02-05-2020 10:23:17 6.8 C 41 %
Sensor: Nr:Datum:Temp:Feuchte:
Aussen-T/F 3376 02-05-2020 10:33:17 6.7 C 44 %
3377 02-05-2020 10:43:17 6.7 C 43 %
3378 02-05-2020 10:53:17 6.9 C 43 %
3379 02-05-2020 11:03:17 7.4 C 42 %
3380 02-05-2020 11:13:17 8.4 C 40 %
3381 02-05-2020 11:23:17 8.7 C 40 %
3382 02-05-2020 11:33:17 8.8 C 40 %
3383 02-05-2020 11:43:17 9.3 C 39 %
3384 02-05-2020 11:53:17 9.2 C 39 %
3385 02-05-2020 12:03:17 9.6 C 38 %
3386 02-05-2020 12:13:17 10 C 36 %
3387 02-05-2020 12:23:17 10.3 C 36 %
3388 02-05-2020 12:33:18 10.8 C 36 %
3389 02-05-2020 12:43:18 11.8 C 35 %
3390 02-05-2020 12:53:17 10.4 C 37 %
3391 02-05-2020 13:03:17 11.7 C 32 %
3392 02-05-2020 13:13:17 12.1 C 31 %
3393 02-05-2020 13:23:17 11.4 C 32 %
3394 02-05-2020 13:33:17 11.3 C 32 %
3395 02-05-2020 13:43:17 11.5 C 33 %
3396 02-05-2020 13:53:17 12.2 C 32 %
3397 02-05-2020 14:03:17 12.7 C 31 %
3398 02-05-2020 14:13:17 14.3 C 28 %
3399 02-05-2020 14:23:18 15.6 C 25 %
3400 02-05-2020 14:33:17 12.8 C 27 %
Sensor: Nr:Datum:Temp:Feuchte:
Aussen-T/F 3401 02-05-2020 14:43:18 8.8 C 37 %
3402 02-05-2020 14:53:17 8.4 C 40 %
3403 02-05-2020 15:03:17 7.7 C 42 %
3404 02-05-2020 15:13:17 8.1 C 45 %
3405 02-05-2020 15:23:17 8.9 C 41 %
3406 02-05-2020 15:33:18 13.2 C 32 %
3407 02-05-2020 15:43:18 17.2 C 29 %
3408 02-05-2020 15:53:17 16.8 C 25 %
3409 02-05-2020 16:03:17 18.1 C 23 %
3410 02-05-2020 16:13:17 19.2 C 20 %
3411 02-05-2020 16:23:17 19.8 C 20 %
3412 02-05-2020 16:33:17 16.9 C 20 %
3413 02-05-2020 16:43:17 14.2 C 28 %
3414 02-05-2020 16:53:17 13.5 C 29 %
3415 02-05-2020 17:03:17 18.1 C 23 %
3416 02-05-2020 17:13:17 16.2 C 22 %
3417 02-05-2020 17:23:18 14.5 C 25 %
3418 02-05-2020 17:33:18 14 C 28 %
3419 02-05-2020 17:43:18 14.2 C 27 %
3420 02-05-2020 17:53:17 16.8 C 22 %
3421 02-05-2020 18:03:17 14.7 C 20 %
3422 02-05-2020 18:13:17 14.1 C 22 %
3423 02-05-2020 18:23:17 13.3 C 26 %
3424 02-05-2020 18:33:17 13.2 C 27 %
3425 02-05-2020 18:43:17 12.6 C 29 %
Sensor: Nr:Datum:Temp:Feuchte:
Aussen-T/F 3426 02-05-2020 18:53:17 12.3 C 29 %
3427 02-05-2020 19:03:17 11.9 C 31 %
3428 02-05-2020 19:13:17 11.2 C 31 %
3429 02-05-2020 19:23:17 11.7 C 29 %
3430 02-05-2020 19:33:17 11.5 C 29 %
3431 02-05-2020 19:43:18 11.5 C 30 %
3432 02-05-2020 19:53:17 11.9 C 30 %
3433 02-05-2020 20:03:17 12.1 C 30 %
3434 02-05-2020 20:13:17 11.5 C 30 %
3435 02-05-2020 20:23:17 11.3 C 30 %
3436 02-05-2020 20:33:17 10 C 35 %
3437 02-05-2020 20:43:17 9.2 C 38 %
3438 02-05-2020 20:53:17 8.8 C 39 %
3439 02-05-2020 21:03:17 8.5 C 40 %
3440 02-05-2020 21:13:17 8.3 C 40 %
3441 02-05-2020 21:23:17 8.2 C 39 %
3442 02-05-2020 21:33:17 7.9 C 40 %
3443 02-05-2020 21:43:17 7.8 C 41 %
3444 02-05-2020 21:53:18 7.4 C 41 %
3445 02-05-2020 22:03:17 6.9 C 43 %
3446 02-05-2020 22:13:17 6.8 C 44 %
3447 02-05-2020 22:23:17 6.5 C 45 %
3448 02-05-2020 22:33:17 6.3 C 45 %
3449 02-05-2020 22:43:17 6.3 C 45 %
3450 02-05-2020 22:53:18 6.6 C 45 %
Sensor: Nr:Datum:Temp:Feuchte:
Aussen-T/F 3451 02-05-2020 23:03:17 6.6 C 44 %
3452 02-05-2020 23:13:17 6.4 C 44 %
3453 02-05-2020 23:23:17 6.4 C 44 %
3454 02-05-2020 23:33:17 6.4 C 44 %
3455 02-05-2020 23:43:17 6.2 C 44 %
3456 02-05-2020 23:53:17 6 C 45 %
3457 03-05-2020 00:03:17 6 C 45 %
3458 03-05-2020 00:13:17 5.8 C 46 %
3459 03-05-2020 00:23:17 5.9 C 46 %
3460 03-05-2020 00:33:17 5.6 C 46 %
3461 03-05-2020 00:43:17 5.5 C 46 %
3462 03-05-2020 00:53:17 5.3 C 46 %
3463 03-05-2020 01:03:18 5.2 C 46 %
3464 03-05-2020 01:13:18 5.1 C 46 %
3465 03-05-2020 01:23:17 4.8 C 47 %
3466 03-05-2020 01:33:18 4.6 C 47 %
3467 03-05-2020 01:43:18 4.7 C 47 %
3468 03-05-2020 01:53:18 4.7 C 47 %
3469 03-05-2020 02:03:18 4.7 C 47 %
3470 03-05-2020 02:13:18 5 C 46 %
3471 03-05-2020 02:23:17 4.7 C 47 %
3472 03-05-2020 02:33:18 4.5 C 47 %
3473 03-05-2020 02:43:18 4.5 C 47 %
3474 03-05-2020 02:53:17 4.3 C 47 %
3475 03-05-2020 03:03:17 4.2 C 47 %
Sensor: Nr:Datum:Temp:Feuchte:
Aussen-T/F 3476 03-05-2020 03:13:17 4 C 47 %
3477 03-05-2020 03:23:17 4.2 C 47 %
3478 03-05-2020 03:33:18 4.3 C 47 %
3479 03-05-2020 03:43:18 4.1 C 46 %
3480 03-05-2020 03:53:17 3.8 C 47 %
3481 03-05-2020 04:03:18 3.8 C 47 %
3482 03-05-2020 04:13:18 3.6 C 47 %
3483 03-05-2020 04:23:18 3.5 C 47 %
3484 03-05-2020 04:33:17 3.3 C 47 %
3485 03-05-2020 04:43:17 3 C 47 %
3486 03-05-2020 04:53:17 3.1 C 47 %
3487 03-05-2020 05:03:17 2.9 C 48 %
3488 03-05-2020 05:13:17 2.8 C 48 %
3489 03-05-2020 05:23:17 2.8 C 48 %
3490 03-05-2020 05:33:17 2.8 C 48 %
3491 03-05-2020 05:43:17 2.8 C 48 %
3492 03-05-2020 05:53:17 3.1 C 47 %
3493 03-05-2020 06:03:17 3.3 C 47 %
3494 03-05-2020 06:13:17 3.6 C 47 %
3495 03-05-2020 06:23:17 3.9 C 47 %
3496 03-05-2020 06:33:18 4 C 46 %
3497 03-05-2020 06:43:18 4 C 46 %
3498 03-05-2020 06:53:17 4 C 46 %
3499 03-05-2020 07:03:17 4 C 46 %
3500 03-05-2020 07:13:17 4.1 C 46 %
Sensor: Nr:Datum:Temp:Feuchte:
Aussen-T/F 3501 03-05-2020 07:23:18 4.2 C 46 %
3502 03-05-2020 07:33:18 4.2 C 46 %
3503 03-05-2020 07:43:18 4.4 C 46 %
3504 03-05-2020 07:53:18 4.7 C 46 %
3505 03-05-2020 08:03:18 4.6 C 46 %
3506 03-05-2020 08:13:18 5 C 46 %
3507 03-05-2020 08:23:18 5.5 C 46 %
3508 03-05-2020 08:33:17 5.4 C 46 %
3509 03-05-2020 08:43:17 6.1 C 45 %
3510 03-05-2020 08:53:17 6.2 C 43 %
3511 03-05-2020 09:03:17 6.5 C 43 %
3512 03-05-2020 09:13:17 6.4 C 42 %
3513 03-05-2020 09:23:17 7.2 C 41 %
3514 03-05-2020 09:33:18 7.6 C 42 %
3515 03-05-2020 09:43:18 7.6 C 40 %
3516 03-05-2020 09:53:17 8.6 C 40 %
3517 03-05-2020 10:03:17 8.9 C 40 %
3518 03-05-2020 10:13:17 9.7 C 40 %
3519 03-05-2020 10:23:18 10.1 C 37 %
3520 03-05-2020 10:33:17 10.7 C 39 %
3521 03-05-2020 10:43:17 11.6 C 36 %
3522 03-05-2020 10:53:17 12.5 C 34 %
3523 03-05-2020 11:03:17 12.7 C 33 %
3524 03-05-2020 11:13:17 13.5 C 32 %
3525 03-05-2020 11:23:17 14.4 C 31 %
Sensor: Nr:Datum:Temp:Feuchte:
Aussen-T/F 3526 03-05-2020 11:33:17 14.5 C 30 %
3527 03-05-2020 11:43:18 14.8 C 28 %
3528 03-05-2020 11:53:18 14.5 C 25 %
3529 03-05-2020 12:03:18 14.5 C 25 %
3530 03-05-2020 12:13:18 14.7 C 25 %
3531 03-05-2020 12:23:17 14.7 C 22 %
3532 03-05-2020 12:33:18 14.7 C 23 %
3533 03-05-2020 12:43:18 14.9 C 23 %
3534 03-05-2020 12:53:17 15.1 C 20 %
3535 03-05-2020 13:03:18 16.2 C 20 %
3536 03-05-2020 13:13:18 16.1 C 20 %
3537 03-05-2020 13:23:17 16.3 C 20 %
3538 03-05-2020 13:33:18 16.3 C 20 %
3539 03-05-2020 13:43:18 16.6 C 20 %
3540 03-05-2020 13:53:18 17 C 20 %
3541 03-05-2020 14:03:18 17.4 C 20 %
3542 03-05-2020 14:13:18 18.4 C 20 %
3543 03-05-2020 14:23:17 19.4 C 20 %
3544 03-05-2020 14:33:18 23.3 C 20 %
3545 03-05-2020 14:43:18 22.4 C 20 %
3546 03-05-2020 14:53:17 20.3 C 20 %
3547 03-05-2020 15:03:17 20.3 C 20 %
3548 03-05-2020 15:13:17 20.6 C 20 %
3549 03-05-2020 15:23:17 19.6 C 20 %
3550 03-05-2020 15:33:18 19 C 20 %
Sensor: Nr:Datum:Temp:Feuchte:
Aussen-T/F 3551 03-05-2020 15:43:18 21.2 C 20 %
3552 03-05-2020 15:53:17 19.3 C 20 %
3553 03-05-2020 16:03:17 19 C 20 %
3554 03-05-2020 16:13:17 18.5 C 20 %
3555 03-05-2020 16:23:17 17.9 C 20 %
3556 03-05-2020 16:33:18 17.9 C 20 %
3557 03-05-2020 16:43:18 18.9 C 20 %
3558 03-05-2020 16:53:17 18.2 C 20 %
3559 03-05-2020 17:03:17 17.8 C 20 %
3560 03-05-2020 17:13:17 18.1 C 20 %
3561 03-05-2020 17:23:18 17.2 C 20 %
3562 03-05-2020 17:33:17 17.6 C 20 %
3563 03-05-2020 17:43:17 17.6 C 20 %
3564 03-05-2020 17:53:18 17.3 C 20 %
3565 03-05-2020 18:03:18 16.9 C 20 %
3566 03-05-2020 18:13:18 16.9 C 20 %
3567 03-05-2020 18:23:17 17.2 C 20 %
3568 03-05-2020 18:33:17 16.7 C 20 %
3569 03-05-2020 18:43:17 17 C 20 %
3570 03-05-2020 18:53:17 16.7 C 20 %
3571 03-05-2020 19:03:17 16.2 C 20 %
3572 03-05-2020 19:13:17 15.7 C 21 %
3573 03-05-2020 19:23:17 15.6 C 22 %
3574 03-05-2020 19:33:18 15.2 C 27 %
3575 03-05-2020 19:43:18 14.1 C 29 %
Sensor: Nr:Datum:Temp:Feuchte:
Aussen-T/F 3576 03-05-2020 19:53:17 13.8 C 30 %
3577 03-05-2020 20:03:17 13.3 C 30 %
3578 03-05-2020 20:13:17 13 C 30 %
3579 03-05-2020 20:23:17 12.8 C 31 %
3580 03-05-2020 20:33:18 12.5 C 31 %
3581 03-05-2020 20:43:18 12.4 C 31 %
3582 03-05-2020 20:53:17 12.3 C 32 %
3583 03-05-2020 21:03:17 12.1 C 32 %
3584 03-05-2020 21:13:17 12.1 C 32 %
3585 03-05-2020 21:23:17 12 C 32 %
3586 03-05-2020 21:33:17 12.1 C 32 %
3587 03-05-2020 21:43:18 12 C 32 %
3588 03-05-2020 21:53:17 12 C 33 %
3589 03-05-2020 22:03:18 12 C 33 %
3590 03-05-2020 22:13:18 11.8 C 34 %
3591 03-05-2020 22:23:17 11.8 C 34 %
3592 03-05-2020 22:33:17 11.7 C 34 %
3593 03-05-2020 22:43:17 11.6 C 34 %
3594 03-05-2020 22:53:18 11.4 C 35 %
3595 03-05-2020 23:03:17 11.3 C 35 %
3596 03-05-2020 23:13:17 11.2 C 34 %
3597 03-05-2020 23:23:17 11.4 C 35 %
3598 03-05-2020 23:33:17 11.4 C 34 %
3599 03-05-2020 23:43:17 11.3 C 35 %
3600 03-05-2020 23:53:17 11.4 C 35 %
Sensor: Nr:Datum:Temp:Feuchte:
Aussen-T/F 3601 04-05-2020 00:03:17 11.4 C 35 %
3602 04-05-2020 00:13:17 11.2 C 35 %
3603 04-05-2020 00:23:17 11 C 36 %
3604 04-05-2020 00:33:18 11 C 36 %
3605 04-05-2020 00:43:18 11.1 C 36 %
3606 04-05-2020 00:53:17 11 C 36 %
3607 04-05-2020 01:03:17 10.9 C 36 %
3608 04-05-2020 01:13:17 10.8 C 36 %
3609 04-05-2020 01:23:17 11.1 C 35 %
3610 04-05-2020 01:33:17 11 C 35 %
3611 04-05-2020 01:43:17 11.1 C 35 %
3612 04-05-2020 01:53:17 11 C 35 %
3613 04-05-2020 02:03:17 10.8 C 37 %
3614 04-05-2020 02:13:17 10.8 C 36 %
3615 04-05-2020 02:23:17 10.6 C 37 %
3616 04-05-2020 02:33:18 10.7 C 36 %
3617 04-05-2020 02:43:18 10.7 C 37 %
3618 04-05-2020 02:53:17 10.1 C 37 %
3619 04-05-2020 03:03:17 9.9 C 37 %
3620 04-05-2020 03:13:17 9.7 C 37 %
3621 04-05-2020 03:23:17 9.4 C 38 %
3622 04-05-2020 03:33:17 9.1 C 39 %
3623 04-05-2020 03:43:17 9.1 C 38 %
3624 04-05-2020 03:53:18 8.8 C 39 %
3625 04-05-2020 04:03:17 8.5 C 40 %
Sensor: Nr:Datum:Temp:Feuchte:
Aussen-T/F 3626 04-05-2020 04:13:17 8.6 C 40 %
3627 04-05-2020 04:23:17 8.8 C 40 %
3628 04-05-2020 04:33:17 9 C 40 %
3629 04-05-2020 04:43:17 9.2 C 40 %
3630 04-05-2020 04:53:18 9.3 C 40 %
3631 04-05-2020 05:03:17 9.5 C 39 %
3632 04-05-2020 05:13:17 9.6 C 40 %
3633 04-05-2020 05:23:17 9.6 C 39 %
3634 04-05-2020 05:33:18 9.8 C 39 %
3635 04-05-2020 05:43:18 9.7 C 39 %
3636 04-05-2020 05:53:17 9.7 C 39 %
3637 04-05-2020 06:03:18 9.6 C 40 %
3638 04-05-2020 06:13:18 9.6 C 40 %
3639 04-05-2020 06:23:18 9.6 C 40 %
3640 04-05-2020 06:33:17 9.6 C 40 %
3641 04-05-2020 06:43:17 9.5 C 40 %
3642 04-05-2020 06:53:17 9.6 C 40 %
3643 04-05-2020 07:03:17 9.8 C 40 %
3644 04-05-2020 07:13:17 10.1 C 40 %
3645 04-05-2020 07:23:17 10.6 C 39 %
3646 04-05-2020 07:33:17 11.2 C 37 %
3647 04-05-2020 07:43:18 11.4 C 36 %
3648 04-05-2020 07:53:17 11.3 C 37 %
3649 04-05-2020 08:03:17 10.8 C 40 %
3650 04-05-2020 08:13:17 10.6 C 41 %
Sensor: Nr:Datum:Temp:Feuchte:
Aussen-T/F 3651 04-05-2020 08:23:17 10.7 C 43 %
3652 04-05-2020 08:33:17 11 C 42 %
3653 04-05-2020 08:43:18 11.3 C 42 %
3654 04-05-2020 08:53:17 11.2 C 41 %
3655 04-05-2020 09:03:18 11.2 C 41 %
3656 04-05-2020 09:13:18 11.3 C 41 %
3657 04-05-2020 09:23:18 11.3 C 42 %
3658 04-05-2020 09:33:17 11.3 C 43 %
3659 04-05-2020 09:43:17 11.5 C 41 %
3660 04-05-2020 09:53:17 12.3 C 39 %
3661 04-05-2020 10:03:18 13 C 37 %
3662 04-05-2020 10:13:18 14 C 36 %
3663 04-05-2020 10:23:17 13.6 C 36 %
3664 04-05-2020 10:33:18 14.8 C 35 %
3665 04-05-2020 10:43:18 14.3 C 35 %
3666 04-05-2020 10:53:17 14.2 C 36 %
3667 04-05-2020 11:03:17 13.4 C 37 %
3668 04-05-2020 11:13:17 13.2 C 38 %
3669 04-05-2020 11:23:17 13 C 39 %
3670 04-05-2020 11:33:18 12.4 C 40 %
3671 04-05-2020 11:43:18 12.2 C 40 %
3672 04-05-2020 11:53:17 12 C 41 %
3673 04-05-2020 12:03:17 11.9 C 41 %
3674 04-05-2020 12:13:17 12.3 C 40 %
3675 04-05-2020 12:23:17 13.1 C 38 %
Sensor: Nr:Datum:Temp:Feuchte:
Aussen-T/F 3676 04-05-2020 12:33:17 13.8 C 36 %
3677 04-05-2020 12:43:17 13.5 C 37 %
3678 04-05-2020 12:53:17 14.4 C 36 %
3679 04-05-2020 13:03:18 14.5 C 35 %
3680 04-05-2020 13:13:18 15.6 C 34 %
3681 04-05-2020 13:23:17 16 C 32 %
3682 04-05-2020 13:33:17 16.4 C 32 %
3683 04-05-2020 13:43:17 16.3 C 31 %
3684 04-05-2020 13:53:17 15.3 C 32 %
3685 04-05-2020 14:03:17 15 C 32 %
3686 04-05-2020 14:13:17 15.6 C 33 %
3687 04-05-2020 14:23:17 16.2 C 31 %
3688 04-05-2020 14:33:17 15.9 C 31 %
3689 04-05-2020 14:43:17 15.3 C 31 %
3690 04-05-2020 14:53:17 15.2 C 32 %
3691 04-05-2020 15:03:17 14.4 C 34 %
3692 04-05-2020 15:13:17 14.4 C 34 %
3693 04-05-2020 15:23:17 14.8 C 33 %
3694 04-05-2020 15:33:17 14.5 C 33 %
3695 04-05-2020 15:43:17 15.4 C 31 %
3696 04-05-2020 15:53:17 15.8 C 31 %
3697 04-05-2020 16:03:18 16 C 30 %
3698 04-05-2020 16:13:18 15.9 C 30 %
3699 04-05-2020 16:23:17 15.2 C 30 %
3700 04-05-2020 16:33:17 14.4 C 30 %
Sensor: Nr:Datum:Temp:Feuchte:
Aussen-T/F 3701 04-05-2020 16:43:17 15 C 30 %
3702 04-05-2020 16:53:18 14.9 C 30 %
3703 04-05-2020 17:03:18 14.8 C 31 %
3704 04-05-2020 17:13:18 14.4 C 31 %
3705 04-05-2020 17:23:17 14.7 C 30 %
3706 04-05-2020 17:33:18 14.4 C 31 %
3707 04-05-2020 17:43:18 14.2 C 30 %
3708 04-05-2020 17:53:17 14.4 C 30 %
3709 04-05-2020 18:03:17 14.7 C 30 %
3710 04-05-2020 18:13:17 14.4 C 30 %
3711 04-05-2020 18:23:17 14 C 30 %
3712 04-05-2020 18:33:17 13.8 C 31 %
3713 04-05-2020 18:43:17 13.7 C 31 %
3714 04-05-2020 18:53:17 13.7 C 30 %
3715 04-05-2020 19:03:17 13.7 C 31 %
3716 04-05-2020 19:13:17 13.4 C 32 %
3717 04-05-2020 19:23:17 13.1 C 33 %
3718 04-05-2020 19:33:17 13 C 33 %
3719 04-05-2020 19:43:17 12.8 C 34 %
3720 04-05-2020 19:53:17 12.7 C 35 %
3721 04-05-2020 20:03:18 12.7 C 35 %
3722 04-05-2020 20:13:18 12.6 C 36 %
3723 04-05-2020 20:23:17 12.2 C 36 %
3724 04-05-2020 20:33:17 11.7 C 37 %
3725 04-05-2020 20:43:18 11.8 C 35 %
Sensor: Nr:Datum:Temp:Feuchte:
Aussen-T/F 3726 04-05-2020 20:53:17 11.4 C 36 %
3727 04-05-2020 21:03:17 10.8 C 36 %
3728 04-05-2020 21:13:17 10.4 C 36 %
3729 04-05-2020 21:23:18 9.9 C 36 %
3730 04-05-2020 21:33:17 9.6 C 36 %
3731 04-05-2020 21:43:17 9.1 C 37 %
3732 04-05-2020 21:53:17 8.6 C 37 %
3733 04-05-2020 22:03:17 8.5 C 37 %
3734 04-05-2020 22:13:17 8.3 C 37 %
3735 04-05-2020 22:23:17 7.7 C 40 %
3736 04-05-2020 22:33:17 7.3 C 40 %
3737 04-05-2020 22:43:17 7 C 41 %
3738 04-05-2020 22:53:17 6.9 C 42 %
3739 04-05-2020 23:03:17 6.5 C 42 %
3740 04-05-2020 23:13:17 6.3 C 42 %
3741 04-05-2020 23:23:17 6.4 C 42 %
3742 04-05-2020 23:33:17 6.5 C 41 %
3743 04-05-2020 23:43:17 6.3 C 41 %
3744 04-05-2020 23:53:17 6.1 C 42 %
3745 05-05-2020 00:03:17 6.1 C 41 %
3746 05-05-2020 00:13:17 5.9 C 42 %
3747 05-05-2020 00:23:17 5.8 C 43 %
3748 05-05-2020 00:33:18 5.5 C 43 %
3749 05-05-2020 00:43:18 5.4 C 45 %
3750 05-05-2020 00:53:17 5.4 C 44 %
Sensor: Nr:Datum:Temp:Feuchte:
Aussen-T/F 3751 05-05-2020 01:03:18 5.1 C 44 %
3752 05-05-2020 01:13:18 5 C 45 %
3753 05-05-2020 01:23:18 4.8 C 45 %
3754 05-05-2020 01:33:17 4.7 C 46 %
3755 05-05-2020 01:43:17 4.6 C 45 %
3756 05-05-2020 01:53:18 4.3 C 46 %
3757 05-05-2020 02:03:18 4.2 C 46 %
3758 05-05-2020 02:13:18 4.2 C 46 %
3759 05-05-2020 02:23:17 4.2 C 47 %
3760 05-05-2020 02:33:17 4.1 C 46 %
3761 05-05-2020 02:43:17 4 C 47 %
3762 05-05-2020 02:53:17 4 C 47 %
3763 05-05-2020 03:03:17 3.9 C 48 %
3764 05-05-2020 03:13:18 4.4 C 47 %
3765 05-05-2020 03:23:17 4.4 C 47 %
3766 05-05-2020 03:33:18 4.2 C 46 %
3767 05-05-2020 03:43:18 4.2 C 47 %
3768 05-05-2020 03:53:18 4.1 C 47 %
3769 05-05-2020 04:03:17 4 C 47 %
3770 05-05-2020 04:13:17 3.8 C 47 %
3771 05-05-2020 04:23:17 3.7 C 47 %
3772 05-05-2020 04:33:17 3.7 C 47 %
3773 05-05-2020 04:43:18 3.6 C 47 %
3774 05-05-2020 04:53:17 3.5 C 47 %
3775 05-05-2020 05:03:18 3.4 C 47 %
Sensor: Nr:Datum:Temp:Feuchte:
Aussen-T/F 3776 05-05-2020 05:13:18 3.6 C 47 %
3777 05-05-2020 05:23:17 3.7 C 47 %
3778 05-05-2020 05:33:17 3.6 C 47 %
3779 05-05-2020 05:43:17 3.5 C 47 %
3780 05-05-2020 05:53:17 3.5 C 47 %
3781 05-05-2020 06:03:17 3.6 C 47 %
3782 05-05-2020 06:13:17 3.6 C 47 %
3783 05-05-2020 06:23:17 3.8 C 47 %
3784 05-05-2020 06:33:17 4.1 C 46 %
3785 05-05-2020 06:43:17 4.2 C 46 %
3786 05-05-2020 06:53:17 4.3 C 46 %
3787 05-05-2020 07:03:17 4.6 C 46 %
3788 05-05-2020 07:13:17 4.9 C 46 %
3789 05-05-2020 07:23:18 4.9 C 46 %
3790 05-05-2020 07:33:17 5.3 C 46 %
3791 05-05-2020 07:43:17 5.7 C 46 %
3792 05-05-2020 07:53:17 6 C 45 %
3793 05-05-2020 08:03:17 6.3 C 45 %
3794 05-05-2020 08:13:17 6.4 C 44 %
3795 05-05-2020 08:23:17 6.9 C 43 %
3796 05-05-2020 08:33:17 6.9 C 42 %
3797 05-05-2020 08:43:17 6.9 C 42 %
3798 05-05-2020 08:53:17 7.1 C 41 %
3799 05-05-2020 09:03:17 7.4 C 40 %
3800 05-05-2020 09:13:17 7.9 C 39 %
Sensor: Nr:Datum:Temp:Feuchte:
Aussen-T/F 3801 05-05-2020 09:23:17 8.1 C 39 %
3802 05-05-2020 09:33:17 8.6 C 38 %
3803 05-05-2020 09:43:18 9.1 C 37 %
3804 05-05-2020 09:53:17 9.3 C 36 %
3805 05-05-2020 10:03:17 9.5 C 36 %
3806 05-05-2020 10:13:17 10 C 34 %
3807 05-05-2020 10:23:18 10.1 C 33 %
3808 05-05-2020 10:33:17 10.5 C 32 %
3809 05-05-2020 10:43:17 11 C 31 %
3810 05-05-2020 10:53:17 11.3 C 31 %
3811 05-05-2020 11:03:17 12.1 C 29 %
3812 05-05-2020 11:13:17 12.2 C 28 %
3813 05-05-2020 11:23:18 13.1 C 27 %
3814 05-05-2020 11:33:18 13.1 C 26 %
3815 05-05-2020 11:43:18 13.4 C 26 %
3816 05-05-2020 11:53:17 13.7 C 26 %
3817 05-05-2020 12:03:18 13.7 C 25 %
3818 05-05-2020 12:13:18 14.5 C 25 %
3819 05-05-2020 12:23:17 13.9 C 25 %
3820 05-05-2020 12:33:18 13.5 C 25 %
3821 05-05-2020 12:43:18 13.7 C 25 %
3822 05-05-2020 12:53:17 13.7 C 25 %
3823 05-05-2020 13:03:18 13.9 C 25 %
3824 05-05-2020 13:13:18 14.2 C 25 %
3825 05-05-2020 13:23:18 14.5 C 24 %
Sensor: Nr:Datum:Temp:Feuchte:
Aussen-T/F 3826 05-05-2020 13:33:17 15.8 C 22 %
3827 05-05-2020 13:43:17 15.9 C 21 %
3828 05-05-2020 13:53:17 16.4 C 20 %
3829 05-05-2020 14:03:17 15.3 C 20 %
3830 05-05-2020 14:13:17 16 C 20 %
3831 05-05-2020 14:23:17 21.9 C 20 %
3832 05-05-2020 14:33:17 23.5 C 20 %
3833 05-05-2020 14:43:17 24.9 C 20 %
3834 05-05-2020 14:53:17 23.7 C 20 %
3835 05-05-2020 15:03:17 21.4 C 20 %
3836 05-05-2020 15:13:17 23.8 C 20 %
3837 05-05-2020 15:23:17 24.3 C 20 %
3838 05-05-2020 15:33:17 25.4 C 20 %
3839 05-05-2020 15:43:17 21.3 C 20 %
3840 05-05-2020 15:53:17 22.1 C 20 %
3841 05-05-2020 16:03:18 25 C 20 %
3842 05-05-2020 16:13:18 21.3 C 20 %
3843 05-05-2020 16:23:17 24.8 C 20 %
3844 05-05-2020 16:33:17 25.9 C 20 %
3845 05-05-2020 16:43:18 24.4 C 20 %
3846 05-05-2020 16:53:17 24.7 C 20 %
3847 05-05-2020 17:03:17 22.1 C 20 %
3848 05-05-2020 17:13:17 25.1 C 20 %
3849 05-05-2020 17:23:17 24.2 C 20 %
3850 05-05-2020 17:33:18 23.7 C 20 %
Sensor: Nr:Datum:Temp:Feuchte:
Aussen-T/F 3851 05-05-2020 17:43:18 23.3 C 20 %
3852 05-05-2020 17:53:17 21.2 C 20 %
3853 05-05-2020 18:03:17 20 C 20 %
3854 05-05-2020 18:13:17 18.4 C 20 %
3855 05-05-2020 18:23:17 17.4 C 20 %
3856 05-05-2020 18:33:18 17.6 C 20 %
3857 05-05-2020 18:43:18 16.8 C 20 %
3858 05-05-2020 18:53:17 16.9 C 20 %
3859 05-05-2020 19:03:17 17.1 C 20 %
3860 05-05-2020 19:13:17 16.5 C 20 %
3861 05-05-2020 19:23:17 16.2 C 20 %
3862 05-05-2020 19:33:17 16 C 20 %
3863 05-05-2020 19:43:18 15.7 C 20 %
3864 05-05-2020 19:53:17 15.5 C 20 %
3865 05-05-2020 20:03:18 15.2 C 20 %
3866 05-05-2020 20:13:18 15.1 C 20 %
3867 05-05-2020 20:23:17 14.6 C 20 %
3868 05-05-2020 20:33:17 14.2 C 20 %
3869 05-05-2020 20:43:17 13.8 C 20 %
3870 05-05-2020 20:53:17 12.8 C 20 %
3871 05-05-2020 21:03:17 11.3 C 21 %
3872 05-05-2020 21:13:17 11 C 23 %
3873 05-05-2020 21:23:17 10.7 C 21 %
3874 05-05-2020 21:33:17 10.3 C 25 %
3875 05-05-2020 21:43:17 10.1 C 22 %
Sensor: Nr:Datum:Temp:Feuchte:
Aussen-T/F 3876 05-05-2020 21:53:17 9.8 C 25 %
3877 05-05-2020 22:03:17 9.7 C 25 %
3878 05-05-2020 22:13:17 9.3 C 26 %
3879 05-05-2020 22:23:17 9.4 C 26 %
3880 05-05-2020 22:33:17 9.2 C 26 %
3881 05-05-2020 22:43:17 9.1 C 26 %
3882 05-05-2020 22:53:18 9.1 C 26 %
3883 05-05-2020 23:03:17 8.7 C 27 %
3884 05-05-2020 23:13:17 8.6 C 27 %
3885 05-05-2020 23:23:18 8.2 C 27 %
3886 05-05-2020 23:33:18 8 C 27 %
3887 05-05-2020 23:43:18 7.5 C 29 %
3888 05-05-2020 23:53:18 7.6 C 29 %
3889 06-05-2020 00:03:18 7.5 C 29 %
3890 06-05-2020 00:13:18 7.4 C 30 %
3891 06-05-2020 00:23:18 7 C 30 %
3892 06-05-2020 00:33:17 6.8 C 31 %
3893 06-05-2020 00:43:17 6.4 C 33 %
3894 06-05-2020 00:53:17 6 C 33 %
3895 06-05-2020 01:03:17 5.9 C 34 %
3896 06-05-2020 01:13:17 5.7 C 35 %
3897 06-05-2020 01:23:17 5 C 36 %
3898 06-05-2020 01:33:17 4.7 C 37 %
3899 06-05-2020 01:43:17 4.3 C 38 %
3900 06-05-2020 01:53:18 4.2 C 38 %
Sensor: Nr:Datum:Temp:Feuchte:
Aussen-T/F 3901 06-05-2020 02:03:17 4 C 39 %
3902 06-05-2020 02:13:17 3.7 C 40 %
3903 06-05-2020 02:23:17 3.7 C 40 %
3904 06-05-2020 02:33:18 3.6 C 40 %
3905 06-05-2020 02:43:18 3.4 C 40 %
3906 06-05-2020 02:53:17 3.1 C 41 %
3907 06-05-2020 03:03:17 3.1 C 41 %
3908 06-05-2020 03:13:17 2.8 C 42 %
3909 06-05-2020 03:23:17 2.8 C 42 %
3910 06-05-2020 03:33:17 2.5 C 42 %
3911 06-05-2020 03:43:17 2.3 C 43 %
3912 06-05-2020 03:53:18 2.3 C 43 %
3913 06-05-2020 04:03:17 2.4 C 43 %
3914 06-05-2020 04:13:17 2.2 C 43 %
3915 06-05-2020 04:23:17 2.4 C 44 %
3916 06-05-2020 04:33:18 2.3 C 43 %
3917 06-05-2020 04:43:18 2 C 44 %
3918 06-05-2020 04:53:17 2 C 44 %
3919 06-05-2020 05:03:17 2.1 C 45 %
3920 06-05-2020 05:13:17 1.8 C 45 %
3921 06-05-2020 05:23:17 1.8 C 46 %
3922 06-05-2020 05:33:17 1.8 C 47 %
3923 06-05-2020 05:43:17 1.7 C 46 %
3924 06-05-2020 05:53:18 1.5 C 46 %
3925 06-05-2020 06:03:18 1.5 C 46 %
Sensor: Nr:Datum:Temp:Feuchte:
Aussen-T/F 3926 06-05-2020 06:13:18 1.4 C 46 %
3927 06-05-2020 06:23:17 1.4 C 47 %
3928 06-05-2020 06:33:17 1.4 C 47 %
3929 06-05-2020 06:43:17 1.5 C 47 %
3930 06-05-2020 06:53:17 1.6 C 47 %
3931 06-05-2020 07:03:17 1.7 C 47 %
3932 06-05-2020 07:13:17 1.8 C 47 %
3933 06-05-2020 07:23:17 2 C 47 %
3934 06-05-2020 07:33:17 2.2 C 45 %
3935 06-05-2020 07:43:17 2.4 C 46 %
3936 06-05-2020 07:53:17 2.6 C 46 %
3937 06-05-2020 08:03:18 2.8 C 45 %
3938 06-05-2020 08:13:18 3 C 44 %
3939 06-05-2020 08:23:17 3.6 C 44 %
3940 06-05-2020 08:33:17 3.7 C 44 %
3941 06-05-2020 08:43:17 4.1 C 43 %
3942 06-05-2020 08:53:18 4.7 C 42 %
3943 06-05-2020 09:03:17 5.1 C 41 %
3944 06-05-2020 09:13:18 5.7 C 41 %
3945 06-05-2020 09:23:17 6.5 C 40 %
3946 06-05-2020 09:33:17 6.8 C 39 %
3947 06-05-2020 09:43:17 7.5 C 38 %
3948 06-05-2020 09:53:17 7.8 C 37 %
3949 06-05-2020 10:03:18 8.3 C 37 %
3950 06-05-2020 10:13:18 9 C 35 %
Sensor: Nr:Datum:Temp:Feuchte:
Aussen-T/F 3951 06-05-2020 10:23:17 9.9 C 31 %
3952 06-05-2020 10:33:18 11.7 C 25 %
3953 06-05-2020 10:43:18 12.3 C 20 %
3954 06-05-2020 10:53:17 12.4 C 20 %
3955 06-05-2020 11:03:17 12.9 C 20 %
3956 06-05-2020 11:13:17 13.1 C 20 %
3957 06-05-2020 11:23:17 13.6 C 20 %
3958 06-05-2020 11:33:17 13.7 C 20 %
3959 06-05-2020 11:43:18 13.6 C 20 %
3960 06-05-2020 11:53:17 13.9 C 20 %
3961 06-05-2020 12:03:17 13.8 C 20 %
3962 06-05-2020 12:13:17 13.8 C 20 %
3963 06-05-2020 12:23:18 14 C 20 %
3964 06-05-2020 12:33:18 14.1 C 20 %
3965 06-05-2020 12:43:18 13.8 C 20 %
3966 06-05-2020 12:53:17 14.2 C 20 %
3967 06-05-2020 13:03:18 14.3 C 20 %
3968 06-05-2020 13:13:18 14.2 C 20 %
3969 06-05-2020 13:23:18 14.6 C 20 %
3970 06-05-2020 13:33:17 14.8 C 20 %
3971 06-05-2020 13:43:18 14.8 C 20 %
3972 06-05-2020 13:53:17 15.6 C 20 %
3973 06-05-2020 14:03:18 18.6 C 20 %
3974 06-05-2020 14:13:18 20.6 C 20 %
3975 06-05-2020 14:23:17 23.8 C 20 %
Sensor: Nr:Datum:Temp:Feuchte:
Aussen-T/F 3976 06-05-2020 14:33:17 23.1 C 20 %
3977 06-05-2020 14:43:17 23.1 C 20 %
3978 06-05-2020 14:53:17 24.2 C 20 %
3979 06-05-2020 15:03:17 24.4 C 20 %
3980 06-05-2020 15:13:17 26.3 C 20 %
3981 06-05-2020 15:23:17 22.6 C 20 %
3982 06-05-2020 15:33:17 26.1 C 20 %
3983 06-05-2020 15:43:17 23.6 C 20 %
3984 06-05-2020 15:53:17 24.9 C 20 %
3985 06-05-2020 16:03:18 24.5 C 20 %
3986 06-05-2020 16:13:18 25.9 C 20 %
3987 06-05-2020 16:23:17 25.5 C 20 %
3988 06-05-2020 16:33:17 26.9 C 20 %
3989 06-05-2020 16:43:17 24.7 C 20 %
3990 06-05-2020 16:53:17 24.5 C 20 %
3991 06-05-2020 17:03:17 26.3 C 20 %
3992 06-05-2020 17:13:17 23.5 C 20 %
3993 06-05-2020 17:23:17 24.9 C 20 %
3994 06-05-2020 17:33:17 24.1 C 20 %
3995 06-05-2020 17:43:17 24.5 C 20 %
3996 06-05-2020 17:53:18 25.2 C 20 %
3997 06-05-2020 18:03:18 24.7 C 20 %
3998 06-05-2020 18:13:18 20.4 C 20 %
3999 06-05-2020 18:23:18 20.3 C 20 %
4000 06-05-2020 18:33:17 19.6 C 20 %
Sensor: Nr:Datum:Temp:Feuchte:
Aussen-T/F 4001 06-05-2020 18:43:17 19.1 C 20 %
4002 06-05-2020 18:53:17 18.7 C 20 %
4003 06-05-2020 19:03:18 18.4 C 20 %
4004 06-05-2020 19:13:18 18.1 C 20 %
4005 06-05-2020 19:23:18 18.2 C 20 %
4006 06-05-2020 19:33:17 17.7 C 20 %
4007 06-05-2020 19:43:18 17.4 C 20 %
4008 06-05-2020 19:53:17 17.2 C 20 %
4009 06-05-2020 20:03:17 16.6 C 20 %
4010 06-05-2020 20:13:17 16 C 20 %
4011 06-05-2020 20:23:17 14.8 C 20 %
4012 06-05-2020 20:33:18 14 C 20 %
4013 06-05-2020 20:43:18 13.5 C 20 %
4014 06-05-2020 20:53:17 13 C 20 %
4015 06-05-2020 21:03:17 12.8 C 20 %
4016 06-05-2020 21:13:17 12.4 C 20 %
4017 06-05-2020 21:23:18 11.9 C 25 %
4018 06-05-2020 21:33:17 10.9 C 27 %
4019 06-05-2020 21:43:17 10.5 C 29 %
4020 06-05-2020 21:53:17 9.7 C 31 %
4021 06-05-2020 22:03:18 9.4 C 31 %
4022 06-05-2020 22:13:18 9.4 C 30 %
4023 06-05-2020 22:23:17 9.1 C 32 %
4024 06-05-2020 22:33:18 9 C 31 %
4025 06-05-2020 22:43:18 8.6 C 32 %
Sensor: Nr:Datum:Temp:Feuchte:
Aussen-T/F 4026 06-05-2020 22:53:17 8.2 C 33 %
4027 06-05-2020 23:03:17 8.1 C 33 %
4028 06-05-2020 23:13:18 7.7 C 35 %
4029 06-05-2020 23:23:17 7.2 C 35 %
4030 06-05-2020 23:33:17 6.9 C 36 %
4031 06-05-2020 23:43:17 6.8 C 36 %
4032 06-05-2020 23:53:17 6.6 C 36 %
4033 07-05-2020 00:03:17 6.4 C 36 %
4034 07-05-2020 00:13:17 6.4 C 37 %
4035 07-05-2020 00:23:17 6.1 C 37 %
4036 07-05-2020 00:33:18 6.1 C 37 %
4037 07-05-2020 00:43:18 6.1 C 37 %
4038 07-05-2020 00:53:17 6.3 C 37 %
4039 07-05-2020 01:03:18 6.2 C 37 %
4040 07-05-2020 01:13:18 6.2 C 37 %
4041 07-05-2020 01:23:17 6 C 37 %
4042 07-05-2020 01:33:18 5.9 C 38 %
4043 07-05-2020 01:43:18 5.9 C 38 %
4044 07-05-2020 01:53:17 5.2 C 39 %
4045 07-05-2020 02:03:17 5.2 C 39 %
4046 07-05-2020 02:13:17 5.2 C 39 %
4047 07-05-2020 02:23:18 5.1 C 40 %
4048 07-05-2020 02:33:17 4.8 C 40 %
4049 07-05-2020 02:43:17 4.7 C 40 %
4050 07-05-2020 02:53:17 4.6 C 41 %
Sensor: Nr:Datum:Temp:Feuchte:
Aussen-T/F 4051 07-05-2020 03:03:17 4.6 C 41 %
4052 07-05-2020 03:13:18 4.5 C 41 %
4053 07-05-2020 03:23:17 4.3 C 41 %
4054 07-05-2020 03:33:17 4.4 C 41 %
4055 07-05-2020 03:43:17 4.1 C 41 %
4056 07-05-2020 03:53:17 4.2 C 42 %
4057 07-05-2020 04:03:17 4.2 C 42 %
4058 07-05-2020 04:13:17 4 C 42 %
4059 07-05-2020 04:23:18 3.7 C 43 %
4060 07-05-2020 04:33:17 3.6 C 43 %
4061 07-05-2020 04:43:17 3.3 C 43 %
4062 07-05-2020 04:53:17 3.2 C 44 %
4063 07-05-2020 05:03:17 3.2 C 45 %
4064 07-05-2020 05:13:17 3.3 C 45 %
4065 07-05-2020 05:23:17 3 C 44 %
4066 07-05-2020 05:33:17 3.1 C 45 %
4067 07-05-2020 05:43:17 3 C 45 %
4068 07-05-2020 05:53:17 3.1 C 45 %
4069 07-05-2020 06:03:17 3 C 45 %
4070 07-05-2020 06:13:17 2.9 C 45 %
4071 07-05-2020 06:23:17 2.9 C 46 %
4072 07-05-2020 06:33:17 2.9 C 46 %
4073 07-05-2020 06:43:17 2.7 C 46 %
4074 07-05-2020 06:53:18 3 C 46 %
4075 07-05-2020 07:03:17 3 C 45 %
Sensor: Nr:Datum:Temp:Feuchte:
Aussen-T/F 4076 07-05-2020 07:13:17 3 C 45 %
4077 07-05-2020 07:23:17 3.2 C 46 %
4078 07-05-2020 07:33:17 3.4 C 46 %
4079 07-05-2020 07:43:17 3.6 C 45 %
4080 07-05-2020 07:53:17 3.8 C 44 %
4081 07-05-2020 08:03:17 3.9 C 44 %
4082 07-05-2020 08:13:17 4.2 C 43 %
4083 07-05-2020 08:23:17 4.5 C 43 %
4084 07-05-2020 08:33:18 4.6 C 43 %
4085 07-05-2020 08:43:18 5.1 C 41 %
4086 07-05-2020 08:53:17 5.2 C 41 %
4087 07-05-2020 09:03:17 5.8 C 41 %
4088 07-05-2020 09:13:17 6.2 C 41 %
4089 07-05-2020 09:23:17 6.7 C 41 %
4090 07-05-2020 09:33:18 7.5 C 40 %
4091 07-05-2020 09:43:18 8.6 C 38 %
4092 07-05-2020 09:53:17 8.8 C 38 %
4093 07-05-2020 10:03:17 9.3 C 37 %
4094 07-05-2020 10:13:17 9.8 C 36 %
4095 07-05-2020 10:23:17 10.3 C 35 %
4096 07-05-2020 10:33:17 11.3 C 35 %
4097 07-05-2020 10:43:17 11.9 C 34 %
4098 07-05-2020 10:53:17 13.4 C 30 %
4099 07-05-2020 11:03:17 14.2 C 26 %
4100 07-05-2020 11:13:17 14.7 C 28 %
Sensor: Nr:Datum:Temp:Feuchte:
Aussen-T/F 4101 07-05-2020 11:23:17 15.3 C 25 %
4102 07-05-2020 11:33:17 15.4 C 25 %
4103 07-05-2020 11:43:17 15.9 C 25 %
4104 07-05-2020 11:53:17 16.2 C 22 %
4105 07-05-2020 12:03:17 16.6 C 20 %
4106 07-05-2020 12:13:17 16.8 C 20 %
4107 07-05-2020 12:23:17 16.9 C 20 %
4108 07-05-2020 12:33:17 17 C 20 %
4109 07-05-2020 12:43:18 17 C 20 %
4110 07-05-2020 12:53:17 17.3 C 20 %
4111 07-05-2020 13:03:17 17.5 C 20 %
4112 07-05-2020 13:13:17 17.6 C 20 %
4113 07-05-2020 13:23:17 17.6 C 20 %
4114 07-05-2020 13:33:17 18.2 C 20 %
4115 07-05-2020 13:43:17 18.5 C 20 %
4116 07-05-2020 13:54:17 20.1 C 20 %
4117 07-05-2020 14:03:17 23.3 C 20 %
4118 07-05-2020 14:13:17 25.2 C 20 %
4119 07-05-2020 14:23:17 27.5 C 20 %
4120 07-05-2020 14:33:17 28.2 C 20 %
4121 07-05-2020 14:43:17 28.7 C 20 %
4122 07-05-2020 14:54:17 28.4 C 20 %
4123 07-05-2020 15:03:18 28.7 C 20 %
4124 07-05-2020 15:13:18 27.9 C 20 %
4125 07-05-2020 15:23:17 28.5 C 20 %
Sensor: Nr:Datum:Temp:Feuchte:
Aussen-T/F 4126 07-05-2020 15:33:18 30.2 C 20 %
4127 07-05-2020 15:43:18 29.3 C 20 %
4128 07-05-2020 15:53:17 30 C 20 %
4129 07-05-2020 16:03:17 30.1 C 20 %
4130 07-05-2020 16:13:17 31.3 C 20 %
4131 07-05-2020 16:24:17 28.8 C 20 %
4132 07-05-2020 16:33:17 29.5 C 20 %
4133 07-05-2020 16:43:17 31.1 C 20 %
4134 07-05-2020 16:54:17 31.3 C 20 %
4135 07-05-2020 17:03:17 29 C 20 %
4136 07-05-2020 17:13:17 29.3 C 20 %
4137 07-05-2020 17:23:17 28.6 C 20 %
4138 07-05-2020 17:33:17 30.2 C 20 %
4139 07-05-2020 17:43:17 27.4 C 20 %
4140 07-05-2020 17:53:17 27.9 C 20 %
4141 07-05-2020 18:04:17 27.4 C 20 %
4142 07-05-2020 18:13:17 24.5 C 20 %
4143 07-05-2020 18:23:17 23.3 C 20 %
4144 07-05-2020 18:33:17 23.5 C 20 %
4145 07-05-2020 18:43:18 22.8 C 20 %
4146 07-05-2020 18:54:17 22.1 C 20 %
4147 07-05-2020 19:03:17 22.2 C 20 %
4148 07-05-2020 19:13:18 22.1 C 20 %
4149 07-05-2020 19:24:17 22 C 20 %
4150 07-05-2020 19:33:17 21.4 C 20 %
Sensor: Nr:Datum:Temp:Feuchte:
Aussen-T/F 4151 07-05-2020 19:43:17 20.2 C 20 %
4152 07-05-2020 19:54:17 19.3 C 20 %
4153 07-05-2020 20:03:18 18.7 C 20 %
4154 07-05-2020 20:13:18 18.1 C 20 %
4155 07-05-2020 20:24:17 17.5 C 20 %
4156 07-05-2020 20:34:17 17.1 C 20 %
4157 07-05-2020 20:44:17 16.5 C 20 %
4158 07-05-2020 20:54:17 16.2 C 20 %
4159 07-05-2020 21:04:17 16 C 20 %
4160 07-05-2020 21:14:17 15.4 C 21 %
4161 07-05-2020 21:24:17 15 C 22 %
4162 07-05-2020 21:34:17 14.6 C 25 %
4163 07-05-2020 21:43:17 14.2 C 25 %
4164 07-05-2020 21:54:17 13.7 C 26 %
4165 07-05-2020 22:04:17 13.2 C 27 %
4166 07-05-2020 22:14:17 13.2 C 27 %
4167 07-05-2020 22:24:17 12.8 C 30 %
4168 07-05-2020 22:34:17 12.3 C 30 %
4169 07-05-2020 22:44:17 12.3 C 30 %
4170 07-05-2020 22:53:18 12.2 C 30 %
4171 07-05-2020 23:04:17 11.7 C 31 %
4172 07-05-2020 23:14:17 11.4 C 31 %
4173 07-05-2020 23:24:17 11.4 C 30 %
4174 07-05-2020 23:34:17 11.6 C 31 %
4175 07-05-2020 23:44:17 11.2 C 32 %
Sensor: Nr:Datum:Temp:Feuchte:
Aussen-T/F 4176 07-05-2020 23:54:17 11.1 C 32 %
4177 08-05-2020 00:04:17 10.7 C 33 %
4178 08-05-2020 00:14:17 10.4 C 33 %
4179 08-05-2020 00:24:17 10.2 C 33 %
4180 08-05-2020 00:34:17 9.7 C 35 %
4181 08-05-2020 00:44:17 9.6 C 35 %
4182 08-05-2020 00:54:17 9.4 C 35 %
4183 08-05-2020 01:04:17 9.4 C 35 %
4184 08-05-2020 01:14:17 9.6 C 35 %
4185 08-05-2020 01:24:17 9.6 C 35 %
4186 08-05-2020 01:34:17 9.3 C 36 %
4187 08-05-2020 01:44:17 9.8 C 36 %
4188 08-05-2020 01:54:18 9.5 C 36 %
4189 08-05-2020 02:04:18 9.2 C 36 %
4190 08-05-2020 02:13:18 8.9 C 37 %
4191 08-05-2020 02:24:17 8.6 C 38 %
4192 08-05-2020 02:34:17 8.4 C 38 %
4193 08-05-2020 02:44:17 8.2 C 38 %
4194 08-05-2020 02:54:17 7.9 C 39 %
4195 08-05-2020 03:04:17 7.9 C 39 %
4196 08-05-2020 03:14:17 7.9 C 39 %
4197 08-05-2020 03:24:17 7.8 C 40 %
4198 08-05-2020 03:34:18 7.7 C 40 %
4199 08-05-2020 03:44:18 7.5 C 40 %
4200 08-05-2020 03:54:17 7.4 C 40 %
Sensor: Nr:Datum:Temp:Feuchte:
Aussen-T/F 4201 08-05-2020 04:04:18 7.5 C 40 %
4202 08-05-2020 04:14:18 7 C 40 %
4203 08-05-2020 04:24:18 6.9 C 41 %
4204 08-05-2020 04:34:18 6.8 C 42 %
4205 08-05-2020 04:44:18 7 C 41 %
4206 08-05-2020 04:54:18 7.3 C 41 %
4207 08-05-2020 05:04:18 7.3 C 41 %
4208 08-05-2020 05:14:18 7.4 C 41 %
4209 08-05-2020 05:24:17 7.5 C 41 %
4210 08-05-2020 05:34:17 7.2 C 41 %
4211 08-05-2020 05:44:17 7 C 41 %
4212 08-05-2020 05:54:18 7.1 C 41 %
4213 08-05-2020 06:04:17 6.9 C 42 %
4214 08-05-2020 06:14:17 6.9 C 42 %
4215 08-05-2020 06:24:17 6.8 C 42 %
4216 08-05-2020 06:34:17 6.7 C 43 %
4217 08-05-2020 06:44:17 6.4 C 42 %
4218 08-05-2020 06:54:17 6.3 C 43 %
4219 08-05-2020 07:04:17 6.5 C 43 %
4220 08-05-2020 07:14:17 6.9 C 44 %
4221 08-05-2020 07:24:17 7.3 C 42 %
4222 08-05-2020 07:34:18 7.3 C 41 %
4223 08-05-2020 07:44:18 7.4 C 42 %
4224 08-05-2020 07:54:17 7.9 C 41 %
4225 08-05-2020 08:04:17 8.2 C 40 %
Sensor: Nr:Datum:Temp:Feuchte:
Aussen-T/F 4226 08-05-2020 08:14:17 8.4 C 40 %
4227 08-05-2020 08:24:17 8.4 C 40 %
4228 08-05-2020 08:34:17 8.5 C 40 %
4229 08-05-2020 08:44:17 8.7 C 40 %
4230 08-05-2020 08:54:17 9 C 40 %
4231 08-05-2020 09:04:17 9.5 C 39 %
4232 08-05-2020 09:14:17 10.2 C 37 %
4233 08-05-2020 09:24:17 10.7 C 37 %
4234 08-05-2020 09:34:17 11.1 C 36 %
4235 08-05-2020 09:44:17 11.8 C 36 %
4236 08-05-2020 09:54:17 12.2 C 35 %
4237 08-05-2020 10:04:17 12.5 C 35 %
4238 08-05-2020 10:14:17 13.1 C 34 %
4239 08-05-2020 10:24:17 14 C 33 %
4240 08-05-2020 10:34:17 14.6 C 32 %
4241 08-05-2020 10:44:18 15.8 C 28 %
4242 08-05-2020 10:54:17 16.7 C 27 %
4243 08-05-2020 11:04:17 17.1 C 26 %
4244 08-05-2020 11:14:17 17.5 C 27 %
4245 08-05-2020 11:24:17 17.7 C 27 %
4246 08-05-2020 11:34:17 18.2 C 25 %
4247 08-05-2020 11:44:18 18.9 C 22 %
4248 08-05-2020 11:54:17 19 C 21 %
4249 08-05-2020 12:04:17 19.3 C 20 %
4250 08-05-2020 12:14:18 19.4 C 20 %
Sensor: Nr:Datum:Temp:Feuchte:
Aussen-T/F 4251 08-05-2020 12:24:17 19.5 C 20 %
4252 08-05-2020 12:34:17 19.8 C 20 %
4253 08-05-2020 12:44:17 20 C 20 %
4254 08-05-2020 12:54:17 20.3 C 20 %
4255 08-05-2020 13:04:16 20.7 C 20 %
4256 08-05-2020 13:14:16 21.4 C 20 %
4257 08-05-2020 13:24:17 21.9 C 20 %
4258 08-05-2020 13:34:17 22.3 C 20 %
4259 08-05-2020 13:44:17 22.5 C 20 %
4260 08-05-2020 13:54:16 24 C 20 %
4261 08-05-2020 14:04:17 26.1 C 20 %
4262 08-05-2020 14:14:17 27.5 C 20 %
4263 08-05-2020 14:24:17 28.2 C 20 %
4264 08-05-2020 14:34:16 30 C 20 %
4265 08-05-2020 14:44:16 27.5 C 20 %
4266 08-05-2020 14:54:17 27.3 C 20 %
4267 08-05-2020 15:04:17 26 C 20 %
4268 08-05-2020 15:14:18 25.2 C 20 %
4269 08-05-2020 15:24:17 25.8 C 20 %
4270 08-05-2020 15:34:16 27.1 C 20 %
4271 08-05-2020 15:44:16 28.3 C 20 %
4272 08-05-2020 15:54:17 30.6 C 20 %
4273 08-05-2020 16:04:17 31.3 C 20 %
4274 08-05-2020 16:14:17 29.3 C 20 %
4275 08-05-2020 16:24:17 32 C 20 %
Sensor: Nr:Datum:Temp:Feuchte:
Aussen-T/F 4276 08-05-2020 16:34:16 30.5 C 20 %
4277 08-05-2020 16:44:16 27.4 C 20 %
4278 08-05-2020 16:54:16 26.3 C 20 %
4279 08-05-2020 17:04:17 26.8 C 20 %
4280 08-05-2020 17:14:17 26.3 C 20 %
4281 08-05-2020 17:24:16 28.5 C 20 %
4282 08-05-2020 17:34:16 26.8 C 20 %
4283 08-05-2020 17:44:16 28.8 C 20 %
4284 08-05-2020 17:54:16 27.5 C 20 %
4285 08-05-2020 18:04:17 26.5 C 20 %
4286 08-05-2020 18:14:17 25.5 C 20 %
4287 08-05-2020 18:24:16 25.1 C 20 %
4288 08-05-2020 18:34:17 25.1 C 20 %
4289 08-05-2020 18:44:18 24.4 C 20 %
4290 08-05-2020 18:54:16 24 C 20 %
4291 08-05-2020 19:04:16 23.5 C 20 %
4292 08-05-2020 19:14:16 23.7 C 20 %
4293 08-05-2020 19:24:16 23.6 C 20 %
4294 08-05-2020 19:34:16 22.9 C 20 %
4295 08-05-2020 19:44:16 22.4 C 20 %
4296 08-05-2020 19:54:16 21.6 C 20 %
4297 08-05-2020 20:04:17 19.7 C 20 %
4298 08-05-2020 20:14:17 18.8 C 20 %
4299 08-05-2020 20:24:16 18.5 C 20 %
4300 08-05-2020 20:34:17 18.2 C 20 %
Sensor: Nr:Datum:Temp:Feuchte:
Aussen-T/F 4301 08-05-2020 20:44:17 17.7 C 20 %
4302 08-05-2020 20:54:17 17.3 C 20 %
4303 08-05-2020 21:04:17 17.1 C 20 %
4304 08-05-2020 21:14:17 16.9 C 20 %
4305 08-05-2020 21:24:16 16.4 C 21 %
4306 08-05-2020 21:34:16 16 C 22 %
4307 08-05-2020 21:44:16 15.7 C 24 %
4308 08-05-2020 21:54:16 15.2 C 25 %
4309 08-05-2020 22:04:17 14.9 C 26 %
4310 08-05-2020 22:14:17 15 C 26 %
4311 08-05-2020 22:24:16 14.9 C 27 %
4312 08-05-2020 22:34:16 14.7 C 27 %
4313 08-05-2020 22:44:16 14.3 C 28 %
4314 08-05-2020 22:54:16 14.1 C 27 %
4315 08-05-2020 23:04:17 14 C 27 %
4316 08-05-2020 23:14:17 13.7 C 28 %
4317 08-05-2020 23:24:16 13.6 C 29 %
4318 08-05-2020 23:34:16 13.3 C 29 %
4319 08-05-2020 23:44:16 13.2 C 29 %
4320 08-05-2020 23:54:16 13.3 C 29 %
Sensor: Nr:Datum:Temp:Feuchte:
G-T/H 1 09-04-2020 00:01:18 13.2 C 63 %
2 09-04-2020 00:11:18 13.2 C 63 %
3 09-04-2020 00:21:17 13.2 C 63 %
4 09-04-2020 00:31:18 13.2 C 63 %
5 09-04-2020 00:41:18 13.2 C 63 %
6 09-04-2020 00:51:17 13.2 C 63 %
7 09-04-2020 01:01:17 13.2 C 63 %
8 09-04-2020 01:11:17 13.2 C 63 %
9 09-04-2020 01:21:17 13.1 C 63 %
10 09-04-2020 01:31:17 13.1 C 63 %
11 09-04-2020 01:41:17 13.1 C 63 %
12 09-04-2020 01:51:17 13.1 C 63 %
13 09-04-2020 02:01:17 13.1 C 63 %
14 09-04-2020 02:11:17 13.1 C 63 %
15 09-04-2020 02:21:18 13.1 C 63 %
16 09-04-2020 02:31:18 13.1 C 62 %
17 09-04-2020 02:41:18 13.1 C 62 %
18 09-04-2020 02:51:17 13.1 C 62 %
19 09-04-2020 03:01:17 13.1 C 62 %
20 09-04-2020 03:11:17 13.1 C 62 %
21 09-04-2020 03:21:17 13.1 C 62 %
22 09-04-2020 03:31:17 13 C 62 %
23 09-04-2020 03:41:17 13 C 62 %
24 09-04-2020 03:51:17 13 C 62 %
25 09-04-2020 04:01:17 13 C 62 %
Sensor: Nr:Datum:Temp:Feuchte:
G-T/H 26 09-04-2020 04:11:17 13.1 C 63 %
27 09-04-2020 04:21:17 13 C 62 %
28 09-04-2020 04:31:18 13 C 62 %
29 09-04-2020 04:41:18 13 C 62 %
30 09-04-2020 04:51:17 13 C 62 %
31 09-04-2020 05:01:17 13 C 62 %
32 09-04-2020 05:11:17 13 C 62 %
33 09-04-2020 05:21:17 13 C 62 %
34 09-04-2020 05:31:18 13 C 62 %
35 09-04-2020 05:41:18 13 C 62 %
36 09-04-2020 05:51:17 12.9 C 63 %
37 09-04-2020 06:01:18 12.9 C 63 %
38 09-04-2020 06:11:18 12.9 C 63 %
39 09-04-2020 06:21:17 12.9 C 63 %
40 09-04-2020 06:31:17 12.9 C 63 %
41 09-04-2020 06:41:17 12.9 C 63 %
42 09-04-2020 06:51:17 12.9 C 63 %
43 09-04-2020 07:01:17 12.8 C 63 %
44 09-04-2020 07:11:17 12.8 C 63 %
45 09-04-2020 07:21:17 12.8 C 63 %
46 09-04-2020 07:31:17 12.8 C 63 %
47 09-04-2020 07:41:17 12.8 C 63 %
48 09-04-2020 07:51:17 12.8 C 63 %
49 09-04-2020 08:01:17 12.8 C 63 %
50 09-04-2020 08:11:17 12.8 C 63 %
Sensor: Nr:Datum:Temp:Feuchte:
G-T/H 51 09-04-2020 08:21:18 12.8 C 63 %
52 09-04-2020 08:31:17 12.7 C 63 %
53 09-04-2020 08:41:17 12.8 C 63 %
54 09-04-2020 08:51:17 12.7 C 63 %
55 09-04-2020 09:01:17 12.7 C 63 %
56 09-04-2020 09:11:17 12.7 C 63 %
57 09-04-2020 09:21:17 12.7 C 63 %
58 09-04-2020 09:31:17 12.7 C 63 %
59 09-04-2020 09:41:17 12.7 C 63 %
60 09-04-2020 09:51:17 12.7 C 63 %
61 09-04-2020 10:01:17 12.7 C 64 %
62 09-04-2020 10:11:17 12.6 C 64 %
63 09-04-2020 10:21:17 12.7 C 64 %
64 09-04-2020 10:31:17 12.7 C 64 %
65 09-04-2020 10:41:17 12.7 C 64 %
66 09-04-2020 10:51:18 12.7 C 64 %
67 09-04-2020 11:01:17 12.7 C 64 %
68 09-04-2020 11:11:18 12.7 C 64 %
69 09-04-2020 11:21:17 12.7 C 64 %
70 09-04-2020 11:31:17 12.7 C 64 %
71 09-04-2020 11:41:17 12.6 C 64 %
72 09-04-2020 11:51:18 12.7 C 65 %
73 09-04-2020 12:01:17 12.7 C 65 %
74 09-04-2020 12:11:17 12.7 C 65 %
75 09-04-2020 12:21:17 12.7 C 65 %
Sensor: Nr:Datum:Temp:Feuchte:
G-T/H 76 09-04-2020 12:31:17 12.7 C 65 %
77 09-04-2020 12:41:17 12.7 C 65 %
78 09-04-2020 12:51:18 12.7 C 65 %
79 09-04-2020 13:01:17 12.7 C 65 %
80 09-04-2020 13:11:17 12.7 C 65 %
81 09-04-2020 13:21:17 12.7 C 65 %
82 09-04-2020 13:31:17 12.8 C 65 %
83 09-04-2020 13:41:18 12.8 C 65 %
84 09-04-2020 13:51:17 12.8 C 65 %
85 09-04-2020 14:01:17 12.8 C 65 %
86 09-04-2020 14:11:17 12.8 C 65 %
87 09-04-2020 14:21:17 12.8 C 65 %
88 09-04-2020 14:31:17 12.8 C 65 %
89 09-04-2020 14:41:17 12.9 C 65 %
90 09-04-2020 14:51:17 12.9 C 65 %
91 09-04-2020 15:01:17 12.9 C 65 %
92 09-04-2020 15:11:17 12.9 C 65 %
93 09-04-2020 15:21:17 13 C 64 %
94 09-04-2020 15:31:18 13 C 64 %
95 09-04-2020 15:41:18 13 C 64 %
96 09-04-2020 15:51:17 13 C 64 %
97 09-04-2020 16:01:18 13 C 64 %
98 09-04-2020 16:11:18 13 C 64 %
99 09-04-2020 16:21:17 13.1 C 64 %
100 09-04-2020 16:31:17 13.1 C 64 %
Sensor: Nr:Datum:Temp:Feuchte:
G-T/H 101 09-04-2020 16:41:17 13.1 C 64 %
102 09-04-2020 16:51:17 13.1 C 64 %
103 09-04-2020 17:01:17 13.1 C 64 %
104 09-04-2020 17:11:17 13.2 C 64 %
105 09-04-2020 17:21:17 13.9 C 62 %
106 09-04-2020 17:31:17 14.6 C 57 %
107 09-04-2020 17:41:17 15.2 C 52 %
108 09-04-2020 17:51:18 15.5 C 51 %
109 09-04-2020 18:01:18 15.6 C 50 %
110 09-04-2020 18:11:18 15.9 C 49 %
111 09-04-2020 18:21:17 16 C 48 %
112 09-04-2020 18:31:17 16.2 C 48 %
113 09-04-2020 18:41:17 16.2 C 48 %
114 09-04-2020 18:51:17 16.4 C 47 %
115 09-04-2020 19:01:18 16.4 C 47 %
116 09-04-2020 19:11:18 16.5 C 47 %
117 09-04-2020 19:21:17 16.6 C 47 %
118 09-04-2020 19:31:17 16.6 C 47 %
119 09-04-2020 19:41:17 16.6 C 47 %
120 09-04-2020 19:51:17 16.5 C 47 %
121 09-04-2020 20:01:17 16.5 C 47 %
122 09-04-2020 20:11:17 16.4 C 48 %
123 09-04-2020 20:21:17 16.2 C 48 %
124 09-04-2020 20:31:17 15.9 C 50 %
125 09-04-2020 20:41:17 15.8 C 51 %
Sensor: Nr:Datum:Temp:Feuchte:
G-T/H 126 09-04-2020 20:51:17 15.7 C 51 %
127 09-04-2020 21:01:17 15.6 C 51 %
128 09-04-2020 21:11:17 15.6 C 51 %
129 09-04-2020 21:21:17 15.6 C 51 %
130 09-04-2020 21:31:17 15.5 C 51 %
131 09-04-2020 21:41:17 15.4 C 51 %
132 09-04-2020 21:51:17 15.4 C 52 %
133 09-04-2020 22:01:17 15.2 C 52 %
134 09-04-2020 22:11:17 15.2 C 52 %
135 09-04-2020 22:21:17 15.2 C 52 %
136 09-04-2020 22:31:18 15.1 C 52 %
137 09-04-2020 22:41:18 15 C 52 %
138 09-04-2020 22:51:17 15 C 53 %
139 09-04-2020 23:01:18 15 C 54 %
140 09-04-2020 23:11:18 14.9 C 55 %
141 09-04-2020 23:21:17 14.8 C 56 %
142 09-04-2020 23:31:17 14.8 C 56 %
143 09-04-2020 23:41:18 14.8 C 56 %
144 09-04-2020 23:51:17 14.8 C 57 %
145 10-04-2020 00:01:17 14.7 C 57 %
146 10-04-2020 00:11:17 14.7 C 57 %
147 10-04-2020 00:21:18 14.7 C 57 %
148 10-04-2020 00:31:18 14.6 C 57 %
149 10-04-2020 00:41:18 14.6 C 58 %
150 10-04-2020 00:51:17 14.6 C 58 %
Sensor: Nr:Datum:Temp:Feuchte:
G-T/H 151 10-04-2020 01:01:17 14.5 C 58 %
152 10-04-2020 01:11:17 14.5 C 58 %
153 10-04-2020 01:21:17 14.5 C 58 %
154 10-04-2020 01:31:17 14.5 C 58 %
155 10-04-2020 01:41:17 14.4 C 58 %
156 10-04-2020 01:51:17 14.5 C 58 %
157 10-04-2020 02:01:17 14.4 C 58 %
158 10-04-2020 02:11:17 14.4 C 58 %
159 10-04-2020 02:21:18 14.4 C 58 %
160 10-04-2020 02:31:18 14.3 C 58 %
161 10-04-2020 02:41:18 14.3 C 58 %
162 10-04-2020 02:51:17 14.3 C 58 %
163 10-04-2020 03:01:18 14.2 C 58 %
164 10-04-2020 03:11:18 14.2 C 58 %
165 10-04-2020 03:21:17 14.2 C 58 %
166 10-04-2020 03:31:17 14.2 C 58 %
167 10-04-2020 03:41:17 14.2 C 58 %
168 10-04-2020 03:51:17 14.1 C 58 %
169 10-04-2020 04:01:18 14.1 C 58 %
170 10-04-2020 04:11:18 14.1 C 58 %
171 10-04-2020 04:21:17 14.1 C 58 %
172 10-04-2020 04:31:17 14.1 C 58 %
173 10-04-2020 04:41:17 14 C 58 %
174 10-04-2020 04:51:18 14 C 58 %
175 10-04-2020 05:01:17 14 C 58 %
Sensor: Nr:Datum:Temp:Feuchte:
G-T/H 176 10-04-2020 05:11:17 14 C 58 %
177 10-04-2020 05:21:18 14 C 58 %
178 10-04-2020 05:31:17 13.9 C 59 %
179 10-04-2020 05:41:17 13.9 C 59 %
180 10-04-2020 05:51:17 13.9 C 59 %
181 10-04-2020 06:01:17 13.8 C 59 %
182 10-04-2020 06:11:17 13.8 C 59 %
183 10-04-2020 06:21:17 13.8 C 59 %
184 10-04-2020 06:31:18 13.8 C 59 %
185 10-04-2020 06:41:18 13.8 C 59 %
186 10-04-2020 06:51:17 13.8 C 59 %
187 10-04-2020 07:01:18 13.7 C 59 %
188 10-04-2020 07:11:18 13.7 C 59 %
189 10-04-2020 07:21:17 13.7 C 59 %
190 10-04-2020 07:31:18 13.7 C 59 %
191 10-04-2020 07:41:18 13.6 C 59 %
192 10-04-2020 07:51:17 13.6 C 59 %
193 10-04-2020 08:01:17 13.6 C 59 %
194 10-04-2020 08:11:17 13.6 C 59 %
195 10-04-2020 08:21:17 13.6 C 59 %
196 10-04-2020 08:31:17 13.5 C 59 %
197 10-04-2020 08:41:17 13.5 C 59 %
198 10-04-2020 08:51:17 13.5 C 59 %
199 10-04-2020 09:01:17 13.4 C 59 %
200 10-04-2020 09:11:17 13.5 C 59 %
Sensor: Nr:Datum:Temp:Feuchte:
G-T/H 201 10-04-2020 09:21:18 13.4 C 59 %
202 10-04-2020 09:31:18 13.4 C 60 %
203 10-04-2020 09:41:18 13.4 C 60 %
204 10-04-2020 09:51:17 13.4 C 60 %
205 10-04-2020 10:01:17 13.3 C 60 %
206 10-04-2020 10:11:17 13.4 C 60 %
207 10-04-2020 10:21:17 13.3 C 60 %
208 10-04-2020 10:31:17 13.4 C 60 %
209 10-04-2020 10:41:17 13.3 C 61 %
210 10-04-2020 10:51:17 13.3 C 61 %
211 10-04-2020 11:01:17 13.3 C 61 %
212 10-04-2020 11:11:17 13.3 C 61 %
213 10-04-2020 11:21:17 13.3 C 61 %
214 10-04-2020 11:31:17 13.3 C 62 %
215 10-04-2020 11:41:17 13.3 C 62 %
216 10-04-2020 11:51:17 13.2 C 62 %
217 10-04-2020 12:01:17 13.3 C 62 %
218 10-04-2020 12:11:17 13.2 C 62 %
219 10-04-2020 12:21:17 13.2 C 62 %
220 10-04-2020 12:31:17 13.2 C 62 %
221 10-04-2020 12:41:17 13.2 C 62 %
222 10-04-2020 12:51:17 13.2 C 62 %
223 10-04-2020 13:01:17 13.3 C 62 %
224 10-04-2020 13:11:17 13.3 C 62 %
225 10-04-2020 13:21:17 13.3 C 62 %
Sensor: Nr:Datum:Temp:Feuchte:
G-T/H 226 10-04-2020 13:31:17 13.3 C 62 %
227 10-04-2020 13:41:17 13.3 C 62 %
228 10-04-2020 13:51:17 13.3 C 62 %
229 10-04-2020 14:01:17 13.3 C 63 %
230 10-04-2020 14:11:17 13.3 C 63 %
231 10-04-2020 14:21:18 13.4 C 63 %
232 10-04-2020 14:31:18 13.4 C 63 %
233 10-04-2020 14:41:18 13.4 C 63 %
234 10-04-2020 14:51:17 13.4 C 63 %
235 10-04-2020 15:01:17 13.4 C 63 %
236 10-04-2020 15:11:17 13.4 C 63 %
237 10-04-2020 15:21:17 13.4 C 63 %
238 10-04-2020 15:31:17 13.4 C 63 %
239 10-04-2020 15:41:17 13.4 C 63 %
240 10-04-2020 15:51:17 13.4 C 63 %
241 10-04-2020 16:01:17 13.4 C 63 %
242 10-04-2020 16:11:17 13.5 C 63 %
243 10-04-2020 16:21:17 13.5 C 63 %
244 10-04-2020 16:31:17 13.5 C 63 %
245 10-04-2020 16:41:17 13.5 C 63 %
246 10-04-2020 16:51:17 13.5 C 63 %
247 10-04-2020 17:01:17 13.5 C 63 %
248 10-04-2020 17:11:17 13.5 C 63 %
249 10-04-2020 17:21:17 13.5 C 63 %
250 10-04-2020 17:31:17 13.5 C 63 %
Sensor: Nr:Datum:Temp:Feuchte:
G-T/H 251 10-04-2020 17:41:17 13.6 C 63 %
252 10-04-2020 17:51:18 13.6 C 63 %
253 10-04-2020 18:01:17 13.6 C 63 %
254 10-04-2020 18:11:17 13.6 C 63 %
255 10-04-2020 18:21:18 13.6 C 63 %
256 10-04-2020 18:31:18 13.7 C 63 %
257 10-04-2020 18:41:18 13.8 C 62 %
258 10-04-2020 18:51:17 13.8 C 62 %
259 10-04-2020 19:01:17 13.8 C 62 %
260 10-04-2020 19:11:17 13.8 C 62 %
261 10-04-2020 19:21:17 13.8 C 62 %
262 10-04-2020 19:31:17 13.8 C 62 %
263 10-04-2020 19:41:17 13.8 C 62 %
264 10-04-2020 19:51:18 13.8 C 62 %
265 10-04-2020 20:01:17 13.8 C 63 %
266 10-04-2020 20:11:17 13.8 C 63 %
267 10-04-2020 20:21:18 13.8 C 63 %
268 10-04-2020 20:31:17 13.8 C 63 %
269 10-04-2020 20:41:17 13.8 C 63 %
270 10-04-2020 20:51:17 13.8 C 63 %
271 10-04-2020 21:01:17 13.8 C 63 %
272 10-04-2020 21:11:17 13.8 C 63 %
273 10-04-2020 21:21:17 13.8 C 63 %
274 10-04-2020 21:31:17 13.8 C 63 %
275 10-04-2020 21:41:17 13.8 C 63 %
Sensor: Nr:Datum:Temp:Feuchte:
G-T/H 276 10-04-2020 21:51:17 13.8 C 63 %
277 10-04-2020 22:01:18 13.8 C 63 %
278 10-04-2020 22:11:18 13.8 C 63 %
279 10-04-2020 22:21:18 13.8 C 63 %
280 10-04-2020 22:31:17 13.8 C 63 %
281 10-04-2020 22:41:17 13.8 C 63 %
282 10-04-2020 22:51:17 13.8 C 63 %
283 10-04-2020 23:01:17 13.8 C 63 %
284 10-04-2020 23:11:17 13.8 C 63 %
285 10-04-2020 23:21:17 13.8 C 63 %
286 10-04-2020 23:31:17 13.7 C 63 %
287 10-04-2020 23:41:17 13.7 C 63 %
288 10-04-2020 23:51:17 13.8 C 63 %
289 11-04-2020 00:01:18 13.8 C 63 %
290 11-04-2020 00:11:18 13.7 C 63 %
291 11-04-2020 00:21:17 13.8 C 63 %
292 11-04-2020 00:31:17 13.7 C 63 %
293 11-04-2020 00:41:18 13.7 C 63 %
294 11-04-2020 00:51:18 13.7 C 63 %
295 11-04-2020 01:01:17 13.7 C 63 %
296 11-04-2020 01:11:17 13.7 C 63 %
297 11-04-2020 01:21:17 13.7 C 63 %
298 11-04-2020 01:31:18 13.7 C 63 %
299 11-04-2020 01:41:18 13.7 C 63 %
300 11-04-2020 01:51:18 13.7 C 63 %
Sensor: Nr:Datum:Temp:Feuchte:
G-T/H 301 11-04-2020 02:01:17 13.7 C 63 %
302 11-04-2020 02:11:17 13.7 C 63 %
303 11-04-2020 02:21:18 13.7 C 62 %
304 11-04-2020 02:31:17 13.7 C 62 %
305 11-04-2020 02:41:17 13.6 C 62 %
306 11-04-2020 02:51:17 13.6 C 62 %
307 11-04-2020 03:01:17 13.6 C 62 %
308 11-04-2020 03:11:17 13.6 C 62 %
309 11-04-2020 03:21:17 13.5 C 61 %
310 11-04-2020 03:31:18 13.6 C 61 %
311 11-04-2020 03:41:18 13.5 C 61 %
312 11-04-2020 03:51:17 13.5 C 61 %
313 11-04-2020 04:01:17 13.5 C 61 %
314 11-04-2020 04:11:17 13.5 C 61 %
315 11-04-2020 04:21:17 13.5 C 60 %
316 11-04-2020 04:31:17 13.5 C 60 %
317 11-04-2020 04:41:17 13.4 C 59 %
318 11-04-2020 04:51:17 13.4 C 59 %
319 11-04-2020 05:01:17 13.4 C 58 %
320 11-04-2020 05:11:17 13.4 C 58 %
321 11-04-2020 05:21:17 13.4 C 58 %
322 11-04-2020 05:31:18 13.4 C 58 %
323 11-04-2020 05:41:18 13.3 C 58 %
324 11-04-2020 05:51:17 13.3 C 58 %
325 11-04-2020 06:01:17 13.3 C 58 %
Sensor: Nr:Datum:Temp:Feuchte:
G-T/H 326 11-04-2020 06:11:17 13.3 C 58 %
327 11-04-2020 06:21:17 13.3 C 58 %
328 11-04-2020 06:31:18 13.3 C 58 %
329 11-04-2020 06:41:18 13.2 C 58 %
330 11-04-2020 06:51:17 13.2 C 58 %
331 11-04-2020 07:01:18 13.2 C 58 %
332 11-04-2020 07:11:18 13.2 C 58 %
333 11-04-2020 07:21:17 13.2 C 58 %
334 11-04-2020 07:31:18 13.1 C 58 %
335 11-04-2020 07:41:18 13.2 C 58 %
336 11-04-2020 07:51:17 13.1 C 58 %
337 11-04-2020 08:01:18 13.1 C